Time,TemperatureF,DewpointF,PressureIn,WindDirection,WindDirectionDegrees,WindSpeedMPH,WindSpeedGustMPH,Humidity,HourlyPrecipIn,Conditions,Clouds,dailyrainin,SolarRadiationWatts/m^2,SoftwareType,DateUTC
2013-03-26 00:00:00,66.9,12.9,29.35,East,92,1.7,1.8,12,-99.99,,,0.00,0,rob ver 1A,2013-03-26 07:00:00,
2013-03-26 00:01:00,68.4,32.9,29.32,SSE,149,4.0,4.9,27,-99.99,,,0.00,0,rob ver 1B,2013-03-26 07:01:00,
2013-03-26 00:02:00,68.3,33.3,29.32,SSE,157,4.7,5.6,27,-99.99,,,0.00,0,rob ver 1B,2013-03-26 07:02:00,
2013-03-26 00:03:00,68.5,33.6,29.32,SSE,158,4.6,5.8,27,-99.99,,,0.00,0,rob ver 1B,2013-03-26 07:03:00,
2013-03-26 00:04:00,68.5,33.6,29.32,SSE,162,4.2,5.3,27,-99.99,,,0.00,0,rob ver 1B,2013-03-26 07:04:00,
2013-03-26 00:05:00,67.3,13.0,29.35,East,90,1.3,1.7,12,-99.99,,,0.00,0,rob ver 1A,2013-03-26 07:05:00,
2013-03-26 00:06:00,68.8,33.8,29.32,SSE,155,5.4,6.6,27,-99.99,,,0.00,0,rob ver 1B,2013-03-26 07:06:00,
2013-03-26 00:07:00,68.6,33.6,29.32,SE,140,6.1,7.5,27,-99.99,,,0.00,0,rob ver 1B,2013-03-26 07:07:00,
2013-03-26 00:08:00,68.5,34.0,29.32,SSE,163,6.6,8.5,27,-99.99,,,0.00,0,rob ver 1B,2013-03-26 07:08:00,
2013-03-26 00:09:00,68.7,34.0,29.32,SSE,160,6.4,7.5,27,-99.99,,,0.00,0,rob ver 1B,2013-03-26 07:09:00,
2013-03-26 00:10:00,67.1,13.0,29.35,NE,38,1.0,1.2,12,-99.99,,,0.00,0,rob ver 1A,2013-03-26 07:10:00,
2013-03-26 00:11:00,68.4,34.0,29.32,SSE,154,5.6,6.7,27,-99.99,,,0.00,0,rob ver 1B,2013-03-26 07:11:00,
2013-03-26 00:12:00,68.4,34.1,29.32,SSE,152,5.1,6.2,28,-99.99,,,0.00,0,rob ver 1B,2013-03-26 07:12:00,
2013-03-26 00:13:00,68.4,34.3,29.32,SSE,158,5.6,6.4,28,-99.99,,,0.00,0,rob ver 1B,2013-03-26 07:13:00,
2013-03-26 00:14:00,68.5,34.6,29.32,SSE,156,5.8,6.7,28,-99.99,,,0.00,0,rob ver 1B,2013-03-26 07:14:00,
2013-03-26 00:15:00,67.6,13.2,29.35,NNE,16,1.4,1.5,11,-99.99,,,0.00,0,rob ver 1A,2013-03-26 07:15:00,
2013-03-26 00:16:00,68.6,34.6,29.32,SE,140,3.8,4.7,28,-99.99,,,0.00,0,rob ver 1B,2013-03-26 07:16:00,
2013-03-26 00:17:00,68.6,34.6,29.32,SE,131,3.6,4.2,28,-99.99,,,0.00,0,rob ver 1B,2013-03-26 07:17:00,
2013-03-26 00:18:00,68.5,34.5,29.32,SE,130,3.1,3.8,28,-99.99,,,0.00,0,rob ver 1B,2013-03-26 07:18:00,
2013-03-26 00:19:00,68.5,34.6,29.32,SE,130,2.6,3.3,28,-99.99,,,0.00,0,rob ver 1B,2013-03-26 07:19:00,
2013-03-26 00:20:00,68.4,13.7,29.35,NNW,343,1.4,1.8,11,-99.99,,,0.00,0,rob ver 1A,2013-03-26 07:20:00,
2013-03-26 00:21:00,68.6,34.5,29.32,SE,125,2.9,3.4,28,-99.99,,,0.00,0,rob ver 1B,2013-03-26 07:21:00,
2013-03-26 00:22:00,68.7,34.5,29.32,ESE,114,2.8,3.3,28,-99.99,,,0.00,0,rob ver 1B,2013-03-26 07:22:00,
2013-03-26 00:23:00,68.8,34.5,29.32,ESE,109,2.9,3.2,28,-99.99,,,0.00,0,rob ver 1B,2013-03-26 07:23:00,
2013-03-26 00:24:00,68.8,34.5,29.32,ESE,110,2.7,3.0,28,-99.99,,,0.00,0,rob ver 1B,2013-03-26 07:24:00,
2013-03-26 00:25:00,69.5,14.2,29.35,North,8,1.6,1.9,11,-99.99,,,0.00,0,rob ver 1A,2013-03-26 07:25:00,
2013-03-26 00:26:00,69.0,34.6,29.32,ESE,114,2.7,3.1,28,-99.99,,,0.00,0,rob ver 1B,2013-03-26 07:26:00,
2013-03-26 00:27:00,69.1,34.6,29.32,ESE,119,2.7,3.4,27,-99.99,,,0.00,0,rob ver 1B,2013-03-26 07:27:00,
2013-03-26 00:28:00,69.2,34.7,29.32,SE,124,3.3,4.0,27,-99.99,,,0.00,0,rob ver 1B,2013-03-26 07:28:00,
2013-03-26 00:29:00,69.1,34.5,29.32,ESE,121,3.8,4.0,27,-99.99,,,0.00,0,rob ver 1B,2013-03-26 07:29:00,
2013-03-26 00:30:00,69.9,15.0,29.35,North,9,1.3,2.2,12,-99.99,,,0.00,0,rob ver 1A,2013-03-26 07:30:00,
2013-03-26 00:31:00,68.8,33.9,29.32,SE,136,2.6,2.8,27,-99.99,,,0.00,0,rob ver 1B,2013-03-26 07:31:00,
2013-03-26 00:32:00,68.5,34.2,29.32,SE,140,2.4,2.7,28,-99.99,,,0.00,0,rob ver 1B,2013-03-26 07:32:00,
2013-03-26 00:33:00,68.5,34.3,29.32,SE,141,2.5,2.8,28,-99.99,,,0.00,0,rob ver 1B,2013-03-26 07:33:00,
2013-03-26 00:34:00,68.5,34.3,29.32,SE,139,2.8,3.0,28,-99.99,,,0.00,0,rob ver 1B,2013-03-26 07:34:00,
2013-03-26 00:35:00,68.5,34.2,29.32,SE,140,3.0,3.6,28,-99.99,,,0.00,0,rob ver 1B,2013-03-26 07:35:00,
2013-03-26 00:36:00,70.4,16.8,29.35,SSE,156,0.6,1.3,12,-99.99,,,0.00,0,rob ver 1A,2013-03-26 07:36:00,
2013-03-26 00:37:00,68.5,34.3,29.32,SE,146,3.5,4.0,28,-99.99,,,0.00,0,rob ver 1B,2013-03-26 07:37:00,
2013-03-26 00:38:00,68.5,34.1,29.32,SSE,150,3.8,4.2,27,-99.99,,,0.00,0,rob ver 1B,2013-03-26 07:38:00,
2013-03-26 00:39:00,68.5,33.8,29.32,SSE,148,3.9,4.2,27,-99.99,,,0.00,0,rob ver 1B,2013-03-26 07:39:00,
2013-03-26 00:40:00,68.4,33.7,29.32,SSE,149,4.2,4.6,27,-99.99,,,0.00,0,rob ver 1B,2013-03-26 07:40:00,
2013-03-26 00:41:00,70.4,17.5,29.35,SSE,149,1.3,2.4,13,-99.99,,,0.00,0,rob ver 1A,2013-03-26 07:41:00,
2013-03-26 00:42:00,68.3,33.6,29.32,SSE,155,4.4,4.7,27,-99.99,,,0.00,0,rob ver 1B,2013-03-26 07:42:00,
2013-03-26 00:43:00,68.2,33.4,29.32,SSE,160,4.7,5.1,27,-99.99,,,0.00,0,rob ver 1B,2013-03-26 07:43:00,
2013-03-26 00:44:00,68.1,33.2,29.32,SSE,161,4.8,5.3,27,-99.99,,,0.00,0,rob ver 1B,2013-03-26 07:44:00,
2013-03-26 00:45:00,68.0,33.2,29.32,SSE,160,5.2,5.8,27,-99.99,,,0.00,0,rob ver 1B,2013-03-26 07:45:00,
2013-03-26 00:46:00,70.9,17.8,29.35,SSW,199,0.9,1.6,13,-99.99,,,0.00,0,rob ver 1A,2013-03-26 07:46:00,
2013-03-26 00:47:00,67.9,31.8,29.32,SSE,166,5.6,6.4,25,-99.99,,,0.00,0,rob ver 1B,2013-03-26 07:47:00,
2013-03-26 00:48:00,68.0,31.4,29.32,SSE,168,5.5,6.1,25,-99.99,,,0.00,0,rob ver 1B,2013-03-26 07:48:00,
2013-03-26 00:49:00,68.1,30.9,29.32,South,171,5.3,5.7,24,-99.99,,,0.00,0,rob ver 1B,2013-03-26 07:49:00,
2013-03-26 00:50:00,68.2,30.8,29.32,South,174,5.1,5.8,24,-99.99,,,0.00,0,rob ver 1B,2013-03-26 07:50:00,
2013-03-26 00:51:00,72.1,19.3,29.35,South,178,4.4,6.4,13,-99.99,,,0.00,0,rob ver 1A,2013-03-26 07:51:00,
2013-03-26 00:52:00,68.1,30.4,29.32,South,176,4.9,5.3,24,-99.99,,,0.00,0,rob ver 1B,2013-03-26 07:52:00,
2013-03-26 00:53:00,68.0,30.5,29.32,South,169,4.6,5.3,24,-99.99,,,0.00,0,rob ver 1B,2013-03-26 07:53:00,
2013-03-26 00:54:00,67.9,30.7,29.32,SSE,165,4.4,4.9,24,-99.99,,,0.00,0,rob ver 1B,2013-03-26 07:54:00,
2013-03-26 00:55:00,67.8,31.1,29.32,SSE,166,3.9,4.4,25,-99.99,,,0.00,0,rob ver 1B,2013-03-26 07:55:00,
2013-03-26 00:56:00,73.0,19.6,29.35,SSW,192,2.9,4.0,13,-99.99,,,0.00,0,rob ver 1A,2013-03-26 07:56:00,
2013-03-26 00:57:00,67.8,31.2,29.32,SSE,162,3.5,4.0,25,-99.99,,,0.00,0,rob ver 1B,2013-03-26 07:57:00,
2013-03-26 00:58:00,67.7,30.9,29.32,SSE,155,3.1,3.6,25,-99.99,,,0.00,0,rob ver 1B,2013-03-26 07:58:00,
2013-03-26 00:59:00,67.6,30.7,29.32,SSE,152,3.4,3.6,24,-99.99,,,0.00,0,rob ver 1B,2013-03-26 07:59:00,
2013-03-26 01:00:00,67.6,30.4,29.32,SSE,154,3.2,3.6,24,-99.99,,,0.00,0,rob ver 1B,2013-03-26 08:00:00,
2013-03-26 01:01:00,73.0,19.6,29.35,SSE,148,4.2,6.8,13,-99.99,,,0.00,0,rob ver 1A,2013-03-26 08:01:00,
2013-03-26 01:02:00,67.8,30.6,29.32,SE,145,3.0,3.2,24,-99.99,,,0.00,0,rob ver 1B,2013-03-26 08:02:00,
2013-03-26 01:03:00,67.8,30.6,29.32,SE,143,3.0,3.2,24,-99.99,,,0.00,0,rob ver 1B,2013-03-26 08:03:00,
2013-03-26 01:04:00,67.8,30.4,29.32,SE,144,3.2,3.4,24,-99.99,,,0.00,0,rob ver 1B,2013-03-26 08:04:00,
2013-03-26 01:05:00,67.8,30.3,29.32,SE,143,3.0,3.2,24,-99.99,,,0.00,0,rob ver 1B,2013-03-26 08:05:00,
2013-03-26 01:06:00,73.2,19.7,29.35,South,173,3.3,6.4,13,-99.99,,,0.00,0,rob ver 1A,2013-03-26 08:06:00,
2013-03-26 01:07:00,67.9,29.9,29.32,SSE,147,3.8,4.1,23,-99.99,,,0.00,0,rob ver 1B,2013-03-26 08:07:00,
2013-03-26 01:08:00,68.2,29.7,29.32,SSE,150,3.8,4.0,23,-99.99,,,0.00,0,rob ver 1B,2013-03-26 08:08:00,
2013-03-26 01:09:00,68.3,29.8,29.32,SSE,153,3.9,4.1,23,-99.99,,,0.00,0,rob ver 1B,2013-03-26 08:09:00,
2013-03-26 01:10:00,68.3,29.8,29.32,SSE,155,4.1,4.4,23,-99.99,,,0.00,0,rob ver 1B,2013-03-26 08:10:00,
2013-03-26 01:11:00,72.6,19.6,29.35,SSE,161,4.5,7.0,13,-99.99,,,0.00,0,rob ver 1A,2013-03-26 08:11:00,
2013-03-26 01:12:00,68.3,29.7,29.32,SSE,159,4.5,5.0,23,-99.99,,,0.00,0,rob ver 1B,2013-03-26 08:12:00,
2013-03-26 01:13:00,68.4,29.5,29.32,SSE,164,4.6,4.7,23,-99.99,,,0.00,0,rob ver 1B,2013-03-26 08:13:00,
2013-03-26 01:14:00,68.7,29.7,29.32,SSE,166,4.7,4.8,23,-99.99,,,0.00,0,rob ver 1B,2013-03-26 08:14:00,
2013-03-26 01:15:00,68.6,29.7,29.32,SSE,162,5.1,5.2,23,-99.99,,,0.00,0,rob ver 1B,2013-03-26 08:15:00,
2013-03-26 01:16:00,72.7,19.9,29.35,South,179,5.7,7.8,13,-99.99,,,0.00,0,rob ver 1A,2013-03-26 08:16:00,
2013-03-26 01:17:00,68.3,29.4,29.32,SSE,158,4.7,5.5,23,-99.99,,,0.00,0,rob ver 1B,2013-03-26 08:17:00,
2013-03-26 01:18:00,68.1,29.4,29.32,SSE,159,4.9,5.3,23,-99.99,,,0.00,0,rob ver 1B,2013-03-26 08:18:00,
2013-03-26 01:19:00,67.8,29.3,29.32,SSE,155,4.4,4.9,23,-99.99,,,0.00,0,rob ver 1B,2013-03-26 08:19:00,
2013-03-26 01:20:00,67.7,29.3,29.32,SSE,155,4.3,4.9,23,-99.99,,,0.00,0,rob ver 1B,2013-03-26 08:20:00,
2013-03-26 01:21:00,72.9,19.9,29.35,South,181,5.1,7.3,13,-99.99,,,0.00,0,rob ver 1A,2013-03-26 08:21:00,
2013-03-26 01:22:00,67.7,29.2,29.32,SSE,157,4.0,4.7,23,-99.99,,,0.00,0,rob ver 1B,2013-03-26 08:22:00,
2013-03-26 01:23:00,67.7,29.2,29.32,SSE,157,3.4,3.8,23,-99.99,,,0.00,0,rob ver 1B,2013-03-26 08:23:00,
2013-03-26 01:24:00,67.8,29.2,29.32,SSE,149,2.5,3.0,23,-99.99,,,0.00,0,rob ver 1B,2013-03-26 08:24:00,
2013-03-26 01:25:00,67.8,29.1,29.32,SSE,148,2.1,2.7,23,-99.99,,,0.00,0,rob ver 1B,2013-03-26 08:25:00,
2013-03-26 01:26:00,72.6,19.5,29.35,South,171,3.1,5.3,13,-99.99,,,0.00,0,rob ver 1A,2013-03-26 08:26:00,
2013-03-26 01:27:00,67.6,29.0,29.32,SSE,147,1.7,2.2,23,-99.99,,,0.00,0,rob ver 1B,2013-03-26 08:27:00,
2013-03-26 01:28:00,67.5,28.9,29.32,SE,143,1.7,2.0,23,-99.99,,,0.00,0,rob ver 1B,2013-03-26 08:28:00,
2013-03-26 01:29:00,67.6,28.7,29.32,SE,127,1.3,1.8,23,-99.99,,,0.00,0,rob ver 1B,2013-03-26 08:29:00,
2013-03-26 01:30:00,67.6,28.7,29.32,ENE,66,1.0,2.3,23,-99.99,,,0.00,0,rob ver 1B,2013-03-26 08:30:00,
2013-03-26 01:31:00,67.4,28.8,29.32,North,10,3.0,3.6,23,-99.99,,,0.00,0,rob ver 1B,2013-03-26 08:31:00,
2013-03-26 01:32:00,72.2,19.5,29.35,SSE,156,3.2,4.0,13,-99.99,,,0.00,0,rob ver 1A,2013-03-26 08:32:00,
2013-03-26 01:33:00,67.3,28.4,29.32,NNE,25,2.3,3.1,23,-99.99,,,0.00,0,rob ver 1B,2013-03-26 08:33:00,
2013-03-26 01:34:00,67.3,28.2,29.32,ENE,59,2.6,3.2,22,-99.99,,,0.00,0,rob ver 1B,2013-03-26 08:34:00,
2013-03-26 01:35:00,67.3,28.2,29.32,ENE,63,3.3,3.9,22,-99.99,,,0.00,0,rob ver 1B,2013-03-26 08:35:00,
2013-03-26 01:36:00,67.4,28.0,29.32,ENE,64,2.7,3.6,22,-99.99,,,0.00,0,rob ver 1B,2013-03-26 08:36:00,
2013-03-26 01:37:00,70.8,19.4,29.35,NE,56,2.2,2.8,13,-99.99,,,0.00,0,rob ver 1A,2013-03-26 08:37:00,
2013-03-26 01:38:00,67.5,27.4,29.32,ENE,67,2.9,3.7,22,-99.99,,,0.00,0,rob ver 1B,2013-03-26 08:38:00,
2013-03-26 01:39:00,67.7,27.6,29.32,ENE,65,2.8,3.6,22,-99.99,,,0.00,0,rob ver 1B,2013-03-26 08:39:00,
2013-03-26 01:40:00,67.8,27.3,29.32,East,92,2.1,3.2,21,-99.99,,,0.00,0,rob ver 1B,2013-03-26 08:40:00,
2013-03-26 01:41:00,68.0,27.2,29.32,East,99,2.4,3.2,21,-99.99,,,0.00,0,rob ver 1B,2013-03-26 08:41:00,
2013-03-26 01:42:00,70.9,19.3,29.35,ENE,75,1.5,1.7,13,-99.99,,,0.00,0,rob ver 1A,2013-03-26 08:42:00,
2013-03-26 01:43:00,68.2,26.9,29.32,ESE,103,2.2,2.9,21,-99.99,,,0.00,0,rob ver 1B,2013-03-26 08:43:00,
2013-03-26 01:44:00,68.2,27.0,29.32,ESE,107,2.3,2.9,21,-99.99,,,0.00,0,rob ver 1B,2013-03-26 08:44:00,
2013-03-26 01:45:00,68.1,26.7,29.32,ESE,112,2.8,3.2,20,-99.99,,,0.00,0,rob ver 1B,2013-03-26 08:45:00,
2013-03-26 01:46:00,68.3,26.8,29.32,ESE,114,3.0,3.2,20,-99.99,,,0.00,0,rob ver 1B,2013-03-26 08:46:00,
2013-03-26 01:47:00,70.8,19.2,29.35,ENE,67,2.0,2.6,13,-99.99,,,0.00,0,rob ver 1A,2013-03-26 08:47:00,
2013-03-26 01:48:00,68.3,26.5,29.32,East,101,2.2,2.7,20,-99.99,,,0.00,0,rob ver 1B,2013-03-26 08:48:00,
2013-03-26 01:49:00,68.2,26.5,29.32,East,86,1.8,2.2,20,-99.99,,,0.00,0,rob ver 1B,2013-03-26 08:49:00,
2013-03-26 01:50:00,68.1,26.5,29.32,ENE,71,1.3,1.6,20,-99.99,,,0.00,0,rob ver 1B,2013-03-26 08:50:00,
2013-03-26 01:51:00,68.0,26.5,29.32,ENE,66,1.1,1.3,20,-99.99,,,0.00,0,rob ver 1B,2013-03-26 08:51:00,
2013-03-26 01:52:00,69.6,18.4,29.35,ENE,67,2.8,3.4,14,-99.99,,,0.00,0,rob ver 1A,2013-03-26 08:52:00,
2013-03-26 01:53:00,67.9,26.2,29.32,East,100,1.5,1.7,20,-99.99,,,0.00,0,rob ver 1B,2013-03-26 08:53:00,
2013-03-26 01:54:00,68.0,26.1,29.32,ESE,120,1.9,2.2,20,-99.99,,,0.00,0,rob ver 1B,2013-03-26 08:54:00,
2013-03-26 01:55:00,68.2,25.9,29.32,SE,130,2.1,2.5,20,-99.99,,,0.00,0,rob ver 1B,2013-03-26 08:55:00,
2013-03-26 01:56:00,68.3,26.0,29.32,SE,127,2.2,2.4,20,-99.99,,,0.00,0,rob ver 1B,2013-03-26 08:56:00,
2013-03-26 01:57:00,69.5,18.0,29.35,ENE,77,3.2,3.5,13,-99.99,,,0.00,0,rob ver 1A,2013-03-26 08:57:00,
2013-03-26 01:58:00,68.3,25.9,29.32,ESE,119,2.7,2.8,20,-99.99,,,0.00,0,rob ver 1B,2013-03-26 08:58:00,
2013-03-26 01:59:00,68.2,26.1,29.32,ESE,123,2.8,2.9,20,-99.99,,,0.00,0,rob ver 1B,2013-03-26 08:59:00,
2013-03-26 02:00:00,68.0,26.4,29.32,SE,125,3.1,3.4,20,-99.99,,,0.00,0,rob ver 1B,2013-03-26 09:00:00,
2013-03-26 02:01:00,67.6,26.3,29.32,ESE,121,3.5,3.7,21,-99.99,,,0.00,0,rob ver 1B,2013-03-26 09:01:00,
2013-03-26 02:02:00,68.4,18.4,29.35,ENE,57,2.3,2.7,14,-99.99,,,0.00,0,rob ver 1A,2013-03-26 09:02:00,
2013-03-26 02:03:00,67.1,26.3,29.32,SE,135,4.1,4.6,21,-99.99,,,0.00,0,rob ver 1B,2013-03-26 09:03:00,
2013-03-26 02:04:00,67.0,26.1,29.32,SE,131,4.2,4.5,21,-99.99,,,0.00,0,rob ver 1B,2013-03-26 09:04:00,
2013-03-26 02:05:00,67.2,25.9,29.32,SE,125,4.0,4.1,20,-99.99,,,0.00,0,rob ver 1B,2013-03-26 09:05:00,
2013-03-26 02:06:00,67.3,25.8,29.32,ESE,123,3.6,4.0,20,-99.99,,,0.00,0,rob ver 1B,2013-03-26 09:06:00,
2013-03-26 02:07:00,67.7,18.1,29.35,NNE,29,1.5,2.0,14,-99.99,,,0.00,0,rob ver 1A,2013-03-26 09:07:00,
2013-03-26 02:08:00,67.4,25.6,29.32,SE,127,2.7,2.9,20,-99.99,,,0.00,0,rob ver 1B,2013-03-26 09:08:00,
2013-03-26 02:09:00,67.4,25.4,29.32,SE,126,2.2,2.6,20,-99.99,,,0.00,0,rob ver 1B,2013-03-26 09:09:00,
2013-03-26 02:10:00,67.5,25.4,29.32,SE,126,2.0,2.4,20,-99.99,,,0.00,0,rob ver 1B,2013-03-26 09:10:00,
2013-03-26 02:11:00,67.5,25.4,29.32,SE,132,1.7,2.3,20,-99.99,,,0.00,0,rob ver 1B,2013-03-26 09:11:00,
2013-03-26 02:12:00,66.4,17.6,29.35,North,349,3.6,3.9,15,-99.99,,,0.00,0,rob ver 1A,2013-03-26 09:12:00,
2013-03-26 02:13:00,67.4,25.4,29.32,SSE,151,1.7,2.1,20,-99.99,,,0.00,0,rob ver 1B,2013-03-26 09:13:00,
2013-03-26 02:14:00,67.3,25.5,29.32,SE,142,1.9,2.4,20,-99.99,,,0.00,0,rob ver 1B,2013-03-26 09:14:00,
2013-03-26 02:15:00,67.3,25.4,29.29,SE,139,2.1,2.4,20,-99.99,,,0.00,0,rob ver 1B,2013-03-26 09:15:00,
2013-03-26 02:16:00,67.3,25.4,29.29,SE,140,2.6,3.0,20,-99.99,,,0.00,0,rob ver 1B,2013-03-26 09:16:00,
2013-03-26 02:17:00,64.7,17.2,29.35,North,358,4.1,4.5,15,-99.99,,,0.00,0,rob ver 1A,2013-03-26 09:17:00,
2013-03-26 02:18:00,67.3,25.1,29.32,SE,142,2.8,2.9,20,-99.99,,,0.00,0,rob ver 1B,2013-03-26 09:18:00,
2013-03-26 02:19:00,67.4,25.4,29.29,SE,141,2.9,3.1,20,-99.99,,,0.00,0,rob ver 1B,2013-03-26 09:19:00,
2013-03-26 02:20:00,67.2,25.4,29.29,SE,134,3.1,3.4,20,-99.99,,,0.00,0,rob ver 1B,2013-03-26 09:20:00,
2013-03-26 02:21:00,67.0,25.4,29.29,ESE,112,2.7,3.1,20,-99.99,,,0.00,0,rob ver 1B,2013-03-26 09:21:00,
2013-03-26 02:22:00,65.3,17.5,29.35,North,3,3.2,3.5,16,-99.99,,,0.00,0,rob ver 1A,2013-03-26 09:22:00,
2013-03-26 02:23:00,66.5,25.5,29.29,East,84,3.1,3.5,21,-99.99,,,0.00,0,rob ver 1B,2013-03-26 09:23:00,
2013-03-26 02:24:00,66.3,25.5,29.29,East,86,3.1,3.5,21,-99.99,,,0.00,0,rob ver 1B,2013-03-26 09:24:00,
2013-03-26 02:25:00,66.2,25.4,29.29,East,86,3.4,4.3,21,-99.99,,,0.00,0,rob ver 1B,2013-03-26 09:25:00,
2013-03-26 02:26:00,66.1,25.4,29.29,East,86,3.9,4.7,21,-99.99,,,0.00,0,rob ver 1B,2013-03-26 09:26:00,
2013-03-26 02:27:00,66.0,25.3,29.29,East,95,4.0,4.8,21,-99.99,,,0.00,0,rob ver 1B,2013-03-26 09:27:00,
2013-03-26 02:28:00,66.6,18.5,29.35,North,8,2.2,2.8,15,-99.99,,,0.00,0,rob ver 1A,2013-03-26 09:28:00,
2013-03-26 02:29:00,66.5,25.5,29.29,East,86,3.5,4.4,21,-99.99,,,0.00,0,rob ver 1B,2013-03-26 09:29:00,
2013-03-26 02:30:00,66.5,25.5,29.29,East,84,3.8,4.8,21,-99.99,,,0.00,0,rob ver 1B,2013-03-26 09:30:00,
2013-03-26 02:31:00,66.5,25.5,29.29,ENE,78,4.1,4.5,21,-99.99,,,0.00,0,rob ver 1B,2013-03-26 09:31:00,
2013-03-26 02:32:00,66.4,25.5,29.29,ENE,72,3.9,4.5,21,-99.99,,,0.00,0,rob ver 1B,2013-03-26 09:32:00,
2013-03-26 02:33:00,67.2,18.1,29.32,North,6,2.7,3.0,15,-99.99,,,0.00,0,rob ver 1A,2013-03-26 09:33:00,
2013-03-26 02:34:00,66.2,25.5,29.29,ENE,59,3.3,4.0,21,-99.99,,,0.00,0,rob ver 1B,2013-03-26 09:34:00,
2013-03-26 02:35:00,66.0,25.7,29.29,ENE,58,3.9,4.3,21,-99.99,,,0.00,0,rob ver 1B,2013-03-26 09:35:00,
2013-03-26 02:36:00,65.7,25.8,29.29,ENE,57,4.1,4.7,22,-99.99,,,0.00,0,rob ver 1B,2013-03-26 09:36:00,
2013-03-26 02:37:00,65.5,25.9,29.29,ENE,57,4.0,4.5,22,-99.99,,,0.00,0,rob ver 1B,2013-03-26 09:37:00,
2013-03-26 02:38:00,67.4,18.2,29.32,North,5,2.4,3.0,14,-99.99,,,0.00,0,rob ver 1A,2013-03-26 09:38:00,
2013-03-26 02:39:00,65.2,26.0,29.29,ENE,65,3.7,4.2,22,-99.99,,,0.00,0,rob ver 1B,2013-03-26 09:39:00,
2013-03-26 02:40:00,65.2,26.0,29.29,ENE,70,4.0,4.4,22,-99.99,,,0.00,0,rob ver 1B,2013-03-26 09:40:00,
2013-03-26 02:41:00,65.1,26.0,29.29,ENE,75,3.9,4.3,22,-99.99,,,0.00,0,rob ver 1B,2013-03-26 09:41:00,
2013-03-26 02:42:00,65.0,26.0,29.29,East,83,3.4,3.9,22,-99.99,,,0.00,0,rob ver 1B,2013-03-26 09:42:00,
2013-03-26 02:43:00,66.3,17.4,29.35,North,9,2.7,3.0,15,-99.99,,,0.00,0,rob ver 1A,2013-03-26 09:43:00,
2013-03-26 02:44:00,65.1,25.9,29.29,East,88,3.0,3.3,22,-99.99,,,0.00,0,rob ver 1B,2013-03-26 09:44:00,
2013-03-26 02:45:00,64.9,25.8,29.29,East,89,2.7,3.2,22,-99.99,,,0.00,0,rob ver 1B,2013-03-26 09:45:00,
2013-03-26 02:46:00,64.8,25.8,29.29,East,97,3.1,4.0,22,-99.99,,,0.00,0,rob ver 1B,2013-03-26 09:46:00,
2013-03-26 02:47:00,65.0,25.8,29.29,ESE,109,2.5,3.3,22,-99.99,,,0.00,0,rob ver 1B,2013-03-26 09:47:00,
2013-03-26 02:48:00,65.8,17.3,29.35,North,2,2.2,2.5,15,-99.99,,,0.00,0,rob ver 1A,2013-03-26 09:48:00,
2013-03-26 02:49:00,65.1,25.6,29.29,ESE,119,1.6,2.1,22,-99.99,,,0.00,0,rob ver 1B,2013-03-26 09:49:00,
2013-03-26 02:50:00,65.2,25.5,29.29,SE,131,1.6,1.9,22,-99.99,,,0.00,0,rob ver 1B,2013-03-26 09:50:00,
2013-03-26 02:51:00,65.3,25.4,29.29,SE,124,1.5,1.7,21,-99.99,,,0.00,0,rob ver 1B,2013-03-26 09:51:00,
2013-03-26 02:52:00,65.4,25.4,29.29,SE,136,0.9,1.3,21,-99.99,,,0.00,0,rob ver 1B,2013-03-26 09:52:00,
2013-03-26 02:53:00,65.0,17.4,29.35,North,8,2.5,2.7,15,-99.99,,,0.00,0,rob ver 1A,2013-03-26 09:53:00,
2013-03-26 02:54:00,65.5,25.2,29.29,South,174,0.9,1.5,21,-99.99,,,0.00,0,rob ver 1B,2013-03-26 09:54:00,
2013-03-26 02:55:00,65.5,25.0,29.29,South,176,1.1,1.8,21,-99.99,,,0.00,0,rob ver 1B,2013-03-26 09:55:00,
2013-03-26 02:56:00,65.5,25.0,29.29,South,185,1.3,1.9,21,-99.99,,,0.00,0,rob ver 1B,2013-03-26 09:56:00,
2013-03-26 02:57:00,65.6,24.8,29.29,SSW,193,1.7,2.4,21,-99.99,,,0.00,0,rob ver 1B,2013-03-26 09:57:00,
2013-03-26 02:58:00,65.0,18.0,29.32,North,358,3.8,4.0,16,-99.99,,,0.00,0,rob ver 1A,2013-03-26 09:58:00,
2013-03-26 02:59:00,65.6,24.5,29.29,SSW,202,2.1,2.6,20,-99.99,,,0.00,0,rob ver 1B,2013-03-26 09:59:00,
2013-03-26 03:00:00,65.6,24.3,29.29,SSW,208,1.8,2.3,20,-99.99,,,0.00,0,rob ver 1B,2013-03-26 10:00:00,
2013-03-26 03:01:00,65.6,24.2,29.29,SW,216,1.4,1.6,20,-99.99,,,0.00,0,rob ver 1B,2013-03-26 10:01:00,
2013-03-26 03:02:00,65.6,24.5,29.29,West,264,1.3,1.6,20,-99.99,,,0.00,0,rob ver 1B,2013-03-26 10:02:00,
2013-03-26 03:03:00,65.4,17.7,29.32,North,8,3.7,4.0,15,-99.99,,,0.00,0,rob ver 1A,2013-03-26 10:03:00,
2013-03-26 03:04:00,65.4,25.0,29.29,NW,323,1.9,2.3,21,-99.99,,,0.00,0,rob ver 1B,2013-03-26 10:04:00,
2013-03-26 03:05:00,65.3,24.5,29.29,NW,314,1.3,1.8,21,-99.99,,,0.00,0,rob ver 1B,2013-03-26 10:05:00,
2013-03-26 03:06:00,65.3,24.3,29.29,NW,310,1.6,2.1,20,-99.99,,,0.00,0,rob ver 1B,2013-03-26 10:06:00,
2013-03-26 03:07:00,65.4,23.6,29.29,WNW,302,1.6,3.0,20,-99.99,,,0.00,0,rob ver 1B,2013-03-26 10:07:00,
2013-03-26 03:08:00,65.2,18.2,29.32,NNE,14,3.8,4.1,16,-99.99,,,0.00,0,rob ver 1A,2013-03-26 10:08:00,
2013-03-26 03:09:00,65.7,23.3,29.29,WNW,289,1.3,2.1,19,-99.99,,,0.00,0,rob ver 1B,2013-03-26 10:09:00,
2013-03-26 03:10:00,65.8,23.3,29.29,West,278,1.2,2.0,19,-99.99,,,0.00,0,rob ver 1B,2013-03-26 10:10:00,
2013-03-26 03:11:00,66.0,22.5,29.29,West,262,2.1,4.5,18,-99.99,,,0.00,0,rob ver 1B,2013-03-26 10:11:00,
2013-03-26 03:12:00,66.3,22.1,29.29,WSW,248,2.3,3.5,18,-99.99,,,0.00,0,rob ver 1B,2013-03-26 10:12:00,
2013-03-26 03:13:00,64.9,18.4,29.32,NNE,17,4.1,4.3,16,-99.99,,,0.00,0,rob ver 1A,2013-03-26 10:13:00,
2013-03-26 03:14:00,66.8,21.5,29.29,WSW,240,2.6,4.5,17,-99.99,,,0.00,0,rob ver 1B,2013-03-26 10:14:00,
2013-03-26 03:15:00,66.9,21.4,29.29,SW,236,2.6,3.4,17,-99.99,,,0.00,0,rob ver 1B,2013-03-26 10:15:00,
2013-03-26 03:16:00,66.9,21.2,29.29,WSW,237,2.4,4.0,17,-99.99,,,0.00,0,rob ver 1B,2013-03-26 10:16:00,
2013-03-26 03:17:00,67.0,21.0,29.29,WSW,241,2.1,2.8,17,-99.99,,,0.00,0,rob ver 1B,2013-03-26 10:17:00,
2013-03-26 03:18:00,65.1,18.8,29.32,NE,36,3.6,4.0,16,-99.99,,,0.00,0,rob ver 1A,2013-03-26 10:18:00,
2013-03-26 03:19:00,67.0,20.9,29.29,SSW,208,2.0,2.7,17,-99.99,,,0.00,0,rob ver 1B,2013-03-26 10:19:00,
2013-03-26 03:20:00,67.0,20.8,29.29,South,189,2.2,3.2,16,-99.99,,,0.00,0,rob ver 1B,2013-03-26 10:20:00,
2013-03-26 03:21:00,66.9,20.6,29.29,SSW,210,2.6,3.5,16,-99.99,,,0.00,0,rob ver 1B,2013-03-26 10:21:00,
2013-03-26 03:22:00,66.8,20.4,29.29,SSW,192,2.4,3.4,16,-99.99,,,0.00,0,rob ver 1B,2013-03-26 10:22:00,
2013-03-26 03:23:00,64.9,18.2,29.32,NE,35,4.2,4.4,16,-99.99,,,0.00,0,rob ver 1A,2013-03-26 10:23:00,
2013-03-26 03:24:00,66.9,20.1,29.29,South,182,3.9,5.3,16,-99.99,,,0.00,0,rob ver 1B,2013-03-26 10:24:00,
2013-03-26 03:25:00,66.9,20.1,29.29,South,174,3.5,4.1,16,-99.99,,,0.00,0,rob ver 1B,2013-03-26 10:25:00,
2013-03-26 03:26:00,66.8,20.1,29.29,SSE,162,3.3,4.0,16,-99.99,,,0.00,0,rob ver 1B,2013-03-26 10:26:00,
2013-03-26 03:27:00,66.8,20.4,29.29,SSE,165,3.3,4.1,16,-99.99,,,0.00,0,rob ver 1B,2013-03-26 10:27:00,
2013-03-26 03:28:00,64.0,17.7,29.32,NNE,13,2.7,3.7,16,-99.99,,,0.00,0,rob ver 1A,2013-03-26 10:28:00,
2013-03-26 03:29:00,66.4,20.6,29.29,SSE,151,3.6,4.7,17,-99.99,,,0.00,0,rob ver 1B,2013-03-26 10:29:00,
2013-03-26 03:30:00,66.3,20.8,29.29,SSE,153,2.5,3.5,17,-99.99,,,0.00,0,rob ver 1B,2013-03-26 10:30:00,
2013-03-26 03:31:00,66.1,20.9,29.29,South,172,2.3,3.7,17,-99.99,,,0.00,0,rob ver 1B,2013-03-26 10:31:00,
2013-03-26 03:32:00,66.1,21.2,29.29,SW,219,3.7,5.7,17,-99.99,,,0.00,0,rob ver 1B,2013-03-26 10:32:00,
2013-03-26 03:33:00,66.4,21.5,29.29,SW,229,4.9,6.9,17,-99.99,,,0.00,0,rob ver 1B,2013-03-26 10:33:00,
2013-03-26 03:34:00,63.6,18.3,29.32,North,358,4.2,4.6,17,-99.99,,,0.00,0,rob ver 1A,2013-03-26 10:34:00,
2013-03-26 03:35:00,67.2,21.5,29.29,SW,232,4.2,5.3,17,-99.99,,,0.00,0,rob ver 1B,2013-03-26 10:35:00,
2013-03-26 03:36:00,67.3,21.5,29.29,SW,218,4.2,5.1,17,-99.99,,,0.00,0,rob ver 1B,2013-03-26 10:36:00,
2013-03-26 03:37:00,67.2,21.5,29.29,SSW,206,3.9,4.3,17,-99.99,,,0.00,0,rob ver 1B,2013-03-26 10:37:00,
2013-03-26 03:38:00,67.1,21.4,29.29,SSW,199,4.0,4.4,17,-99.99,,,0.00,0,rob ver 1B,2013-03-26 10:38:00,
2013-03-26 03:39:00,63.2,17.7,29.32,NNE,12,3.9,4.2,17,-99.99,,,0.00,0,rob ver 1A,2013-03-26 10:39:00,
2013-03-26 03:40:00,67.0,21.5,29.29,SSW,192,3.8,4.4,17,-99.99,,,0.00,0,rob ver 1B,2013-03-26 10:40:00,
2013-03-26 03:41:00,67.0,21.5,29.29,South,191,3.7,4.3,17,-99.99,,,0.00,0,rob ver 1B,2013-03-26 10:41:00,
2013-03-26 03:42:00,67.1,21.5,29.29,South,188,3.6,4.3,17,-99.99,,,0.00,0,rob ver 1B,2013-03-26 10:42:00,
2013-03-26 03:43:00,67.1,21.4,29.29,South,186,3.9,4.5,17,-99.99,,,0.00,0,rob ver 1B,2013-03-26 10:43:00,
2013-03-26 03:44:00,62.9,17.8,29.32,NNE,24,3.7,3.9,17,-99.99,,,0.00,0,rob ver 1A,2013-03-26 10:44:00,
2013-03-26 03:45:00,66.9,21.3,29.29,South,177,4.2,4.6,17,-99.99,,,0.00,0,rob ver 1B,2013-03-26 10:45:00,
2013-03-26 03:46:00,66.7,21.3,29.29,SSE,168,5.2,6.0,17,-99.99,,,0.00,0,rob ver 1B,2013-03-26 10:46:00,
2013-03-26 03:47:00,66.5,21.4,29.29,SSE,158,5.8,6.2,17,-99.99,,,0.00,0,rob ver 1B,2013-03-26 10:47:00,
2013-03-26 03:48:00,66.3,21.4,29.29,SSE,153,5.7,6.2,17,-99.99,,,0.00,0,rob ver 1B,2013-03-26 10:48:00,
2013-03-26 03:49:00,62.5,18.1,29.32,NNE,32,3.6,3.9,17,-99.99,,,0.00,0,rob ver 1A,2013-03-26 10:49:00,
2013-03-26 03:50:00,65.6,21.2,29.29,SSE,148,5.4,6.0,18,-99.99,,,0.00,0,rob ver 1B,2013-03-26 10:50:00,
2013-03-26 03:51:00,65.7,21.3,29.29,SSE,156,5.2,5.5,18,-99.99,,,0.00,0,rob ver 1B,2013-03-26 10:51:00,
2013-03-26 03:52:00,65.7,21.3,29.29,SSE,152,5.5,5.8,18,-99.99,,,0.00,0,rob ver 1B,2013-03-26 10:52:00,
2013-03-26 03:53:00,65.6,21.3,29.29,SSE,148,5.6,6.1,18,-99.99,,,0.00,0,rob ver 1B,2013-03-26 10:53:00,
2013-03-26 03:54:00,63.0,18.3,29.32,NNE,16,3.8,4.0,17,-99.99,,,0.00,0,rob ver 1A,2013-03-26 10:54:00,
2013-03-26 03:55:00,65.4,21.3,29.29,SE,144,5.9,6.4,18,-99.99,,,0.00,0,rob ver 1B,2013-03-26 10:55:00,
2013-03-26 03:56:00,65.2,21.3,29.29,SE,144,5.7,6.4,18,-99.99,,,0.00,0,rob ver 1B,2013-03-26 10:56:00,
2013-03-26 03:57:00,65.1,21.2,29.29,SE,142,4.9,5.4,18,-99.99,,,0.00,0,rob ver 1B,2013-03-26 10:57:00,
2013-03-26 03:58:00,64.9,21.2,29.29,SE,143,4.8,5.3,18,-99.99,,,0.00,0,rob ver 1B,2013-03-26 10:58:00,
2013-03-26 03:59:00,63.1,18.3,29.32,North,7,3.8,3.9,17,-99.99,,,0.00,0,rob ver 1A,2013-03-26 10:59:00,
2013-03-26 04:00:00,64.8,21.3,29.29,SE,138,4.2,4.7,18,-99.99,,,0.00,0,rob ver 1B,2013-03-26 11:00:00,
2013-03-26 04:01:00,64.7,21.3,29.29,SE,136,3.6,4.3,18,-99.99,,,0.00,0,rob ver 1B,2013-03-26 11:01:00,
2013-03-26 04:02:00,64.6,21.4,29.29,SE,136,3.7,4.2,19,-99.99,,,0.00,0,rob ver 1B,2013-03-26 11:02:00,
2013-03-26 04:03:00,64.6,21.5,29.29,SE,143,3.4,3.9,19,-99.99,,,0.00,0,rob ver 1B,2013-03-26 11:03:00,
2013-03-26 04:04:00,63.1,18.3,29.32,NNE,12,3.6,3.8,17,-99.99,,,0.00,0,rob ver 1A,2013-03-26 11:04:00,
2013-03-26 04:05:00,64.7,21.8,29.29,SE,138,2.7,3.2,19,-99.99,,,0.00,0,rob ver 1B,2013-03-26 11:05:00,
2013-03-26 04:06:00,64.8,21.9,29.29,SE,142,2.3,2.7,19,-99.99,,,0.00,0,rob ver 1B,2013-03-26 11:06:00,
2013-03-26 04:07:00,64.9,21.8,29.29,SSE,159,1.8,2.1,19,-99.99,,,0.00,0,rob ver 1B,2013-03-26 11:07:00,
2013-03-26 04:08:00,64.9,21.9,29.29,South,177,1.6,1.7,19,-99.99,,,0.00,0,rob ver 1B,2013-03-26 11:08:00,
2013-03-26 04:09:00,62.8,18.3,29.32,NNE,15,3.7,3.9,17,-99.99,,,0.00,0,rob ver 1A,2013-03-26 11:09:00,
2013-03-26 04:10:00,64.8,21.9,29.29,SSE,153,1.6,1.9,19,-99.99,,,0.00,0,rob ver 1B,2013-03-26 11:10:00,
2013-03-26 04:11:00,64.9,22.0,29.29,SSE,151,1.9,2.1,19,-99.99,,,0.00,0,rob ver 1B,2013-03-26 11:11:00,
2013-03-26 04:12:00,64.9,22.0,29.29,SSE,159,2.0,2.1,19,-99.99,,,0.00,0,rob ver 1B,2013-03-26 11:12:00,
2013-03-26 04:13:00,65.0,22.0,29.29,SSE,159,1.9,2.1,19,-99.99,,,0.00,0,rob ver 1B,2013-03-26 11:13:00,
2013-03-26 04:14:00,62.9,18.8,29.32,NE,38,3.8,4.3,18,-99.99,,,0.00,0,rob ver 1A,2013-03-26 11:14:00,
2013-03-26 04:15:00,64.9,22.0,29.29,SSE,153,2.3,2.5,19,-99.99,,,0.00,0,rob ver 1B,2013-03-26 11:15:00,
2013-03-26 04:16:00,64.9,22.1,29.29,SE,144,2.5,2.7,19,-99.99,,,0.00,0,rob ver 1B,2013-03-26 11:16:00,
2013-03-26 04:17:00,64.9,22.1,29.29,SSE,149,2.1,2.3,19,-99.99,,,0.00,0,rob ver 1B,2013-03-26 11:17:00,
2013-03-26 04:18:00,64.8,22.1,29.29,SE,137,1.8,2.1,19,-99.99,,,0.00,0,rob ver 1B,2013-03-26 11:18:00,
2013-03-26 04:19:00,62.9,18.4,29.32,NE,48,3.9,4.6,17,-99.99,,,0.00,0,rob ver 1A,2013-03-26 11:19:00,
2013-03-26 04:20:00,64.5,21.8,29.29,NE,51,2.2,2.8,19,-99.99,,,0.00,0,rob ver 1B,2013-03-26 11:20:00,
2013-03-26 04:21:00,64.3,21.8,29.29,NE,53,2.8,3.1,19,-99.99,,,0.00,0,rob ver 1B,2013-03-26 11:21:00,
2013-03-26 04:22:00,64.2,21.8,29.29,ENE,57,3.1,3.5,19,-99.99,,,0.00,0,rob ver 1B,2013-03-26 11:22:00,
2013-03-26 04:23:00,64.1,21.7,29.29,ENE,58,3.6,4.2,19,-99.99,,,0.00,0,rob ver 1B,2013-03-26 11:23:00,
2013-03-26 04:24:00,63.9,21.7,29.29,ENE,59,4.3,4.6,19,-99.99,,,0.00,0,rob ver 1B,2013-03-26 11:24:00,
2013-03-26 04:25:00,62.4,18.1,29.32,NE,40,5.5,5.9,17,-99.99,,,0.00,0,rob ver 1A,2013-03-26 11:25:00,
2013-03-26 04:26:00,63.7,21.8,29.29,NE,42,4.4,4.9,20,-99.99,,,0.00,0,rob ver 1B,2013-03-26 11:26:00,
2013-03-26 04:27:00,63.3,22.2,29.29,NE,39,3.9,4.8,20,-99.99,,,0.00,0,rob ver 1B,2013-03-26 11:27:00,
2013-03-26 04:28:00,63.0,22.4,29.29,NE,36,4.0,4.7,21,-99.99,,,0.00,0,rob ver 1B,2013-03-26 11:28:00,
2013-03-26 04:29:00,62.6,22.4,29.29,NE,36,3.9,4.6,21,-99.99,,,0.00,0,rob ver 1B,2013-03-26 11:29:00,
2013-03-26 04:30:00,62.0,18.3,29.32,NNE,27,5.1,5.3,18,-99.99,,,0.00,0,rob ver 1A,2013-03-26 11:30:00,
2013-03-26 04:31:00,62.4,22.5,29.29,NE,42,3.6,4.6,21,-99.99,,,0.00,0,rob ver 1B,2013-03-26 11:31:00,
2013-03-26 04:32:00,62.5,22.5,29.29,NE,46,4.2,4.7,21,-99.99,,,0.00,0,rob ver 1B,2013-03-26 11:32:00,
2013-03-26 04:33:00,62.8,22.5,29.29,NE,43,4.0,4.8,21,-99.99,,,0.00,0,rob ver 1B,2013-03-26 11:33:00,
2013-03-26 04:34:00,63.0,22.6,29.29,NE,44,4.0,4.5,21,-99.99,,,0.00,0,rob ver 1B,2013-03-26 11:34:00,
2013-03-26 04:35:00,62.6,18.5,29.32,NNE,30,4.8,5.0,18,-99.99,,,0.00,0,rob ver 1A,2013-03-26 11:35:00,
2013-03-26 04:36:00,63.1,22.7,29.29,NE,44,4.6,4.9,21,-99.99,,,0.00,0,rob ver 1B,2013-03-26 11:36:00,
2013-03-26 04:37:00,63.0,22.7,29.29,NE,43,4.8,5.1,21,-99.99,,,0.00,0,rob ver 1B,2013-03-26 11:37:00,
2013-03-26 04:38:00,62.9,22.8,29.29,NE,43,4.8,5.2,21,-99.99,,,0.00,0,rob ver 1B,2013-03-26 11:38:00,
2013-03-26 04:39:00,62.7,22.8,29.29,NE,44,4.8,5.2,21,-99.99,,,0.00,0,rob ver 1B,2013-03-26 11:39:00,
2013-03-26 04:40:00,62.8,18.8,29.32,NE,35,4.3,4.6,18,-99.99,,,0.00,0,rob ver 1A,2013-03-26 11:40:00,
2013-03-26 04:41:00,62.5,22.8,29.29,NE,48,4.9,5.8,21,-99.99,,,0.00,0,rob ver 1B,2013-03-26 11:41:00,
2013-03-26 04:42:00,62.4,22.7,29.29,NE,49,4.9,5.9,21,-99.99,,,0.00,0,rob ver 1B,2013-03-26 11:42:00,
2013-03-26 04:43:00,62.2,22.7,29.29,NE,50,4.9,5.9,21,-99.99,,,0.00,0,rob ver 1B,2013-03-26 11:43:00,
2013-03-26 04:44:00,62.1,22.6,29.29,NE,52,4.9,5.8,21,-99.99,,,0.00,0,rob ver 1B,2013-03-26 11:44:00,
2013-03-26 04:45:00,62.6,18.5,29.32,NE,42,3.4,4.0,17,-99.99,,,0.00,0,rob ver 1A,2013-03-26 11:45:00,
2013-03-26 04:46:00,62.3,22.5,29.29,NE,55,4.7,5.4,21,-99.99,,,0.00,0,rob ver 1B,2013-03-26 11:46:00,
2013-03-26 04:47:00,62.3,22.5,29.29,ENE,57,5.0,5.4,21,-99.99,,,0.00,0,rob ver 1B,2013-03-26 11:47:00,
2013-03-26 04:48:00,62.5,22.4,29.29,NE,56,4.7,5.5,21,-99.99,,,0.00,0,rob ver 1B,2013-03-26 11:48:00,
2013-03-26 04:49:00,62.6,22.4,29.29,ENE,58,4.9,5.5,21,-99.99,,,0.00,0,rob ver 1B,2013-03-26 11:49:00,
2013-03-26 04:50:00,62.5,18.4,29.32,NE,38,4.5,4.9,17,-99.99,,,0.00,0,rob ver 1A,2013-03-26 11:50:00,
2013-03-26 04:51:00,62.8,22.3,29.29,ENE,59,4.6,5.5,20,-99.99,,,0.00,0,rob ver 1B,2013-03-26 11:51:00,
2013-03-26 04:52:00,62.9,22.3,29.29,ENE,63,3.8,4.5,20,-99.99,,,0.00,0,rob ver 1B,2013-03-26 11:52:00,
2013-03-26 04:53:00,63.0,22.3,29.29,ENE,70,3.7,4.4,20,-99.99,,,0.00,0,rob ver 1B,2013-03-26 11:53:00,
2013-03-26 04:54:00,63.1,22.2,29.29,ENE,70,3.6,4.4,20,-99.99,,,0.00,0,rob ver 1B,2013-03-26 11:54:00,
2013-03-26 04:55:00,62.3,18.4,29.32,NE,40,4.4,5.3,18,-99.99,,,0.00,0,rob ver 1A,2013-03-26 11:55:00,
2013-03-26 04:56:00,63.6,22.2,29.29,ENE,73,4.3,5.1,20,-99.99,,,0.00,0,rob ver 1B,2013-03-26 11:56:00,
2013-03-26 04:57:00,63.7,22.3,29.29,ENE,73,4.0,4.8,20,-99.99,,,0.00,0,rob ver 1B,2013-03-26 11:57:00,
2013-03-26 04:58:00,63.5,22.3,29.29,ENE,78,4.3,5.4,20,-99.99,,,0.00,0,rob ver 1B,2013-03-26 11:58:00,
2013-03-26 04:59:00,63.5,22.2,29.29,East,84,4.7,5.2,20,-99.99,,,0.00,0,rob ver 1B,2013-03-26 11:59:00,
2013-03-26 05:00:00,62.1,18.3,29.32,NE,42,4.2,4.9,18,-99.99,,,0.00,0,rob ver 1A,2013-03-26 12:00:00,
2013-03-26 05:01:00,63.8,22.3,29.29,East,79,4.3,4.8,20,-99.99,,,0.00,0,rob ver 1B,2013-03-26 12:01:00,
2013-03-26 05:02:00,63.9,22.2,29.29,East,80,4.3,5.0,20,-99.99,,,0.00,0,rob ver 1B,2013-03-26 12:02:00,
2013-03-26 05:03:00,63.7,22.2,29.29,East,85,4.5,5.3,20,-99.99,,,0.00,0,rob ver 1B,2013-03-26 12:03:00,
2013-03-26 05:04:00,63.8,22.2,29.29,East,86,5.4,6.0,20,-99.99,,,0.00,0,rob ver 1B,2013-03-26 12:04:00,
2013-03-26 05:05:00,62.2,18.4,29.32,NNE,33,4.0,4.7,18,-99.99,,,0.00,0,rob ver 1A,2013-03-26 12:05:00,
2013-03-26 05:06:00,64.3,22.2,29.29,East,84,4.5,5.0,19,-99.99,,,0.00,0,rob ver 1B,2013-03-26 12:06:00,
2013-03-26 05:07:00,64.2,22.2,29.29,East,85,4.6,5.3,19,-99.99,,,0.00,0,rob ver 1B,2013-03-26 12:07:00,
2013-03-26 05:08:00,63.9,22.2,29.29,East,79,4.6,5.1,20,-99.99,,,0.00,0,rob ver 1B,2013-03-26 12:08:00,
2013-03-26 05:09:00,63.7,22.2,29.29,ENE,75,4.9,5.6,20,-99.99,,,0.00,0,rob ver 1B,2013-03-26 12:09:00,
2013-03-26 05:10:00,63.5,22.1,29.29,ENE,76,5.1,5.6,20,-99.99,,,0.00,0,rob ver 1B,2013-03-26 12:10:00,
2013-03-26 05:11:00,62.7,18.6,29.32,NNE,27,4.0,4.3,17,-99.99,,,0.00,0,rob ver 1A,2013-03-26 12:11:00,
2013-03-26 05:12:00,63.3,22.2,29.29,ENE,70,4.7,5.5,20,-99.99,,,0.00,0,rob ver 1B,2013-03-26 12:12:00,
2013-03-26 05:13:00,63.3,22.3,29.29,ENE,67,4.0,5.0,20,-99.99,,,0.00,0,rob ver 1B,2013-03-26 12:13:00,
2013-03-26 05:14:00,63.2,22.2,29.29,ENE,66,3.9,4.5,20,-99.99,,,0.00,0,rob ver 1B,2013-03-26 12:14:00,
2013-03-26 05:15:00,63.0,22.2,29.29,ENE,67,3.6,4.4,20,-99.99,,,0.00,0,rob ver 1B,2013-03-26 12:15:00,
2013-03-26 05:16:00,62.7,18.4,29.32,NNE,30,3.5,3.8,18,-99.99,,,0.00,0,rob ver 1A,2013-03-26 12:16:00,
2013-03-26 05:17:00,62.8,22.2,29.29,ENE,73,4.2,4.7,20,-99.99,,,0.00,0,rob ver 1B,2013-03-26 12:17:00,
2013-03-26 05:18:00,62.8,22.2,29.29,ENE,75,4.2,4.6,20,-99.99,,,0.00,0,rob ver 1B,2013-03-26 12:18:00,
2013-03-26 05:19:00,62.8,22.3,29.29,ENE,71,4.2,4.7,20,-99.99,,,0.00,0,rob ver 1B,2013-03-26 12:19:00,
2013-03-26 05:20:00,62.7,22.2,29.29,ENE,65,3.9,4.4,21,-99.99,,,0.00,0,rob ver 1B,2013-03-26 12:20:00,
2013-03-26 05:21:00,62.3,18.4,29.32,NNE,27,1.6,2.0,18,-99.99,,,0.00,0,rob ver 1A,2013-03-26 12:21:00,
2013-03-26 05:22:00,62.6,22.3,29.29,ENE,67,3.5,4.2,21,-99.99,,,0.00,0,rob ver 1B,2013-03-26 12:22:00,
2013-03-26 05:23:00,62.5,22.3,29.29,ENE,67,3.4,4.2,21,-99.99,,,0.00,0,rob ver 1B,2013-03-26 12:23:00,
2013-03-26 05:24:00,62.3,22.3,29.29,ENE,66,3.7,4.4,21,-99.99,,,0.00,0,rob ver 1B,2013-03-26 12:24:00,
2013-03-26 05:25:00,62.3,22.3,29.29,ENE,70,3.1,4.0,21,-99.99,,,0.00,0,rob ver 1B,2013-03-26 12:25:00,
2013-03-26 05:26:00,62.1,18.6,29.32,NNE,25,1.1,1.7,18,-99.99,,,0.00,0,rob ver 1A,2013-03-26 12:26:00,
2013-03-26 05:27:00,62.0,22.3,29.29,East,83,2.5,3.0,21,-99.99,,,0.00,0,rob ver 1B,2013-03-26 12:27:00,
2013-03-26 05:28:00,61.8,22.3,29.29,East,84,2.7,3.2,21,-99.99,,,0.00,0,rob ver 1B,2013-03-26 12:28:00,
2013-03-26 05:29:00,61.8,22.3,29.29,East,86,2.4,3.0,21,-99.99,,,0.00,0,rob ver 1B,2013-03-26 12:29:00,
2013-03-26 05:30:00,61.7,22.3,29.29,East,91,2.4,2.7,21,-99.99,,,0.00,0,rob ver 1B,2013-03-26 12:30:00,
2013-03-26 05:31:00,61.8,18.1,29.32,SSE,155,2.2,2.6,18,-99.99,,,0.00,0,rob ver 1A,2013-03-26 12:31:00,
2013-03-26 05:32:00,61.2,22.2,29.29,ESE,107,3.0,3.2,22,-99.99,,,0.00,0,rob ver 1B,2013-03-26 12:32:00,
2013-03-26 05:33:00,61.3,22.2,29.29,East,99,3.4,3.8,22,-99.99,,,0.00,0,rob ver 1B,2013-03-26 12:33:00,
2013-03-26 05:34:00,61.5,22.2,29.32,East,94,3.8,4.0,21,-99.99,,,0.00,0,rob ver 1B,2013-03-26 12:34:00,
2013-03-26 05:35:00,61.5,22.2,29.29,East,96,4.1,4.4,21,-99.99,,,0.00,0,rob ver 1B,2013-03-26 12:35:00,
2013-03-26 05:36:00,61.7,18.1,29.32,SE,140,4.4,5.5,18,-99.99,,,0.00,0,rob ver 1A,2013-03-26 12:36:00,
2013-03-26 05:37:00,61.5,22.2,29.29,East,83,3.4,4.4,21,-99.99,,,0.00,0,rob ver 1B,2013-03-26 12:37:00,
2013-03-26 05:38:00,61.5,22.2,29.32,ENE,73,3.3,3.8,21,-99.99,,,0.00,0,rob ver 1B,2013-03-26 12:38:00,
2013-03-26 05:39:00,61.3,22.2,29.29,ENE,62,3.4,4.4,22,-99.99,,,0.00,0,rob ver 1B,2013-03-26 12:39:00,
2013-03-26 05:40:00,61.2,22.2,29.29,NE,55,3.5,4.2,22,-99.99,,,0.00,0,rob ver 1B,2013-03-26 12:40:00,
2013-03-26 05:41:00,60.3,18.0,29.32,SE,135,5.4,6.1,19,-99.99,,,0.00,0,rob ver 1A,2013-03-26 12:41:00,
2013-03-26 05:42:00,61.0,22.1,29.29,NE,52,3.3,4.4,22,-99.99,,,0.00,0,rob ver 1B,2013-03-26 12:42:00,
2013-03-26 05:43:00,61.0,22.1,29.29,NE,52,3.5,4.5,22,-99.99,,,0.00,0,rob ver 1B,2013-03-26 12:43:00,
2013-03-26 05:44:00,61.0,22.1,29.29,NE,53,3.4,4.4,22,-99.99,,,0.00,0,rob ver 1B,2013-03-26 12:44:00,
2013-03-26 05:45:00,61.0,22.0,29.29,ENE,58,3.8,4.7,22,-99.99,,,0.00,0,rob ver 1B,2013-03-26 12:45:00,
2013-03-26 05:46:00,59.5,17.9,29.32,SE,132,4.8,5.3,19,-99.99,,,0.00,0,rob ver 1A,2013-03-26 12:46:00,
2013-03-26 05:47:00,61.0,22.0,29.29,ENE,60,4.2,6.2,21,-99.99,,,0.00,0,rob ver 1B,2013-03-26 12:47:00,
2013-03-26 05:48:00,61.0,21.9,29.32,ENE,61,5.0,6.3,21,-99.99,,,0.00,0,rob ver 1B,2013-03-26 12:48:00,
2013-03-26 05:49:00,61.1,21.8,29.32,ENE,61,4.7,5.5,21,-99.99,,,0.00,0,rob ver 1B,2013-03-26 12:49:00,
2013-03-26 05:50:00,61.2,21.6,29.29,ENE,66,4.2,5.5,21,-99.99,,,0.00,0,rob ver 1B,2013-03-26 12:50:00,
2013-03-26 05:51:00,58.9,17.7,29.32,SE,136,4.5,4.9,19,-99.99,,,0.00,0,rob ver 1A,2013-03-26 12:51:00,
2013-03-26 05:52:00,61.7,21.7,29.29,ENE,57,4.6,5.3,21,-99.99,,,0.00,0,rob ver 1B,2013-03-26 12:52:00,
2013-03-26 05:53:00,61.6,21.6,29.32,ENE,58,5.1,5.6,21,-99.99,,,0.00,0,rob ver 1B,2013-03-26 12:53:00,
2013-03-26 05:54:00,61.5,21.6,29.32,ENE,58,5.2,6.0,21,-99.99,,,0.00,0,rob ver 1B,2013-03-26 12:54:00,
2013-03-26 05:55:00,61.4,21.6,29.32,NE,53,4.8,5.9,21,-99.99,,,0.00,0,rob ver 1B,2013-03-26 12:55:00,
2013-03-26 05:56:00,58.5,17.7,29.32,ESE,111,4.6,4.9,20,-99.99,,,0.00,0,rob ver 1A,2013-03-26 12:56:00,
2013-03-26 05:57:00,61.2,21.6,29.32,NE,46,5.1,5.7,21,-99.99,,,0.00,0,rob ver 1B,2013-03-26 12:57:00,
2013-03-26 05:58:00,61.1,21.6,29.32,NE,48,4.7,5.3,21,-99.99,,,0.00,0,rob ver 1B,2013-03-26 12:58:00,
2013-03-26 05:59:00,61.0,21.6,29.32,NE,40,4.7,5.4,21,-99.99,,,0.00,0,rob ver 1B,2013-03-26 12:59:00,
2013-03-26 06:00:00,61.1,21.7,29.32,NE,39,5.8,6.6,21,-99.99,,,0.00,0,rob ver 1B,2013-03-26 13:00:00,
2013-03-26 06:01:00,61.2,21.7,29.32,NE,43,4.9,5.9,21,-99.99,,,0.00,0,rob ver 1B,2013-03-26 13:01:00,
2013-03-26 06:02:00,59.4,18.1,29.32,ENE,76,6.6,8.0,19,-99.99,,,0.00,0,rob ver 1A,2013-03-26 13:02:00,
2013-03-26 06:03:00,61.3,21.6,29.32,NE,54,4.5,6.0,21,-99.99,,,0.00,0,rob ver 1B,2013-03-26 13:03:00,
2013-03-26 06:04:00,61.4,21.6,29.32,NE,51,4.9,5.7,21,-99.99,,,0.00,0,rob ver 1B,2013-03-26 13:04:00,
2013-03-26 06:05:00,61.5,21.7,29.32,ENE,61,3.9,5.0,21,-99.99,,,0.00,0,rob ver 1B,2013-03-26 13:05:00,
2013-03-26 06:06:00,61.3,21.6,29.32,East,91,4.1,4.7,21,-99.99,,,0.00,0,rob ver 1B,2013-03-26 13:06:00,
2013-03-26 06:07:00,60.3,17.7,29.32,ESE,105,4.0,4.4,18,-99.99,,,0.00,0,rob ver 1A,2013-03-26 13:07:00,
2013-03-26 06:08:00,61.0,21.6,29.32,NE,53,4.0,4.8,21,-99.99,,,0.00,0,rob ver 1B,2013-03-26 13:08:00,
2013-03-26 06:09:00,61.0,21.7,29.32,NE,54,3.8,4.6,21,-99.99,,,0.00,0,rob ver 1B,2013-03-26 13:09:00,
2013-03-26 06:10:00,61.0,21.7,29.32,NE,52,3.4,4.2,21,-99.99,,,0.00,0,rob ver 1B,2013-03-26 13:10:00,
2013-03-26 06:11:00,60.9,21.6,29.32,NE,56,4.8,6.5,21,-99.99,,,0.00,0,rob ver 1B,2013-03-26 13:11:00,
2013-03-26 06:12:00,59.2,17.6,29.32,ESE,102,4.3,5.1,19,-99.99,,,0.00,0,rob ver 1A,2013-03-26 13:12:00,
2013-03-26 06:13:00,61.4,21.4,29.32,NE,54,5.1,6.1,21,-99.99,,,0.00,0,rob ver 1B,2013-03-26 13:13:00,
2013-03-26 06:14:00,61.6,21.5,29.32,NE,51,4.9,5.8,21,-99.99,,,0.00,0,rob ver 1B,2013-03-26 13:14:00,
2013-03-26 06:15:00,61.5,21.5,29.32,NE,56,5.2,6.4,21,-99.99,,,0.00,.164,rob ver 1B,2013-03-26 13:15:00,
2013-03-26 06:16:00,61.5,21.3,29.32,ENE,57,5.8,6.7,20,-99.99,,,0.00,.328,rob ver 1B,2013-03-26 13:16:00,
2013-03-26 06:17:00,59.1,17.8,29.32,East,90,3.8,4.5,19,-99.99,,,0.00,.164,rob ver 1A,2013-03-26 13:17:00,
2013-03-26 06:18:00,62.1,21.3,29.32,NE,49,4.6,5.6,20,-99.99,,,0.00,.328,rob ver 1B,2013-03-26 13:18:00,
2013-03-26 06:19:00,62.0,21.3,29.32,NE,45,4.3,4.9,20,-99.99,,,0.00,.328,rob ver 1B,2013-03-26 13:19:00,
2013-03-26 06:20:00,61.8,21.3,29.32,NE,46,4.1,4.7,20,-99.99,,,0.00,.328,rob ver 1B,2013-03-26 13:20:00,
2013-03-26 06:21:00,61.7,21.2,29.32,NE,51,4.0,4.9,20,-99.99,,,0.00,.328,rob ver 1B,2013-03-26 13:21:00,
2013-03-26 06:22:00,59.3,17.8,29.32,ENE,71,3.7,4.5,19,-99.99,,,0.00,.328,rob ver 1A,2013-03-26 13:22:00,
2013-03-26 06:23:00,61.9,21.3,29.32,NE,49,4.3,5.1,20,-99.99,,,0.00,.328,rob ver 1B,2013-03-26 13:23:00,
2013-03-26 06:24:00,61.9,21.3,29.32,NE,52,4.1,5.1,20,-99.99,,,0.00,.328,rob ver 1B,2013-03-26 13:24:00,
2013-03-26 06:25:00,61.9,21.2,29.32,NE,54,4.3,5.0,20,-99.99,,,0.00,.985,rob ver 1B,2013-03-26 13:25:00,
2013-03-26 06:26:00,62.0,21.3,29.32,NE,55,3.7,4.3,20,-99.99,,,0.00,.985,rob ver 1B,2013-03-26 13:26:00,
2013-03-26 06:27:00,58.9,17.6,29.32,ENE,63,3.9,5.0,19,-99.99,,,0.00,.985,rob ver 1A,2013-03-26 13:27:00,
2013-03-26 06:28:00,61.8,21.2,29.32,ENE,62,3.5,4.0,20,-99.99,,,0.00,.985,rob ver 1B,2013-03-26 13:28:00,
2013-03-26 06:29:00,61.6,21.1,29.32,ENE,66,3.7,4.3,20,-99.99,,,0.00,1.642,rob ver 1B,2013-03-26 13:29:00,
2013-03-26 06:30:00,61.6,21.1,29.32,ENE,70,3.4,4.2,20,-99.99,,,0.00,1.642,rob ver 1B,2013-03-26 13:30:00,
2013-03-26 06:31:00,61.7,21.1,29.32,ENE,73,3.1,3.9,20,-99.99,,,0.00,1.642,rob ver 1B,2013-03-26 13:31:00,
2013-03-26 06:32:00,59.0,17.8,29.32,ENE,68,3.6,4.7,19,-99.99,,,0.00,2.299,rob ver 1A,2013-03-26 13:32:00,
2013-03-26 06:33:00,62.1,21.1,29.32,East,85,3.6,4.2,20,-99.99,,,0.00,2.299,rob ver 1B,2013-03-26 13:33:00,
2013-03-26 06:34:00,62.3,21.1,29.32,East,95,3.2,3.9,20,-99.99,,,0.00,2.299,rob ver 1B,2013-03-26 13:34:00,
2013-03-26 06:35:00,62.4,21.1,29.32,East,98,3.3,3.7,20,-99.99,,,0.00,2.955,rob ver 1B,2013-03-26 13:35:00,
2013-03-26 06:36:00,62.6,21.1,29.32,East,94,3.1,3.5,20,-99.99,,,0.00,3.284,rob ver 1B,2013-03-26 13:36:00,
2013-03-26 06:37:00,58.8,17.5,29.32,ENE,59,3.3,4.1,19,-99.99,,,0.00,5.583,rob ver 1A,2013-03-26 13:37:00,
2013-03-26 06:38:00,62.5,21.1,29.32,East,101,3.4,3.8,20,-99.99,,,0.00,3.94,rob ver 1B,2013-03-26 13:38:00,
2013-03-26 06:39:00,62.5,21.0,29.32,East,101,3.5,3.8,20,-99.99,,,0.00,4.597,rob ver 1B,2013-03-26 13:39:00,
2013-03-26 06:40:00,62.6,21.1,29.32,East,95,3.5,3.9,20,-99.99,,,0.00,5.254,rob ver 1B,2013-03-26 13:40:00,
2013-03-26 06:41:00,62.5,21.1,29.32,East,90,3.4,3.8,20,-99.99,,,0.00,5.911,rob ver 1B,2013-03-26 13:41:00,
2013-03-26 06:42:00,58.8,17.6,29.35,ENE,61,2.9,3.4,19,-99.99,,,0.00,14.45,rob ver 1A,2013-03-26 13:42:00,
2013-03-26 06:43:00,62.3,21.1,29.32,East,97,4.0,4.2,20,-99.99,,,0.00,7.22,rob ver 1B,2013-03-26 13:43:00,
2013-03-26 06:44:00,62.5,21.1,29.32,East,94,4.1,4.4,20,-99.99,,,0.00,8.54,rob ver 1B,2013-03-26 13:44:00,
2013-03-26 06:45:00,62.4,21.1,29.32,East,93,3.9,4.2,20,-99.99,,,0.00,9.19,rob ver 1B,2013-03-26 13:45:00,
2013-03-26 06:46:00,62.4,21.1,29.32,East,91,3.7,4.0,20,-99.99,,,0.00,10.51,rob ver 1B,2013-03-26 13:46:00,
2013-03-26 06:47:00,59.3,17.6,29.35,ENE,75,3.3,3.8,19,-99.99,,,0.00,23.64,rob ver 1A,2013-03-26 13:47:00,
2013-03-26 06:48:00,62.4,21.1,29.32,East,92,3.6,4.0,20,-99.99,,,0.00,12.48,rob ver 1B,2013-03-26 13:48:00,
2013-03-26 06:49:00,62.3,21.1,29.32,East,93,3.5,3.8,20,-99.99,,,0.00,13.79,rob ver 1B,2013-03-26 13:49:00,
2013-03-26 06:50:00,62.3,21.0,29.32,East,97,3.3,3.5,20,-99.99,,,0.00,15.11,rob ver 1B,2013-03-26 13:50:00,
2013-03-26 06:51:00,62.3,21.0,29.32,East,91,3.1,3.4,20,-99.99,,,0.00,16.42,rob ver 1B,2013-03-26 13:51:00,
2013-03-26 06:52:00,59.2,17.5,29.35,East,83,3.8,4.0,19,-99.99,,,0.00,25.45,rob ver 1A,2013-03-26 13:52:00,
2013-03-26 06:53:00,62.2,21.0,29.32,ENE,74,3.2,3.6,20,-99.99,,,0.00,19.37,rob ver 1B,2013-03-26 13:53:00,
2013-03-26 06:54:00,62.0,21.0,29.32,ENE,69,3.8,4.2,20,-99.99,,,0.00,21.02,rob ver 1B,2013-03-26 13:54:00,
2013-03-26 06:55:00,61.7,21.0,29.32,ENE,70,3.8,4.3,20,-99.99,,,0.00,22.33,rob ver 1B,2013-03-26 13:55:00,
2013-03-26 06:56:00,61.4,21.1,29.32,ENE,73,4.0,4.7,21,-99.99,,,0.00,23.64,rob ver 1B,2013-03-26 13:56:00,
2013-03-26 06:57:00,61.2,21.1,29.32,East,81,3.9,4.5,20,-99.99,,,0.00,25.28,rob ver 1B,2013-03-26 13:57:00,
2013-03-26 06:58:00,59.2,17.4,29.35,East,82,3.0,3.6,19,-99.99,,,0.00,45.32,rob ver 1A,2013-03-26 13:58:00,
2013-03-26 06:59:00,61.6,21.2,29.32,ENE,76,4.0,4.3,20,-99.99,,,0.00,28.24,rob ver 1B,2013-03-26 13:59:00,
2013-03-26 07:00:00,61.6,21.1,29.32,ENE,70,3.6,4.3,20,-99.99,,,0.00,29.55,rob ver 1B,2013-03-26 14:00:00,
2013-03-26 07:01:00,61.6,21.1,29.32,ENE,69,3.2,3.8,20,-99.99,,,0.00,31.03,rob ver 1B,2013-03-26 14:01:00,
2013-03-26 07:02:00,61.6,21.1,29.32,ENE,71,3.3,3.8,20,-99.99,,,0.00,32.84,rob ver 1B,2013-03-26 14:02:00,
2013-03-26 07:03:00,59.5,17.4,29.35,ENE,67,1.5,1.9,19,-99.99,,,0.00,49.92,rob ver 1A,2013-03-26 14:03:00,
2013-03-26 07:04:00,61.6,21.1,29.32,ENE,66,3.3,3.8,20,-99.99,,,0.00,35.79,rob ver 1B,2013-03-26 14:04:00,
2013-03-26 07:05:00,61.6,21.1,29.32,ENE,64,3.3,3.6,20,-99.99,,,0.00,37.43,rob ver 1B,2013-03-26 14:05:00,
2013-03-26 07:06:00,61.5,21.1,29.32,ENE,59,3.3,3.7,20,-99.99,,,0.00,39.4,rob ver 1B,2013-03-26 14:06:00,
2013-03-26 07:07:00,61.6,21.1,29.32,ENE,62,3.1,3.6,20,-99.99,,,0.00,40.72,rob ver 1B,2013-03-26 14:07:00,
2013-03-26 07:08:00,59.7,17.4,29.35,ESE,107,0.9,1.1,18,-99.99,,,0.00,68.97,rob ver 1A,2013-03-26 14:08:00,
2013-03-26 07:09:00,61.7,21.1,29.32,ENE,72,3.3,3.8,20,-99.99,,,0.00,43.51,rob ver 1B,2013-03-26 14:09:00,
2013-03-26 07:10:00,61.9,21.2,29.32,ENE,75,3.6,3.8,20,-99.99,,,0.00,45.32,rob ver 1B,2013-03-26 14:10:00,
2013-03-26 07:11:00,62.0,21.1,29.32,ENE,74,3.8,4.2,20,-99.99,,,0.00,46.63,rob ver 1B,2013-03-26 14:11:00,
2013-03-26 07:12:00,62.2,21.2,29.32,ENE,75,4.0,4.4,20,-99.99,,,0.00,48.6,rob ver 1B,2013-03-26 14:12:00,
2013-03-26 07:13:00,59.7,17.4,29.35,SSE,168,2.5,2.7,19,-99.99,,,0.00,70.9,rob ver 1A,2013-03-26 14:13:00,
2013-03-26 07:14:00,62.4,21.2,29.35,East,85,4.4,4.7,20,-99.99,,,0.00,52.54,rob ver 1B,2013-03-26 14:14:00,
2013-03-26 07:15:00,62.6,21.3,29.35,East,80,4.0,4.4,20,-99.99,,,0.00,53.85,rob ver 1B,2013-03-26 14:15:00,
2013-03-26 07:16:00,62.7,21.3,29.35,ENE,73,4.0,4.5,20,-99.99,,,0.00,55.17,rob ver 1B,2013-03-26 14:16:00,
2013-03-26 07:17:00,62.7,21.3,29.35,ENE,73,3.4,4.0,20,-99.99,,,0.00,56.48,rob ver 1B,2013-03-26 14:17:00,
2013-03-26 07:18:00,60.0,17.5,29.35,SSE,168,2.2,2.5,18,-99.99,,,0.00,67,rob ver 1A,2013-03-26 14:18:00,
2013-03-26 07:19:00,62.5,21.3,29.35,ENE,57,3.2,3.8,20,-99.99,,,0.00,58.45,rob ver 1B,2013-03-26 14:19:00,
2013-03-26 07:20:00,62.4,21.4,29.35,NE,53,3.4,4.0,20,-99.99,,,0.00,59.76,rob ver 1B,2013-03-26 14:20:00,
2013-03-26 07:21:00,62.3,21.4,29.35,NE,52,3.6,4.0,20,-99.99,,,0.00,61.73,rob ver 1B,2013-03-26 14:21:00,
2013-03-26 07:22:00,62.3,21.4,29.35,ENE,57,3.8,4.5,20,-99.99,,,0.00,63.05,rob ver 1B,2013-03-26 14:22:00,
2013-03-26 07:23:00,61.0,17.4,29.35,South,190,1.4,2.0,18,-99.99,,,0.00,70.1,rob ver 1A,2013-03-26 14:23:00,
2013-03-26 07:24:00,62.4,21.5,29.35,NE,47,3.5,3.8,20,-99.99,,,0.00,67.65,rob ver 1B,2013-03-26 14:24:00,
2013-03-26 07:25:00,62.3,21.6,29.35,NE,42,3.6,4.1,20,-99.99,,,0.00,67.65,rob ver 1B,2013-03-26 14:25:00,
2013-03-26 07:26:00,62.2,21.5,29.35,NE,42,3.2,3.7,20,-99.99,,,0.00,66.33,rob ver 1B,2013-03-26 14:26:00,
2013-03-26 07:27:00,62.1,21.6,29.35,NE,39,3.1,3.6,20,-99.99,,,0.00,65.84,rob ver 1B,2013-03-26 14:27:00,
2013-03-26 07:28:00,61.0,17.6,29.35,SSW,196,1.7,1.9,18,-99.99,,,0.00,90,rob ver 1A,2013-03-26 14:28:00,
2013-03-26 07:29:00,62.0,21.7,29.35,NE,40,3.2,3.8,21,-99.99,,,0.00,66.99,rob ver 1B,2013-03-26 14:29:00,
2013-03-26 07:30:00,61.9,21.8,29.35,NE,40,3.8,4.1,21,-99.99,,,0.00,68.3,rob ver 1B,2013-03-26 14:30:00,
2013-03-26 07:31:00,61.9,21.9,29.35,NE,39,3.6,4.2,21,-99.99,,,0.00,70.1,rob ver 1B,2013-03-26 14:31:00,
2013-03-26 07:32:00,61.8,22.0,29.35,NE,42,3.4,4.1,21,-99.99,,,0.00,71.6,rob ver 1B,2013-03-26 14:32:00,
2013-03-26 07:33:00,61.8,17.8,29.35,South,189,1.9,2.1,18,-99.99,,,0.00,118.9,rob ver 1A,2013-03-26 14:33:00,
2013-03-26 07:34:00,62.0,22.0,29.35,NE,51,3.0,3.8,21,-99.99,,,0.00,74.9,rob ver 1B,2013-03-26 14:34:00,
2013-03-26 07:35:00,62.3,22.0,29.35,NE,46,3.1,3.7,20,-99.99,,,0.00,76.2,rob ver 1B,2013-03-26 14:35:00,
2013-03-26 07:36:00,62.5,22.0,29.35,NE,42,3.1,4.0,20,-99.99,,,0.00,78.8,rob ver 1B,2013-03-26 14:36:00,
2013-03-26 07:37:00,62.7,22.0,29.35,NE,43,3.2,4.1,20,-99.99,,,0.00,83.4,rob ver 1B,2013-03-26 14:37:00,
2013-03-26 07:38:00,62.3,17.7,29.35,SW,224,0.4,0.7,17,-99.99,,,0.00,81.4,rob ver 1A,2013-03-26 14:38:00,
2013-03-26 07:39:00,62.8,22.0,29.35,NE,44,3.0,3.5,20,-99.99,,,0.00,91.3,rob ver 1B,2013-03-26 14:39:00,
2013-03-26 07:40:00,62.8,22.1,29.35,NE,45,3.6,4.1,20,-99.99,,,0.00,104.4,rob ver 1B,2013-03-26 14:40:00,
2013-03-26 07:41:00,62.8,22.1,29.35,NE,44,3.7,4.1,20,-99.99,,,0.00,116.2,rob ver 1B,2013-03-26 14:41:00,
2013-03-26 07:42:00,63.0,22.3,29.35,NE,42,2.5,3.7,20,-99.99,,,0.00,122.3,rob ver 1B,2013-03-26 14:42:00,
2013-03-26 07:43:00,63.3,22.2,29.35,NE,39,4.0,4.5,20,-99.99,,,0.00,110.3,rob ver 1B,2013-03-26 14:43:00,
2013-03-26 07:44:00,62.5,18.4,29.35,North,2,2.4,2.7,18,-99.99,,,0.00,80.1,rob ver 1A,2013-03-26 14:44:00,
2013-03-26 07:45:00,63.7,22.4,29.35,NE,37,4.1,4.2,20,-99.99,,,0.00,157,rob ver 1B,2013-03-26 14:45:00,
2013-03-26 07:46:00,63.8,22.4,29.35,NE,36,3.9,4.3,20,-99.99,,,0.00,183.2,rob ver 1B,2013-03-26 14:46:00,
2013-03-26 07:47:00,64.1,22.5,29.35,NE,34,3.6,4.1,20,-99.99,,,0.00,169.4,rob ver 1B,2013-03-26 14:47:00,
2013-03-26 07:48:00,64.4,22.4,29.35,NNE,29,3.2,3.6,19,-99.99,,,0.00,201.3,rob ver 1B,2013-03-26 14:48:00,
2013-03-26 07:49:00,62.8,16.6,29.35,NNE,30,3.8,4.6,16,-99.99,,,0.00,95.9,rob ver 1A,2013-03-26 14:49:00,
2013-03-26 07:50:00,65.3,22.8,29.35,NE,51,1.4,2.4,19,-99.99,,,0.00,206.4,rob ver 1B,2013-03-26 14:50:00,
2013-03-26 07:51:00,65.7,22.8,29.35,NE,43,1.9,2.9,19,-99.99,,,0.00,210.2,rob ver 1B,2013-03-26 14:51:00,
2013-03-26 07:52:00,66.0,22.6,29.35,NE,36,2.5,2.9,18,-99.99,,,0.00,200.3,rob ver 1B,2013-03-26 14:52:00,
2013-03-26 07:53:00,66.3,22.7,29.35,NNE,27,2.3,2.6,18,-99.99,,,0.00,192.4,rob ver 1B,2013-03-26 14:53:00,
2013-03-26 07:54:00,63.9,16.3,29.35,ENE,72,4.3,5.2,15,-99.99,,,0.00,120.2,rob ver 1A,2013-03-26 14:54:00,
2013-03-26 07:55:00,66.7,22.5,29.35,NE,40,2.3,2.8,18,-99.99,,,0.00,151.7,rob ver 1B,2013-03-26 14:55:00,
2013-03-26 07:56:00,66.8,22.6,29.35,NE,43,1.8,2.4,18,-99.99,,,0.00,197,rob ver 1B,2013-03-26 14:56:00,
2013-03-26 07:57:00,66.9,22.9,29.35,ENE,62,1.9,2.7,18,-99.99,,,0.00,220,rob ver 1B,2013-03-26 14:57:00,
2013-03-26 07:58:00,66.9,22.7,29.35,ENE,75,2.0,2.8,18,-99.99,,,0.00,191.8,rob ver 1B,2013-03-26 14:58:00,
2013-03-26 07:59:00,65.1,14.6,29.35,East,91,5.4,6.4,13,-99.99,,,0.00,126.8,rob ver 1A,2013-03-26 14:59:00,
2013-03-26 08:00:00,67.3,22.7,29.35,ENE,73,2.1,2.5,18,-99.99,,,0.00,256.8,rob ver 1B,2013-03-26 15:00:00,
2013-03-26 08:01:00,67.4,22.9,29.35,ENE,76,2.5,3.0,18,-99.99,,,0.00,275.8,rob ver 1B,2013-03-26 15:01:00,
2013-03-26 08:02:00,67.4,23.4,29.35,ENE,75,2.7,3.3,18,-99.99,,,0.00,282.7,rob ver 1B,2013-03-26 15:02:00,
2013-03-26 08:03:00,67.3,23.2,29.35,ENE,64,2.5,3.4,18,-99.99,,,0.00,292.9,rob ver 1B,2013-03-26 15:03:00,
2013-03-26 08:04:00,65.5,14.4,29.35,East,100,4.9,6.2,13,-99.99,,,0.00,147.1,rob ver 1A,2013-03-26 15:04:00,
2013-03-26 08:05:00,67.6,22.8,29.35,NE,55,4.2,5.0,18,-99.99,,,0.00,313.9,rob ver 1B,2013-03-26 15:05:00,
2013-03-26 08:06:00,67.5,22.7,29.35,NE,54,4.1,4.7,18,-99.99,,,0.00,218.7,rob ver 1B,2013-03-26 15:06:00,
2013-03-26 08:07:00,67.4,22.8,29.35,NE,54,3.1,3.8,18,-99.99,,,0.00,187.8,rob ver 1B,2013-03-26 15:07:00,
2013-03-26 08:08:00,67.3,23.0,29.35,ENE,57,3.0,3.5,18,-99.99,,,0.00,256.5,rob ver 1B,2013-03-26 15:08:00,
2013-03-26 08:09:00,66.0,14.2,29.38,East,88,6.9,8.4,13,-99.99,,,0.00,146.5,rob ver 1A,2013-03-26 15:09:00,
2013-03-26 08:10:00,67.5,23.2,29.35,ENE,60,2.5,3.0,18,-99.99,,,0.00,286.3,rob ver 1B,2013-03-26 15:10:00,
2013-03-26 08:11:00,67.7,23.1,29.35,ENE,73,2.5,3.1,18,-99.99,,,0.00,309.3,rob ver 1B,2013-03-26 15:11:00,
2013-03-26 08:12:00,67.9,23.0,29.35,ENE,66,2.5,3.2,17,-99.99,,,0.00,321,rob ver 1B,2013-03-26 15:12:00,
2013-03-26 08:13:00,68.1,23.0,29.35,ENE,74,2.5,3.1,17,-99.99,,,0.00,335.6,rob ver 1B,2013-03-26 15:13:00,
2013-03-26 08:14:00,68.3,23.1,29.35,ENE,71,2.3,2.9,17,-99.99,,,0.00,354,rob ver 1B,2013-03-26 15:14:00,
2013-03-26 08:15:00,66.1,14.3,29.35,East,79,7.3,8.8,13,-99.99,,,0.00,170.1,rob ver 1A,2013-03-26 15:15:00,
2013-03-26 08:16:00,68.7,22.9,29.35,East,84,2.5,3.1,17,-99.99,,,0.00,385.5,rob ver 1B,2013-03-26 15:16:00,
2013-03-26 08:17:00,68.8,23.0,29.35,ENE,78,2.1,3.0,17,-99.99,,,0.00,378.3,rob ver 1B,2013-03-26 15:17:00,
2013-03-26 08:18:00,69.0,23.1,29.35,East,80,2.4,3.2,17,-99.99,,,0.00,383.5,rob ver 1B,2013-03-26 15:18:00,
2013-03-26 08:19:00,69.1,23.1,29.38,East,89,3.2,4.0,17,-99.99,,,0.00,380.2,rob ver 1B,2013-03-26 15:19:00,
2013-03-26 08:20:00,67.0,14.7,29.35,ENE,71,8.1,11.3,12,-99.99,,,0.00,315.9,rob ver 1A,2013-03-26 15:20:00,
2013-03-26 08:21:00,69.2,23.1,29.35,East,83,3.2,4.0,17,-99.99,,,0.00,374.3,rob ver 1B,2013-03-26 15:21:00,
2013-03-26 08:22:00,69.2,22.8,29.35,East,82,3.6,4.2,17,-99.99,,,0.00,265.1,rob ver 1B,2013-03-26 15:22:00,
2013-03-26 08:23:00,69.1,23.0,29.35,East,83,3.0,3.6,17,-99.99,,,0.00,275.8,rob ver 1B,2013-03-26 15:23:00,
2013-03-26 08:24:00,69.1,23.1,29.35,East,82,3.3,4.0,17,-99.99,,,0.00,312.6,rob ver 1B,2013-03-26 15:24:00,
2013-03-26 08:25:00,68.3,15.0,29.38,ENE,70,8.7,12.3,12,-99.99,,,0.00,356,rob ver 1A,2013-03-26 15:25:00,
2013-03-26 08:26:00,69.1,23.0,29.35,ENE,77,4.1,5.0,17,-99.99,,,0.00,315.9,rob ver 1B,2013-03-26 15:26:00,
2013-03-26 08:27:00,69.0,23.1,29.35,ENE,65,3.1,3.9,17,-99.99,,,0.00,325.7,rob ver 1B,2013-03-26 15:27:00,
2013-03-26 08:28:00,69.2,23.3,29.35,ENE,75,3.2,4.0,17,-99.99,,,0.00,329.6,rob ver 1B,2013-03-26 15:28:00,
2013-03-26 08:29:00,69.3,23.2,29.35,ENE,68,2.4,3.4,17,-99.99,,,0.00,246.2,rob ver 1B,2013-03-26 15:29:00,
2013-03-26 08:30:00,69.2,15.4,29.38,ENE,69,8.5,11.9,12,-99.99,,,0.00,263.4,rob ver 1A,2013-03-26 15:30:00,
2013-03-26 08:31:00,69.5,23.3,29.35,NE,34,2.9,4.0,17,-99.99,,,0.00,361.8,rob ver 1B,2013-03-26 15:31:00,
2013-03-26 08:32:00,69.7,23.6,29.35,NE,38,2.9,3.6,17,-99.99,,,0.00,361,rob ver 1B,2013-03-26 15:32:00,
2013-03-26 08:33:00,69.9,23.7,29.35,NE,42,2.7,3.6,17,-99.99,,,0.00,371.7,rob ver 1B,2013-03-26 15:33:00,
2013-03-26 08:34:00,70.2,23.9,29.35,NE,53,2.1,3.0,17,-99.99,,,0.00,358.5,rob ver 1B,2013-03-26 15:34:00,
2013-03-26 08:35:00,69.6,15.4,29.38,East,83,8.9,10.8,12,-99.99,,,0.00,197.7,rob ver 1A,2013-03-26 15:35:00,
2013-03-26 08:36:00,70.7,23.7,29.38,NE,42,1.5,1.9,17,-99.99,,,0.00,340.8,rob ver 1B,2013-03-26 15:36:00,
2013-03-26 08:37:00,71.0,23.8,29.38,NE,55,1.7,2.6,16,-99.99,,,0.00,342.1,rob ver 1B,2013-03-26 15:37:00,
2013-03-26 08:38:00,71.2,23.8,29.38,ENE,69,1.4,2.6,16,-99.99,,,0.00,348,rob ver 1B,2013-03-26 15:38:00,
2013-03-26 08:39:00,71.2,23.5,29.38,East,80,1.8,3.0,16,-99.99,,,0.00,360.6,rob ver 1B,2013-03-26 15:39:00,
2013-03-26 08:40:00,71.3,23.5,29.38,SE,134,1.3,2.1,16,-99.99,,,0.00,357.8,rob ver 1B,2013-03-26 15:40:00,
2013-03-26 08:41:00,69.5,15.1,29.35,ENE,78,11.1,12.9,12,-99.99,,,0.00,232.5,rob ver 1A,2013-03-26 15:41:00,
2013-03-26 08:42:00,71.8,24.0,29.38,SE,131,0.8,1.5,16,-99.99,,,0.00,390,rob ver 1B,2013-03-26 15:42:00,
2013-03-26 08:43:00,71.9,24.1,29.38,ESE,120,2.3,3.2,16,-99.99,,,0.00,397.9,rob ver 1B,2013-03-26 15:43:00,
2013-03-26 08:44:00,71.5,24.2,29.38,ESE,110,1.2,2.0,16,-99.99,,,0.00,413.6,rob ver 1B,2013-03-26 15:44:00,
2013-03-26 08:45:00,71.8,24.4,29.38,SSW,207,1.9,2.8,16,-99.99,,,0.00,411.6,rob ver 1B,2013-03-26 15:45:00,
2013-03-26 08:46:00,69.9,15.5,29.38,East,83,7.4,10.9,12,-99.99,,,0.00,340.1,rob ver 1A,2013-03-26 15:46:00,
2013-03-26 08:47:00,72.0,24.2,29.38,SSE,157,2.3,3.6,16,-99.99,,,0.00,395.2,rob ver 1B,2013-03-26 15:47:00,
2013-03-26 08:48:00,71.8,24.1,29.38,East,96,1.3,1.7,16,-99.99,,,0.00,376.8,rob ver 1B,2013-03-26 15:48:00,
2013-03-26 08:49:00,71.9,24.1,29.38,ESE,102,0.7,1.4,16,-99.99,,,0.00,372.2,rob ver 1B,2013-03-26 15:49:00,
2013-03-26 08:50:00,72.2,24.4,29.38,SSE,151,1.9,4.2,16,-99.99,,,0.00,365,rob ver 1B,2013-03-26 15:50:00,
2013-03-26 08:51:00,70.2,15.4,29.38,East,84,6.7,8.4,12,-99.99,,,0.00,195,rob ver 1A,2013-03-26 15:51:00,
2013-03-26 08:52:00,72.3,24.4,29.38,South,172,0.9,1.6,16,-99.99,,,0.00,398.5,rob ver 1B,2013-03-26 15:52:00,
2013-03-26 08:53:00,72.5,24.4,29.38,SSE,147,2.2,3.1,16,-99.99,,,0.00,413.6,rob ver 1B,2013-03-26 15:53:00,
2013-03-26 08:54:00,72.0,24.6,29.38,SSE,156,2.7,4.0,17,-99.99,,,0.00,432.4,rob ver 1B,2013-03-26 15:54:00,
2013-03-26 08:55:00,72.0,24.9,29.38,South,178,2.6,4.7,16,-99.99,,,0.00,447,rob ver 1B,2013-03-26 15:55:00,
2013-03-26 08:56:00,70.4,15.7,29.38,East,88,4.8,6.5,12,-99.99,,,0.00,209.4,rob ver 1A,2013-03-26 15:56:00,
2013-03-26 08:57:00,72.0,24.5,29.38,South,178,1.9,2.6,16,-99.99,,,0.00,442.1,rob ver 1B,2013-03-26 15:57:00,
2013-03-26 08:58:00,72.2,25.1,29.38,SSW,193,3.1,4.4,17,-99.99,,,0.00,485.3,rob ver 1B,2013-03-26 15:58:00,
2013-03-26 08:59:00,72.3,25.6,29.38,SSW,201,2.7,3.2,17,-99.99,,,0.00,495.3,rob ver 1B,2013-03-26 15:59:00,
2013-03-26 09:00:00,72.2,25.2,29.38,South,182,3.1,4.4,17,-99.99,,,0.00,495.9,rob ver 1B,2013-03-26 16:00:00,
2013-03-26 09:01:00,71.0,15.8,29.38,ENE,68,6.2,9.0,11,-99.99,,,0.00,226.8,rob ver 1A,2013-03-26 16:01:00,
2013-03-26 09:02:00,71.9,25.4,29.38,SSE,155,3.6,4.7,17,-99.99,,,0.00,517.9,rob ver 1B,2013-03-26 16:02:00,
2013-03-26 09:03:00,71.6,25.8,29.38,SSE,148,2.8,3.9,18,-99.99,,,0.00,524.1,rob ver 1B,2013-03-26 16:03:00,
2013-03-26 09:04:00,71.7,25.6,29.38,South,185,3.8,5.2,17,-99.99,,,0.00,524,rob ver 1B,2013-03-26 16:04:00,
2013-03-26 09:05:00,72.0,25.1,29.38,SSW,193,3.5,4.5,17,-99.99,,,0.00,542.3,rob ver 1B,2013-03-26 16:05:00,
2013-03-26 09:06:00,71.5,15.8,29.38,ENE,65,5.0,6.7,11,-99.99,,,0.00,314.8,rob ver 1A,2013-03-26 16:06:00,
2013-03-26 09:07:00,71.9,25.5,29.38,SSW,194,3.1,5.0,17,-99.99,,,0.00,450.1,rob ver 1B,2013-03-26 16:07:00,
2013-03-26 09:08:00,72.0,25.6,29.38,SW,215,4.3,5.7,17,-99.99,,,0.00,453.5,rob ver 1B,2013-03-26 16:08:00,
2013-03-26 09:09:00,71.9,25.8,29.38,SW,235,2.5,3.5,17,-99.99,,,0.00,461.4,rob ver 1B,2013-03-26 16:09:00,
2013-03-26 09:10:00,71.9,25.8,29.38,SW,227,3.5,4.2,17,-99.99,,,0.00,479,rob ver 1B,2013-03-26 16:10:00,
2013-03-26 09:11:00,71.9,25.8,29.38,SW,225,1.7,2.8,17,-99.99,,,0.00,502.7,rob ver 1B,2013-03-26 16:11:00,
2013-03-26 09:12:00,72.5,16.1,29.38,ENE,65,6.4,8.1,11,-99.99,,,0.00,540.4,rob ver 1A,2013-03-26 16:12:00,
2013-03-26 09:13:00,72.7,26.0,29.38,SSW,209,3.0,4.6,17,-99.99,,,0.00,526.7,rob ver 1B,2013-03-26 16:13:00,
2013-03-26 09:14:00,72.8,26.0,29.38,SSW,202,2.9,3.4,17,-99.99,,,0.00,531.5,rob ver 1B,2013-03-26 16:14:00,
2013-03-26 09:15:00,72.8,25.8,29.38,SW,230,2.0,4.1,17,-99.99,,,0.00,531.9,rob ver 1B,2013-03-26 16:15:00,
2013-03-26 09:16:00,73.1,26.1,29.38,NW,314,0.5,1.7,17,-99.99,,,0.00,522.4,rob ver 1B,2013-03-26 16:16:00,
2013-03-26 09:17:00,72.4,16.0,29.38,East,80,6.3,7.8,11,-99.99,,,0.00,257.3,rob ver 1A,2013-03-26 16:17:00,
2013-03-26 09:18:00,74.1,26.5,29.38,SSW,212,2.0,3.0,16,-99.99,,,0.00,549.2,rob ver 1B,2013-03-26 16:18:00,
2013-03-26 09:19:00,74.0,25.8,29.38,SSW,194,1.7,2.7,16,-99.99,,,0.00,565.6,rob ver 1B,2013-03-26 16:19:00,
2013-03-26 09:20:00,74.3,26.4,29.38,South,188,2.0,3.2,16,-99.99,,,0.00,575.9,rob ver 1B,2013-03-26 16:20:00,
2013-03-26 09:21:00,74.7,26.3,29.38,SSW,213,1.4,2.6,16,-99.99,,,0.00,585.7,rob ver 1B,2013-03-26 16:21:00,
2013-03-26 09:22:00,72.5,15.9,29.38,East,86,7.5,8.9,11,-99.99,,,0.00,374.1,rob ver 1A,2013-03-26 16:22:00,
2013-03-26 09:23:00,74.7,27.4,29.38,WSW,251,2.7,3.4,17,-99.99,,,0.00,601.8,rob ver 1B,2013-03-26 16:23:00,
2013-03-26 09:24:00,74.4,27.4,29.38,WSW,240,3.6,5.1,17,-99.99,,,0.00,600.5,rob ver 1B,2013-03-26 16:24:00,
2013-03-26 09:25:00,74.1,27.2,29.38,SW,227,3.2,4.0,17,-99.99,,,0.00,593.7,rob ver 1B,2013-03-26 16:25:00,
2013-03-26 09:26:00,73.9,27.0,29.38,SW,234,3.9,4.7,17,-99.99,,,0.00,591.1,rob ver 1B,2013-03-26 16:26:00,
2013-03-26 09:27:00,72.8,15.8,29.38,East,80,8.6,10.8,11,-99.99,,,0.00,654.7,rob ver 1A,2013-03-26 16:27:00,
2013-03-26 09:28:00,73.8,27.4,29.38,WSW,250,3.3,4.6,17,-99.99,,,0.00,556,rob ver 1B,2013-03-26 16:28:00,
2013-03-26 09:29:00,73.9,27.5,29.38,West,259,3.6,4.6,17,-99.99,,,0.00,587.9,rob ver 1B,2013-03-26 16:29:00,
2013-03-26 09:30:00,73.8,27.2,29.38,SSW,198,3.4,5.4,17,-99.99,,,0.00,594,rob ver 1B,2013-03-26 16:30:00,
2013-03-26 09:31:00,73.7,26.7,29.38,SSE,167,4.7,5.6,17,-99.99,,,0.00,584.7,rob ver 1B,2013-03-26 16:31:00,
2013-03-26 09:32:00,73.5,16.6,29.38,ESE,105,6.8,8.6,11,-99.99,,,0.00,791,rob ver 1A,2013-03-26 16:32:00,
2013-03-26 09:33:00,73.5,27.5,29.38,WSW,239,3.0,4.2,17,-99.99,,,0.00,593.2,rob ver 1B,2013-03-26 16:33:00,
2013-03-26 09:34:00,73.6,27.6,29.38,SW,223,3.2,5.3,18,-99.99,,,0.00,570.8,rob ver 1B,2013-03-26 16:34:00,
2013-03-26 09:35:00,73.7,27.5,29.38,SW,224,2.5,5.4,17,-99.99,,,0.00,545.3,rob ver 1B,2013-03-26 16:35:00,
2013-03-26 09:36:00,73.8,27.6,29.38,SW,224,2.6,4.0,17,-99.99,,,0.00,561.7,rob ver 1B,2013-03-26 16:36:00,
2013-03-26 09:37:00,73.8,16.8,29.38,East,98,6.8,8.5,11,-99.99,,,0.00,439.7,rob ver 1A,2013-03-26 16:37:00,
2013-03-26 09:38:00,73.8,27.1,29.38,South,170,2.8,4.0,17,-99.99,,,0.00,638.6,rob ver 1B,2013-03-26 16:38:00,
2013-03-26 09:39:00,73.9,27.4,29.38,South,183,2.7,3.6,17,-99.99,,,0.00,642,rob ver 1B,2013-03-26 16:39:00,
2013-03-26 09:40:00,74.3,27.3,29.38,SSW,212,2.9,5.4,17,-99.99,,,0.00,636.7,rob ver 1B,2013-03-26 16:40:00,
2013-03-26 09:41:00,74.4,27.6,29.38,SW,224,3.8,4.7,17,-99.99,,,0.00,621.8,rob ver 1B,2013-03-26 16:41:00,
2013-03-26 09:42:00,74.3,27.6,29.38,SW,223,3.0,5.2,17,-99.99,,,0.00,620.5,rob ver 1B,2013-03-26 16:42:00,
2013-03-26 09:43:00,73.5,17.0,29.38,ESE,102,6.2,7.4,11,-99.99,,,0.00,318.9,rob ver 1A,2013-03-26 16:43:00,
2013-03-26 09:44:00,74.5,27.7,29.38,South,183,3.5,5.3,17,-99.99,,,0.00,640.3,rob ver 1B,2013-03-26 16:44:00,
2013-03-26 09:45:00,74.7,27.7,29.38,WSW,245,0.9,1.9,17,-99.99,,,0.00,640.6,rob ver 1B,2013-03-26 16:45:00,
2013-03-26 09:46:00,75.5,28.0,29.38,SSW,206,2.0,3.3,17,-99.99,,,0.00,672.8,rob ver 1B,2013-03-26 16:46:00,
2013-03-26 09:47:00,75.7,27.6,29.38,South,177,3.2,5.0,16,-99.99,,,0.00,680.5,rob ver 1B,2013-03-26 16:47:00,
2013-03-26 09:48:00,73.0,17.2,29.38,ESE,103,4.9,5.9,11,-99.99,,,0.00,522.4,rob ver 1A,2013-03-26 16:48:00,
2013-03-26 09:49:00,75.3,27.5,29.38,South,186,5.8,8.6,17,-99.99,,,0.00,670.9,rob ver 1B,2013-03-26 16:49:00,
2013-03-26 09:50:00,75.0,27.2,29.38,South,187,6.0,7.5,17,-99.99,,,0.00,667.8,rob ver 1B,2013-03-26 16:50:00,
2013-03-26 09:51:00,74.9,27.7,29.38,SSW,202,3.6,5.5,17,-99.99,,,0.00,690.5,rob ver 1B,2013-03-26 16:51:00,
2013-03-26 09:52:00,75.3,27.5,29.38,South,190,2.4,3.3,16,-99.99,,,0.00,672.7,rob ver 1B,2013-03-26 16:52:00,
2013-03-26 09:53:00,73.8,17.5,29.38,ESE,115,5.1,6.6,11,-99.99,,,0.00,684.4,rob ver 1A,2013-03-26 16:53:00,
2013-03-26 09:54:00,75.2,27.5,29.38,SW,219,5.5,8.4,17,-99.99,,,0.00,695.2,rob ver 1B,2013-03-26 16:54:00,
2013-03-26 09:55:00,74.9,27.8,29.38,SW,222,2.7,4.8,17,-99.99,,,0.00,710,rob ver 1B,2013-03-26 16:55:00,
2013-03-26 09:56:00,75.2,27.9,29.38,SSW,212,2.9,5.4,17,-99.99,,,0.00,729,rob ver 1B,2013-03-26 16:56:00,
2013-03-26 09:57:00,75.2,28.0,29.38,SW,220,6.2,7.6,17,-99.99,,,0.00,723,rob ver 1B,2013-03-26 16:57:00,
2013-03-26 09:58:00,74.8,17.0,29.38,East,95,6.4,8.0,10,-99.99,,,0.00,536.1,rob ver 1A,2013-03-26 16:58:00,
2013-03-26 09:59:00,75.0,28.0,29.38,SW,219,6.6,10.0,17,-99.99,,,0.00,696.3,rob ver 1B,2013-03-26 16:59:00,
2013-03-26 10:00:00,75.1,28.1,29.38,SSW,197,4.5,6.0,17,-99.99,,,0.00,695,rob ver 1B,2013-03-26 17:00:00,
2013-03-26 10:01:00,75.3,28.0,29.38,SW,214,5.1,8.7,17,-99.99,,,0.00,716,rob ver 1B,2013-03-26 17:01:00,
2013-03-26 10:02:00,75.5,28.0,29.38,SSW,205,5.2,7.1,17,-99.99,,,0.00,684.8,rob ver 1B,2013-03-26 17:02:00,
2013-03-26 10:03:00,76.2,16.9,29.38,ENE,70,6.3,9.2,10,-99.99,,,0.00,897,rob ver 1A,2013-03-26 17:03:00,
2013-03-26 10:04:00,75.5,28.2,29.38,SSW,198,4.6,6.1,17,-99.99,,,0.00,699.4,rob ver 1B,2013-03-26 17:04:00,
2013-03-26 10:05:00,75.9,28.3,29.38,SSW,203,5.3,8.2,16,-99.99,,,0.00,733,rob ver 1B,2013-03-26 17:05:00,
2013-03-26 10:06:00,76.1,28.0,29.38,SSW,212,7.0,8.3,17,-99.99,,,0.00,731,rob ver 1B,2013-03-26 17:06:00,
2013-03-26 10:07:00,75.9,28.2,29.38,SSW,202,6.2,8.7,17,-99.99,,,0.00,741,rob ver 1B,2013-03-26 17:07:00,
2013-03-26 10:08:00,75.8,16.4,29.38,ENE,75,7.2,9.7,10,-99.99,,,0.00,355,rob ver 1A,2013-03-26 17:08:00,
2013-03-26 10:09:00,76.4,28.3,29.38,SSW,206,6.5,9.2,16,-99.99,,,0.00,732,rob ver 1B,2013-03-26 17:09:00,
2013-03-26 10:10:00,76.7,28.4,29.38,SW,227,7.4,9.5,16,-99.99,,,0.00,783,rob ver 1B,2013-03-26 17:10:00,
2013-03-26 10:11:00,76.2,28.3,29.38,SW,233,6.6,8.3,17,-99.99,,,0.00,789,rob ver 1B,2013-03-26 17:11:00,
2013-03-26 10:12:00,75.8,28.5,29.38,SW,218,6.4,8.3,17,-99.99,,,0.00,790,rob ver 1B,2013-03-26 17:12:00,
2013-03-26 10:13:00,76.2,16.1,29.38,ENE,77,8.5,10.8,10,-99.99,,,0.00,461.3,rob ver 1A,2013-03-26 17:13:00,
2013-03-26 10:14:00,75.9,28.1,29.38,South,184,5.8,7.8,17,-99.99,,,0.00,775,rob ver 1B,2013-03-26 17:14:00,
2013-03-26 10:15:00,76.1,28.3,29.38,SSW,196,8.2,10.9,16,-99.99,,,0.00,778,rob ver 1B,2013-03-26 17:15:00,
2013-03-26 10:16:00,76.2,28.1,29.38,SSW,201,8.2,10.8,16,-99.99,,,0.00,774,rob ver 1B,2013-03-26 17:16:00,
2013-03-26 10:17:00,75.9,28.2,29.38,SSW,202,6.8,8.9,17,-99.99,,,0.00,743,rob ver 1B,2013-03-26 17:17:00,
2013-03-26 10:18:00,76.9,16.7,29.38,East,95,8.2,10.2,10,-99.99,,,0.00,784,rob ver 1A,2013-03-26 17:18:00,
2013-03-26 10:19:00,76.1,28.4,29.38,SSW,207,8.4,10.5,17,-99.99,,,0.00,773,rob ver 1B,2013-03-26 17:19:00,
2013-03-26 10:20:00,76.1,28.4,29.38,SW,228,6.3,9.4,17,-99.99,,,0.00,736,rob ver 1B,2013-03-26 17:20:00,
2013-03-26 10:21:00,76.0,28.4,29.38,SW,230,5.9,8.5,17,-99.99,,,0.00,771,rob ver 1B,2013-03-26 17:21:00,
2013-03-26 10:22:00,76.1,28.6,29.38,SW,215,5.8,8.6,17,-99.99,,,0.00,728,rob ver 1B,2013-03-26 17:22:00,
2013-03-26 10:23:00,76.1,28.5,29.38,SW,230,6.0,8.3,17,-99.99,,,0.00,732,rob ver 1B,2013-03-26 17:23:00,
2013-03-26 10:24:00,77.1,16.8,29.38,East,82,7.2,9.3,10,-99.99,,,0.00,366.1,rob ver 1A,2013-03-26 17:24:00,
2013-03-26 10:25:00,76.2,28.5,29.38,WSW,240,8.4,10.5,17,-99.99,,,0.00,808,rob ver 1B,2013-03-26 17:25:00,
2013-03-26 10:26:00,76.1,28.5,29.38,SW,234,7.5,10.1,17,-99.99,,,0.00,787,rob ver 1B,2013-03-26 17:26:00,
2013-03-26 10:27:00,76.1,28.6,29.38,SW,234,7.0,9.7,17,-99.99,,,0.00,618.7,rob ver 1B,2013-03-26 17:27:00,
2013-03-26 10:28:00,76.2,28.6,29.38,WSW,245,5.1,7.5,17,-99.99,,,0.00,605.9,rob ver 1B,2013-03-26 17:28:00,
2013-03-26 10:29:00,76.5,16.6,29.38,East,81,6.0,8.4,10,-99.99,,,0.00,854,rob ver 1A,2013-03-26 17:29:00,
2013-03-26 10:30:00,76.6,28.7,29.38,SW,218,6.1,8.9,16,-99.99,,,0.00,679.7,rob ver 1B,2013-03-26 17:30:00,
2013-03-26 10:32:00,76.7,28.5,29.38,WSW,253,7.3,9.9,17,-99.99,,,0.00,555.1,rob ver 1B,2013-03-26 17:32:00,
2013-03-26 10:33:00,76.9,28.3,29.38,SW,218,7.4,9.6,16,-99.99,,,0.00,654.4,rob ver 1B,2013-03-26 17:33:00,
2013-03-26 10:34:00,78.0,17.1,29.38,SE,125,7.1,8.4,10,-99.99,,,0.00,784,rob ver 1A,2013-03-26 17:34:00,
2013-03-26 10:35:00,76.7,28.2,29.38,SW,214,7.3,9.9,16,-99.99,,,0.00,559.7,rob ver 1B,2013-03-26 17:35:00,
2013-03-26 10:37:00,77.0,28.3,29.38,WSW,241,6.3,7.9,16,-99.99,,,0.00,517.7,rob ver 1B,2013-03-26 17:37:00,
2013-03-26 10:38:00,77.0,28.1,29.38,WSW,252,5.9,7.9,16,-99.99,,,0.00,511.8,rob ver 1B,2013-03-26 17:38:00,
2013-03-26 10:39:00,78.9,17.5,29.38,SE,129,5.8,8.2,9,-99.99,,,0.00,957,rob ver 1A,2013-03-26 17:39:00,
2013-03-26 10:40:00,76.6,28.0,29.38,WSW,256,3.8,6.0,16,-99.99,,,0.00,547.8,rob ver 1B,2013-03-26 17:40:00,
2013-03-26 10:41:00,76.7,28.2,29.38,WSW,240,6.4,9.8,16,-99.99,,,0.00,641,rob ver 1B,2013-03-26 17:41:00,
2013-03-26 10:42:00,76.7,28.2,29.38,WSW,244,7.7,9.2,16,-99.99,,,0.00,641.6,rob ver 1B,2013-03-26 17:42:00,
2013-03-26 10:43:00,76.6,28.0,29.38,SW,236,5.1,6.4,16,-99.99,,,0.00,680.6,rob ver 1B,2013-03-26 17:43:00,
2013-03-26 10:44:00,77.8,17.3,29.38,SE,124,5.5,6.9,10,-99.99,,,0.00,345.4,rob ver 1A,2013-03-26 17:44:00,
2013-03-26 10:45:00,77.0,28.1,29.38,WSW,238,5.3,9.0,16,-99.99,,,0.00,701,rob ver 1B,2013-03-26 17:45:00,
2013-03-26 10:46:00,77.2,28.3,29.38,SW,236,5.7,8.5,16,-99.99,,,0.00,718,rob ver 1B,2013-03-26 17:46:00,
2013-03-26 10:47:00,77.4,28.2,29.38,WSW,246,5.0,6.1,16,-99.99,,,0.00,731,rob ver 1B,2013-03-26 17:47:00,
2013-03-26 10:48:00,77.3,28.3,29.38,WSW,241,3.7,5.8,16,-99.99,,,0.00,589.8,rob ver 1B,2013-03-26 17:48:00,
2013-03-26 10:49:00,78.0,17.3,29.38,SE,134,4.1,5.8,9,-99.99,,,0.00,817,rob ver 1A,2013-03-26 17:49:00,
2013-03-26 10:50:00,77.7,28.2,29.38,SSW,209,9.0,11.9,16,-99.99,,,0.00,725,rob ver 1B,2013-03-26 17:50:00,
2013-03-26 10:51:00,77.6,28.1,29.38,SSW,213,7.2,9.3,16,-99.99,,,0.00,744,rob ver 1B,2013-03-26 17:51:00,
2013-03-26 10:52:00,77.7,28.3,29.38,SW,235,5.5,7.0,15,-99.99,,,0.00,731,rob ver 1B,2013-03-26 17:52:00,
2013-03-26 10:53:00,77.9,28.2,29.38,WSW,248,4.8,7.5,16,-99.99,,,0.00,767,rob ver 1B,2013-03-26 17:53:00,
2013-03-26 10:54:00,78.6,17.4,29.38,SSE,151,6.7,8.4,9,-99.99,,,0.00,391.9,rob ver 1A,2013-03-26 17:54:00,
2013-03-26 10:55:00,77.7,27.9,29.38,SW,219,7.6,9.9,15,-99.99,,,0.00,538.3,rob ver 1B,2013-03-26 17:55:00,
2013-03-26 10:56:00,77.6,28.0,29.38,SW,219,6.1,8.2,16,-99.99,,,0.00,568.8,rob ver 1B,2013-03-26 17:56:00,
2013-03-26 10:57:00,77.5,28.2,29.38,SW,231,5.4,10.3,16,-99.99,,,0.00,607.2,rob ver 1B,2013-03-26 17:57:00,
2013-03-26 10:58:00,77.7,28.1,29.38,WSW,247,8.5,11.0,16,-99.99,,,0.00,612.7,rob ver 1B,2013-03-26 17:58:00,
2013-03-26 10:59:00,78.9,17.3,29.38,SSE,165,4.1,6.7,9,-99.99,,,0.00,864,rob ver 1A,2013-03-26 17:59:00,
2013-03-26 11:00:00,77.7,28.1,29.38,SW,232,7.5,10.6,16,-99.99,,,0.00,534.4,rob ver 1B,2013-03-26 18:00:00,
2013-03-26 11:01:00,77.6,28.1,29.38,SW,228,4.8,8.7,16,-99.99,,,0.00,637,rob ver 1B,2013-03-26 18:01:00,
2013-03-26 11:02:00,77.7,28.2,29.38,WSW,255,6.6,9.0,16,-99.99,,,0.00,515.7,rob ver 1B,2013-03-26 18:02:00,
2013-03-26 11:03:00,77.7,28.2,29.38,South,191,7.6,10.2,16,-99.99,,,0.00,542.2,rob ver 1B,2013-03-26 18:03:00,
2013-03-26 11:04:00,79.1,16.8,29.38,South,184,6.2,8.5,9,-99.99,,,0.00,787,rob ver 1A,2013-03-26 18:04:00,
2013-03-26 11:05:00,77.9,28.0,29.38,SSW,197,5.3,7.2,16,-99.99,,,0.00,662.2,rob ver 1B,2013-03-26 18:05:00,
2013-03-26 11:06:00,78.0,28.2,29.38,SW,226,5.8,7.8,16,-99.99,,,0.00,983,rob ver 1B,2013-03-26 18:06:00,
2013-03-26 11:07:00,78.1,28.3,29.38,SW,217,6.0,8.2,16,-99.99,,,0.00,781,rob ver 1B,2013-03-26 18:07:00,
2013-03-26 11:08:00,78.4,28.3,29.38,SSW,200,7.2,10.1,15,-99.99,,,0.00,821,rob ver 1B,2013-03-26 18:08:00,
2013-03-26 11:09:00,78.7,28.2,29.38,South,191,5.8,7.1,15,-99.99,,,0.00,919,rob ver 1B,2013-03-26 18:09:00,
2013-03-26 11:10:00,79.0,16.6,29.38,South,177,8.0,9.6,9,-99.99,,,0.00,658.2,rob ver 1A,2013-03-26 18:10:00,
2013-03-26 11:11:00,79.2,27.8,29.38,SSE,166,6.7,8.2,15,-99.99,,,0.00,961,rob ver 1B,2013-03-26 18:11:00,
2013-03-26 11:12:00,78.9,27.9,29.38,South,186,5.3,7.9,15,-99.99,,,0.00,814,rob ver 1B,2013-03-26 18:12:00,
2013-03-26 11:13:00,79.4,27.9,29.38,SSW,198,7.1,9.8,14,-99.99,,,0.00,841,rob ver 1B,2013-03-26 18:13:00,
2013-03-26 11:14:00,79.3,27.6,29.38,SSW,201,4.7,8.6,15,-99.99,,,0.00,866,rob ver 1B,2013-03-26 18:14:00,
2013-03-26 11:15:00,79.1,17.4,29.38,ESE,118,7.0,9.7,9,-99.99,,,0.00,755,rob ver 1A,2013-03-26 18:15:00,
2013-03-26 11:16:00,78.9,27.9,29.38,SW,225,6.5,9.0,15,-99.99,,,0.00,782,rob ver 1B,2013-03-26 18:16:00,
2013-03-26 11:17:00,78.8,27.8,29.38,SSW,211,5.1,9.3,15,-99.99,,,0.00,645.5,rob ver 1B,2013-03-26 18:17:00,
2013-03-26 11:18:00,78.9,27.9,29.38,SW,224,4.2,6.8,15,-99.99,,,0.00,726,rob ver 1B,2013-03-26 18:18:00,
2013-03-26 11:19:00,79.1,27.8,29.38,WSW,254,3.8,7.6,15,-99.99,,,0.00,707,rob ver 1B,2013-03-26 18:19:00,
2013-03-26 11:20:00,80.3,18.0,29.38,SE,145,7.0,9.0,9,-99.99,,,0.00,883,rob ver 1A,2013-03-26 18:20:00,
2013-03-26 11:21:00,79.1,27.6,29.38,South,173,7.0,10.0,14,-99.99,,,0.00,565.8,rob ver 1B,2013-03-26 18:21:00,
2013-03-26 11:22:00,78.8,27.3,29.38,South,184,8.1,10.0,15,-99.99,,,0.00,603.9,rob ver 1B,2013-03-26 18:22:00,
2013-03-26 11:23:00,78.9,27.5,29.38,South,183,9.7,12.1,15,-99.99,,,0.00,641.2,rob ver 1B,2013-03-26 18:23:00,
2013-03-26 11:24:00,79.2,27.5,29.38,South,183,10.4,12.3,14,-99.99,,,0.00,637.6,rob ver 1B,2013-03-26 18:24:00,
2013-03-26 11:25:00,80.2,18.1,29.38,SSE,152,9.3,12.3,9,-99.99,,,0.00,854,rob ver 1A,2013-03-26 18:25:00,
2013-03-26 11:26:00,79.2,27.4,29.38,SSW,204,5.4,7.2,14,-99.99,,,0.00,548.8,rob ver 1B,2013-03-26 18:26:00,
2013-03-26 11:27:00,79.3,27.3,29.38,SSW,203,3.9,6.3,14,-99.99,,,0.00,587,rob ver 1B,2013-03-26 18:27:00,
2013-03-26 11:28:00,79.5,27.4,29.38,South,191,9.0,12.5,14,-99.99,,,0.00,530.7,rob ver 1B,2013-03-26 18:28:00,
2013-03-26 11:29:00,79.9,26.9,29.38,SSW,201,9.9,12.1,14,-99.99,,,0.00,541.2,rob ver 1B,2013-03-26 18:29:00,
2013-03-26 11:30:00,80.2,18.3,29.38,South,171,7.3,11.5,9,-99.99,,,0.00,861,rob ver 1A,2013-03-26 18:30:00,
2013-03-26 11:31:00,79.6,27.4,29.38,SW,225,6.7,7.9,14,-99.99,,,0.00,517.6,rob ver 1B,2013-03-26 18:31:00,
2013-03-26 11:32:00,79.5,27.2,29.38,SW,229,5.6,7.3,14,-99.99,,,0.00,497.3,rob ver 1B,2013-03-26 18:32:00,
2013-03-26 11:33:00,79.4,27.4,29.38,SW,225,9.7,12.0,14,-99.99,,,0.00,481.2,rob ver 1B,2013-03-26 18:33:00,
2013-03-26 11:34:00,79.2,27.5,29.38,SW,222,10.8,13.1,15,-99.99,,,0.00,468.8,rob ver 1B,2013-03-26 18:34:00,
2013-03-26 11:35:00,79.0,27.5,29.38,SW,227,9.1,12.0,15,-99.99,,,0.00,482.4,rob ver 1B,2013-03-26 18:35:00,
2013-03-26 11:36:00,80.3,18.2,29.38,SE,144,9.3,13.4,9,-99.99,,,0.00,864,rob ver 1A,2013-03-26 18:36:00,
2013-03-26 11:37:00,78.9,27.6,29.38,SW,233,6.2,9.3,15,-99.99,,,0.00,576,rob ver 1B,2013-03-26 18:37:00,
2013-03-26 11:38:00,78.8,27.8,29.38,WSW,238,4.2,6.9,15,-99.99,,,0.00,604.8,rob ver 1B,2013-03-26 18:38:00,
2013-03-26 11:39:00,79.1,27.9,29.38,SW,230,7.1,9.4,15,-99.99,,,0.00,689.9,rob ver 1B,2013-03-26 18:39:00,
2013-03-26 11:40:00,79.2,27.7,29.38,SSW,200,7.1,10.8,15,-99.99,,,0.00,586.5,rob ver 1B,2013-03-26 18:40:00,
2013-03-26 11:41:00,80.6,18.9,29.35,South,171,12.3,15.5,9,-99.99,,,0.00,869,rob ver 1A,2013-03-26 18:41:00,
2013-03-26 11:42:00,79.4,27.4,29.38,SSW,207,9.4,11.9,14,-99.99,,,0.00,623.8,rob ver 1B,2013-03-26 18:42:00,
2013-03-26 11:43:00,79.6,27.7,29.38,SW,221,8.2,9.9,14,-99.99,,,0.00,600.9,rob ver 1B,2013-03-26 18:43:00,
2013-03-26 11:44:00,79.7,27.8,29.38,SSW,198,8.7,12.6,14,-99.99,,,0.00,545.2,rob ver 1B,2013-03-26 18:44:00,
2013-03-26 11:45:00,79.5,28.0,29.38,South,191,5.0,7.6,14,-99.99,,,0.00,596.3,rob ver 1B,2013-03-26 18:45:00,
2013-03-26 11:46:00,80.9,18.5,29.38,South,170,10.1,12.1,9,-99.99,,,0.00,874,rob ver 1A,2013-03-26 18:46:00,
2013-03-26 11:47:00,80.0,27.9,29.38,SSW,213,6.3,10.2,15,-99.99,,,0.00,729,rob ver 1B,2013-03-26 18:47:00,
2013-03-26 11:48:00,79.9,28.5,29.38,SSW,202,8.7,11.4,15,-99.99,,,0.00,722,rob ver 1B,2013-03-26 18:48:00,
2013-03-26 11:49:00,79.6,28.8,29.38,South,188,8.6,12.1,15,-99.99,,,0.00,725,rob ver 1B,2013-03-26 18:49:00,
2013-03-26 11:50:00,79.6,28.7,29.38,SSW,193,5.2,7.9,15,-99.99,,,0.00,831,rob ver 1B,2013-03-26 18:50:00,
2013-03-26 11:51:00,80.9,18.5,29.38,SSE,152,7.6,11.2,9,-99.99,,,0.00,880,rob ver 1A,2013-03-26 18:51:00,
2013-03-26 11:52:00,80.1,29.0,29.38,SSW,204,8.3,10.4,15,-99.99,,,0.00,759,rob ver 1B,2013-03-26 18:52:00,
2013-03-26 11:53:00,79.9,29.0,29.38,SW,217,5.5,9.0,15,-99.99,,,0.00,670.9,rob ver 1B,2013-03-26 18:53:00,
2013-03-26 11:54:00,79.8,29.1,29.38,SW,216,3.8,6.2,15,-99.99,,,0.00,693.7,rob ver 1B,2013-03-26 18:54:00,
2013-03-26 11:55:00,79.8,29.2,29.38,SW,214,3.7,9.3,15,-99.99,,,0.00,724,rob ver 1B,2013-03-26 18:55:00,
2013-03-26 11:56:00,81.2,18.8,29.35,SE,143,8.9,11.7,9,-99.99,,,0.00,885,rob ver 1A,2013-03-26 18:56:00,
2013-03-26 11:57:00,80.3,28.8,29.38,South,178,5.3,7.6,15,-99.99,,,0.00,670.4,rob ver 1B,2013-03-26 18:57:00,
2013-03-26 11:58:00,80.2,28.8,29.38,South,174,5.4,9.7,15,-99.99,,,0.00,636.1,rob ver 1B,2013-03-26 18:58:00,
2013-03-26 11:59:00,80.3,28.8,29.38,South,175,6.7,9.1,15,-99.99,,,0.00,640.2,rob ver 1B,2013-03-26 18:59:00,
2013-03-26 12:00:00,80.4,28.8,29.38,SSW,195,7.0,8.4,14,-99.99,,,0.00,716,rob ver 1B,2013-03-26 19:00:00,
2013-03-26 12:01:00,80.7,19.1,29.38,SE,142,4.3,7.9,10,-99.99,,,0.00,889,rob ver 1A,2013-03-26 19:01:00,
2013-03-26 12:02:00,80.8,27.9,29.38,SW,220,5.1,7.6,14,-99.99,,,0.00,635,rob ver 1B,2013-03-26 19:02:00,
2013-03-26 12:03:00,80.6,28.1,29.38,WSW,245,5.8,9.8,14,-99.99,,,0.00,614.3,rob ver 1B,2013-03-26 19:03:00,
2013-03-26 12:04:00,80.5,28.3,29.38,WSW,257,5.5,8.6,14,-99.99,,,0.00,619.6,rob ver 1B,2013-03-26 19:04:00,
2013-03-26 12:05:00,80.3,28.6,29.38,WSW,241,5.6,7.3,15,-99.99,,,0.00,643.8,rob ver 1B,2013-03-26 19:05:00,
2013-03-26 12:06:00,81.6,19.3,29.35,SE,134,6.5,9.7,9,-99.99,,,0.00,892,rob ver 1A,2013-03-26 19:06:00,
2013-03-26 12:07:00,80.6,27.9,29.38,SW,218,9.4,12.0,14,-99.99,,,0.00,571.4,rob ver 1B,2013-03-26 19:07:00,
2013-03-26 12:08:00,80.7,27.4,29.38,SW,228,6.4,8.1,14,-99.99,,,0.00,539.9,rob ver 1B,2013-03-26 19:08:00,
2013-03-26 12:09:00,80.3,27.8,29.38,WSW,240,4.0,5.3,14,-99.99,,,0.00,574.3,rob ver 1B,2013-03-26 19:09:00,
2013-03-26 12:10:00,80.3,28.1,29.38,SW,225,5.6,9.0,14,-99.99,,,0.00,577.9,rob ver 1B,2013-03-26 19:10:00,
2013-03-26 12:11:00,81.9,19.7,29.35,SE,132,8.2,10.8,9,-99.99,,,0.00,895,rob ver 1A,2013-03-26 19:11:00,
2013-03-26 12:12:00,80.2,27.1,29.38,SSW,208,4.7,7.3,14,-99.99,,,0.00,676.3,rob ver 1B,2013-03-26 19:12:00,
2013-03-26 12:13:00,80.5,27.3,29.38,South,176,2.5,3.5,13,-99.99,,,0.00,718,rob ver 1B,2013-03-26 19:13:00,
2013-03-26 12:14:00,80.9,27.4,29.38,SSE,149,2.5,5.2,14,-99.99,,,0.00,738,rob ver 1B,2013-03-26 19:14:00,
2013-03-26 12:15:00,81.1,26.8,29.38,South,191,4.9,7.1,12,-99.99,,,0.00,670.7,rob ver 1B,2013-03-26 19:15:00,
2013-03-26 12:16:00,81.5,25.7,29.38,SSW,193,7.4,10.6,12,-99.99,,,0.00,631.4,rob ver 1B,2013-03-26 19:16:00,
2013-03-26 12:17:00,81.7,19.9,29.35,SSE,164,5.4,8.0,9,-99.99,,,0.00,898,rob ver 1A,2013-03-26 19:17:00,
2013-03-26 12:18:00,81.5,25.1,29.38,WSW,240,8.0,13.3,12,-99.99,,,0.00,650.4,rob ver 1B,2013-03-26 19:18:00,
2013-03-26 12:19:00,81.5,25.0,29.38,WSW,241,12.0,15.1,12,-99.99,,,0.00,629,rob ver 1B,2013-03-26 19:19:00,
2013-03-26 12:20:00,81.2,24.9,29.38,WSW,237,9.0,13.2,12,-99.99,,,0.00,595.6,rob ver 1B,2013-03-26 19:20:00,
2013-03-26 12:21:00,81.0,24.9,29.38,WSW,240,9.6,14.4,12,-99.99,,,0.00,655.4,rob ver 1B,2013-03-26 19:21:00,
2013-03-26 12:22:00,81.7,19.8,29.35,ESE,120,7.1,10.8,9,-99.99,,,0.00,900,rob ver 1A,2013-03-26 19:22:00,
2013-03-26 12:23:00,81.4,24.6,29.38,WSW,246,10.1,14.2,12,-99.99,,,0.00,617.2,rob ver 1B,2013-03-26 19:23:00,
2013-03-26 12:24:00,81.2,24.7,29.38,WSW,238,10.7,13.6,12,-99.99,,,0.00,613.3,rob ver 1B,2013-03-26 19:24:00,
2013-03-26 12:25:00,81.3,24.6,29.38,WSW,242,11.9,15.7,12,-99.99,,,0.00,619.8,rob ver 1B,2013-03-26 19:25:00,
2013-03-26 12:26:00,81.1,24.6,29.38,WSW,244,8.6,10.8,12,-99.99,,,0.00,655.2,rob ver 1B,2013-03-26 19:26:00,
2013-03-26 12:27:00,82.4,19.6,29.35,ESE,121,5.6,8.1,9,-99.99,,,0.00,903,rob ver 1A,2013-03-26 19:27:00,
2013-03-26 12:28:00,81.4,24.8,29.38,WSW,242,9.6,15.3,12,-99.99,,,0.00,734,rob ver 1B,2013-03-26 19:28:00,
2013-03-26 12:29:00,81.5,24.9,29.38,SSW,213,11.1,14.0,12,-99.99,,,0.00,720,rob ver 1B,2013-03-26 19:29:00,
2013-03-26 12:30:00,81.2,24.8,29.38,SSW,213,7.8,10.5,12,-99.99,,,0.00,704,rob ver 1B,2013-03-26 19:30:00,
2013-03-26 12:31:00,81.5,25.0,29.38,SW,233,11.0,15.5,12,-99.99,,,0.00,657,rob ver 1B,2013-03-26 19:31:00,
2013-03-26 12:32:00,82.0,20.0,29.35,ESE,109,4.7,6.8,9,-99.99,,,0.00,903,rob ver 1A,2013-03-26 19:32:00,
2013-03-26 12:33:00,81.2,24.8,29.38,WSW,247,10.3,14.9,12,-99.99,,,0.00,783,rob ver 1B,2013-03-26 19:33:00,
2013-03-26 12:34:00,81.4,24.7,29.38,WSW,241,11.9,14.6,12,-99.99,,,0.00,746,rob ver 1B,2013-03-26 19:34:00,
2013-03-26 12:35:00,81.3,24.6,29.38,SW,226,9.6,12.8,12,-99.99,,,0.00,891,rob ver 1B,2013-03-26 19:35:00,
2013-03-26 12:36:00,81.3,24.6,29.38,SSW,199,4.6,6.8,12,-99.99,,,0.00,1046,rob ver 1B,2013-03-26 19:36:00,
2013-03-26 12:37:00,82.1,20.0,29.35,SSE,148,3.3,4.7,9,-99.99,,,0.00,902,rob ver 1A,2013-03-26 19:37:00,
2013-03-26 12:38:00,82.2,25.3,29.38,WSW,254,9.4,12.6,12,-99.99,,,0.00,865,rob ver 1B,2013-03-26 19:38:00,
2013-03-26 12:39:00,81.9,25.2,29.38,WSW,249,9.5,12.4,12,-99.99,,,0.00,791,rob ver 1B,2013-03-26 19:39:00,
2013-03-26 12:40:00,82.0,25.2,29.38,SW,234,9.0,11.5,12,-99.99,,,0.00,727,rob ver 1B,2013-03-26 19:40:00,
2013-03-26 12:41:00,81.8,25.0,29.38,WSW,238,10.0,12.1,12,-99.99,,,0.00,682,rob ver 1B,2013-03-26 19:41:00,
2013-03-26 12:42:00,83.0,20.7,29.35,South,186,5.3,8.4,9,-99.99,,,0.00,907,rob ver 1A,2013-03-26 19:42:00,
2013-03-26 12:43:00,81.7,24.8,29.38,WSW,241,9.7,12.6,12,-99.99,,,0.00,696.9,rob ver 1B,2013-03-26 19:43:00,
2013-03-26 12:44:00,81.3,24.8,29.38,SW,227,6.0,7.5,12,-99.99,,,0.00,679.3,rob ver 1B,2013-03-26 19:44:00,
2013-03-26 12:45:00,81.6,25.1,29.38,SSW,205,6.6,9.9,12,-99.99,,,0.00,503.7,rob ver 1B,2013-03-26 19:45:00,
2013-03-26 12:46:00,82.0,25.0,29.38,SSW,213,5.9,7.6,12,-99.99,,,0.00,558.7,rob ver 1B,2013-03-26 19:46:00,
2013-03-26 12:47:00,83.0,19.9,29.35,SSE,155,6.2,8.6,9,-99.99,,,0.00,906,rob ver 1A,2013-03-26 19:47:00,
2013-03-26 12:48:00,82.7,25.2,29.38,SW,220,11.1,13.1,12,-99.99,,,0.00,702,rob ver 1B,2013-03-26 19:48:00,
2013-03-26 12:49:00,82.7,25.1,29.38,SSW,199,12.4,16.6,11,-99.99,,,0.00,823,rob ver 1B,2013-03-26 19:49:00,
2013-03-26 12:50:00,82.8,24.9,29.38,SSW,213,11.5,14.3,11,-99.99,,,0.00,1053,rob ver 1B,2013-03-26 19:50:00,
2013-03-26 12:51:00,82.9,25.1,29.38,SSW,211,11.3,15.5,11,-99.99,,,0.00,1095,rob ver 1B,2013-03-26 19:51:00,
2013-03-26 12:52:00,83.5,20.0,29.35,SE,139,8.0,9.4,9,-99.99,,,0.00,905,rob ver 1A,2013-03-26 19:52:00,
2013-03-26 12:53:00,83.2,25.1,29.38,SW,224,10.3,14.7,11,-99.99,,,0.00,819,rob ver 1B,2013-03-26 19:53:00,
2013-03-26 12:54:00,82.9,24.7,29.38,SW,223,9.7,15.2,11,-99.99,,,0.00,707,rob ver 1B,2013-03-26 19:54:00,
2013-03-26 12:55:00,83.0,24.5,29.38,SSW,193,11.6,15.3,11,-99.99,,,0.00,647.7,rob ver 1B,2013-03-26 19:55:00,
2013-03-26 12:56:00,82.6,24.6,29.38,SW,231,9.0,12.9,11,-99.99,,,0.00,753,rob ver 1B,2013-03-26 19:56:00,
2013-03-26 12:57:00,83.4,20.0,29.35,ESE,118,5.6,9.0,9,-99.99,,,0.00,910,rob ver 1A,2013-03-26 19:57:00,
2013-03-26 12:58:00,82.6,24.5,29.38,SW,228,9.1,11.2,11,-99.99,,,0.00,1003,rob ver 1B,2013-03-26 19:58:00,
2013-03-26 12:59:00,83.0,24.4,29.38,West,270,8.4,11.6,11,-99.99,,,0.00,1040,rob ver 1B,2013-03-26 19:59:00,
2013-03-26 13:00:00,83.0,24.7,29.38,WSW,238,7.1,10.3,11,-99.99,,,0.00,993,rob ver 1B,2013-03-26 20:00:00,
2013-03-26 13:01:00,83.2,24.7,29.38,SSW,206,8.4,12.4,11,-99.99,,,0.00,996,rob ver 1B,2013-03-26 20:01:00,
2013-03-26 13:02:00,83.8,18.0,29.35,South,183,5.5,7.0,8,-99.99,,,0.00,901,rob ver 1A,2013-03-26 20:02:00,
2013-03-26 13:03:00,83.1,25.3,29.38,SSW,200,13.1,19.0,12,-99.99,,,0.00,801,rob ver 1B,2013-03-26 20:03:00,
2013-03-26 13:04:00,83.2,25.3,29.38,South,190,14.5,18.6,12,-99.99,,,0.00,625.9,rob ver 1B,2013-03-26 20:04:00,
2013-03-26 13:05:00,83.2,25.4,29.38,SSW,195,12.9,16.1,12,-99.99,,,0.00,520.7,rob ver 1B,2013-03-26 20:05:00,
2013-03-26 13:06:00,83.1,25.3,29.38,SSW,194,10.5,15.4,12,-99.99,,,0.00,495.8,rob ver 1B,2013-03-26 20:06:00,
2013-03-26 13:07:00,82.9,24.9,29.38,SSW,193,10.6,13.7,11,-99.99,,,0.00,818,rob ver 1B,2013-03-26 20:07:00,
2013-03-26 13:08:00,83.8,17.6,29.35,SSE,148,6.6,10.2,8,-99.99,,,0.00,908,rob ver 1A,2013-03-26 20:08:00,
2013-03-26 13:09:00,82.7,24.9,29.38,SSE,163,8.3,11.5,11,-99.99,,,0.00,563.3,rob ver 1B,2013-03-26 20:09:00,
2013-03-26 13:10:00,82.8,25.1,29.38,South,172,9.2,11.7,11,-99.99,,,0.00,638.5,rob ver 1B,2013-03-26 20:10:00,
2013-03-26 13:11:00,83.2,25.1,29.38,South,182,8.8,11.8,11,-99.99,,,0.00,486,rob ver 1B,2013-03-26 20:11:00,
2013-03-26 13:12:00,82.6,24.7,29.38,South,171,8.4,11.5,12,-99.99,,,0.00,495.1,rob ver 1B,2013-03-26 20:12:00,
2013-03-26 13:13:00,83.9,18.4,29.35,SE,124,8.0,10.1,8,-99.99,,,0.00,905,rob ver 1A,2013-03-26 20:13:00,
2013-03-26 13:14:00,82.2,24.8,29.38,South,177,8.4,11.6,11,-99.99,,,0.00,471.5,rob ver 1B,2013-03-26 20:14:00,
2013-03-26 13:15:00,82.6,23.8,29.38,SW,221,13.1,15.3,11,-99.99,,,0.00,492.5,rob ver 1B,2013-03-26 20:15:00,
2013-03-26 13:16:00,82.3,23.2,29.38,SW,220,11.1,14.0,11,-99.99,,,0.00,525.3,rob ver 1B,2013-03-26 20:16:00,
2013-03-26 13:17:00,82.3,23.0,29.38,SW,232,11.0,13.4,11,-99.99,,,0.00,583,rob ver 1B,2013-03-26 20:17:00,
2013-03-26 13:18:00,83.7,18.2,29.35,South,176,6.0,8.8,8,-99.99,,,0.00,898,rob ver 1A,2013-03-26 20:18:00,
2013-03-26 13:19:00,82.5,23.2,29.38,SW,232,10.8,15.4,10,-99.99,,,0.00,693.9,rob ver 1B,2013-03-26 20:19:00,
2013-03-26 13:20:00,82.6,23.2,29.38,SW,233,7.3,13.4,11,-99.99,,,0.00,670.3,rob ver 1B,2013-03-26 20:20:00,
2013-03-26 13:21:00,82.4,23.8,29.38,SW,227,8.1,14.0,11,-99.99,,,0.00,713,rob ver 1B,2013-03-26 20:21:00,
2013-03-26 13:22:00,82.3,23.7,29.38,SW,222,12.3,14.4,11,-99.99,,,0.00,860,rob ver 1B,2013-03-26 20:22:00,
2013-03-26 13:23:00,84.2,18.1,29.35,SSE,165,5.1,7.6,8,-99.99,,,0.00,902,rob ver 1A,2013-03-26 20:23:00,
2013-03-26 13:24:00,82.3,24.3,29.38,SSW,196,7.2,8.9,11,-99.99,,,0.00,1012,rob ver 1B,2013-03-26 20:24:00,
2013-03-26 13:25:00,82.5,24.5,29.38,SW,231,6.0,8.3,11,-99.99,,,0.00,991,rob ver 1B,2013-03-26 20:25:00,
2013-03-26 13:26:00,82.8,24.7,29.38,WSW,241,5.0,7.1,11,-99.99,,,0.00,678,rob ver 1B,2013-03-26 20:26:00,
2013-03-26 13:27:00,82.7,24.7,29.35,SW,225,6.9,14.5,11,-99.99,,,0.00,498.2,rob ver 1B,2013-03-26 20:27:00,
2013-03-26 13:28:00,84.6,18.2,29.35,SSE,152,9.0,10.6,8,-99.99,,,0.00,901,rob ver 1A,2013-03-26 20:28:00,
2013-03-26 13:29:00,82.8,24.2,29.38,South,190,10.4,14.5,11,-99.99,,,0.00,521.3,rob ver 1B,2013-03-26 20:29:00,
2013-03-26 13:30:00,82.6,24.2,29.38,SSW,211,8.4,11.8,11,-99.99,,,0.00,440.7,rob ver 1B,2013-03-26 20:30:00,
2013-03-26 13:31:00,82.3,24.4,29.38,SSW,208,5.7,8.5,11,-99.99,,,0.00,436.8,rob ver 1B,2013-03-26 20:31:00,
2013-03-26 13:32:00,82.4,24.5,29.38,South,182,7.6,10.3,11,-99.99,,,0.00,417.8,rob ver 1B,2013-03-26 20:32:00,
2013-03-26 13:33:00,85.1,18.1,29.32,SSE,166,10.6,12.9,8,-99.99,,,0.00,893,rob ver 1A,2013-03-26 20:33:00,
2013-03-26 13:34:00,82.4,23.8,29.35,South,172,11.2,15.0,11,-99.99,,,0.00,446.6,rob ver 1B,2013-03-26 20:34:00,
2013-03-26 13:35:00,82.1,23.8,29.35,South,181,6.4,10.1,11,-99.99,,,0.00,464.3,rob ver 1B,2013-03-26 20:35:00,
2013-03-26 13:36:00,82.7,24.3,29.35,SSW,196,7.8,12.1,11,-99.99,,,0.00,536.9,rob ver 1B,2013-03-26 20:36:00,
2013-03-26 13:37:00,82.9,23.8,29.35,SSW,193,9.4,13.8,11,-99.99,,,0.00,542.6,rob ver 1B,2013-03-26 20:37:00,
2013-03-26 13:38:00,85.6,18.3,29.32,SSW,207,13.5,15.6,8,-99.99,,,0.00,881,rob ver 1A,2013-03-26 20:38:00,
2013-03-26 13:39:00,83.2,23.6,29.38,WSW,252,10.8,13.4,11,-99.99,,,0.00,575.7,rob ver 1B,2013-03-26 20:39:00,
2013-03-26 13:40:00,82.7,23.5,29.35,WSW,248,7.4,9.3,11,-99.99,,,0.00,505.4,rob ver 1B,2013-03-26 20:40:00,
2013-03-26 13:41:00,82.6,23.4,29.35,SSW,203,10.2,13.9,11,-99.99,,,0.00,490.5,rob ver 1B,2013-03-26 20:41:00,
2013-03-26 13:42:00,83.1,23.6,29.35,SW,223,12.3,21.1,11,-99.99,,,0.00,518.1,rob ver 1B,2013-03-26 20:42:00,
2013-03-26 13:43:00,85.6,18.2,29.32,South,189,8.6,11.0,8,-99.99,,,0.00,886,rob ver 1A,2013-03-26 20:43:00,
2013-03-26 13:44:00,82.9,23.2,29.35,WSW,237,9.4,12.0,11,-99.99,,,0.00,793,rob ver 1B,2013-03-26 20:44:00,
2013-03-26 13:45:00,83.2,23.2,29.35,SW,227,8.6,13.2,10,-99.99,,,0.00,824,rob ver 1B,2013-03-26 20:45:00,
2013-03-26 13:46:00,83.4,23.1,29.35,SW,227,7.9,13.1,10,-99.99,,,0.00,920,rob ver 1B,2013-03-26 20:46:00,
2013-03-26 13:47:00,83.8,22.8,29.35,SSW,208,11.9,17.1,10,-99.99,,,0.00,937,rob ver 1B,2013-03-26 20:47:00,
2013-03-26 13:48:00,85.9,18.4,29.32,SSW,200,12.0,13.8,8,-99.99,,,0.00,889,rob ver 1A,2013-03-26 20:48:00,
2013-03-26 13:49:00,84.0,21.4,29.35,SSW,195,10.3,13.5,9,-99.99,,,0.00,988,rob ver 1B,2013-03-26 20:49:00,
2013-03-26 13:50:00,83.8,21.6,29.35,SSW,197,8.2,10.7,10,-99.99,,,0.00,951,rob ver 1B,2013-03-26 20:50:00,
2013-03-26 13:51:00,83.9,21.6,29.35,SW,218,9.7,12.0,9,-99.99,,,0.00,961,rob ver 1B,2013-03-26 20:51:00,
2013-03-26 13:52:00,84.0,21.7,29.35,SSW,211,8.7,12.5,9,-99.99,,,0.00,881,rob ver 1B,2013-03-26 20:52:00,
2013-03-26 13:53:00,86.2,18.7,29.32,South,182,10.2,13.2,8,-99.99,,,0.00,869,rob ver 1A,2013-03-26 20:53:00,
2013-03-26 13:54:00,83.9,21.0,29.35,SW,215,8.3,10.5,9,-99.99,,,0.00,859,rob ver 1B,2013-03-26 20:54:00,
2013-03-26 13:55:00,83.5,20.8,29.35,SSW,199,7.3,11.5,9,-99.99,,,0.00,839,rob ver 1B,2013-03-26 20:55:00,
2013-03-26 13:56:00,83.4,21.0,29.35,SSW,199,6.7,11.1,10,-99.99,,,0.00,834,rob ver 1B,2013-03-26 20:56:00,
2013-03-26 13:57:00,83.6,21.7,29.35,SSW,195,9.6,15.4,10,-99.99,,,0.00,841,rob ver 1B,2013-03-26 20:57:00,
2013-03-26 13:58:00,85.6,18.4,29.32,SSE,155,4.5,6.7,8,-99.99,,,0.00,866,rob ver 1A,2013-03-26 20:58:00,
2013-03-26 13:59:00,83.3,21.7,29.35,SSW,208,5.8,8.8,10,-99.99,,,0.00,883,rob ver 1B,2013-03-26 20:59:00,
2013-03-26 14:00:00,83.4,21.8,29.35,SW,234,4.2,6.0,10,-99.99,,,0.00,853,rob ver 1B,2013-03-26 21:00:00,
2013-03-26 14:01:00,83.6,21.9,29.35,SW,221,4.8,7.4,10,-99.99,,,0.00,860,rob ver 1B,2013-03-26 21:01:00,
2013-03-26 14:02:00,83.6,21.7,29.35,SW,232,6.5,11.2,10,-99.99,,,0.00,864,rob ver 1B,2013-03-26 21:02:00,
2013-03-26 14:03:00,83.6,21.8,29.35,SW,233,6.1,8.1,10,-99.99,,,0.00,869,rob ver 1B,2013-03-26 21:03:00,
2013-03-26 14:04:00,86.2,18.4,29.32,SSE,165,14.1,16.6,8,-99.99,,,0.00,841,rob ver 1A,2013-03-26 21:04:00,
2013-03-26 14:05:00,83.8,21.7,29.35,South,180,7.7,10.9,10,-99.99,,,0.00,876,rob ver 1B,2013-03-26 21:05:00,
2013-03-26 14:06:00,84.2,21.5,29.35,SSW,200,11.7,15.0,9,-99.99,,,0.00,850,rob ver 1B,2013-03-26 21:06:00,
2013-03-26 14:07:00,84.0,21.6,29.35,SSW,201,6.7,9.8,10,-99.99,,,0.00,860,rob ver 1B,2013-03-26 21:07:00,
2013-03-26 14:08:00,84.1,21.9,29.35,South,178,9.1,13.2,9,-99.99,,,0.00,836,rob ver 1B,2013-03-26 21:08:00,
2013-03-26 14:09:00,86.0,18.5,29.32,South,169,13.1,15.5,8,-99.99,,,0.00,857,rob ver 1A,2013-03-26 21:09:00,
2013-03-26 14:10:00,84.2,22.3,29.35,South,175,10.5,15.1,10,-99.99,,,0.00,863,rob ver 1B,2013-03-26 21:10:00,
2013-03-26 14:11:00,84.2,22.4,29.35,South,187,7.5,9.8,10,-99.99,,,0.00,797,rob ver 1B,2013-03-26 21:11:00,
2013-03-26 14:12:00,84.3,22.4,29.35,SW,216,6.9,9.9,10,-99.99,,,0.00,850,rob ver 1B,2013-03-26 21:12:00,
2013-03-26 14:13:00,84.2,22.5,29.35,SSW,203,4.6,8.1,10,-99.99,,,0.00,846,rob ver 1B,2013-03-26 21:13:00,
2013-03-26 14:14:00,86.3,19.0,29.32,SSE,158,11.9,17.3,8,-99.99,,,0.00,822,rob ver 1A,2013-03-26 21:14:00,
2013-03-26 14:15:00,85.1,22.3,29.35,SSW,199,13.7,18.4,9,-99.99,,,0.00,802,rob ver 1B,2013-03-26 21:15:00,
2013-03-26 14:16:00,84.8,21.7,29.35,SW,219,11.7,16.2,9,-99.99,,,0.00,732,rob ver 1B,2013-03-26 21:16:00,
2013-03-26 14:17:00,84.3,21.8,29.35,SW,221,11.0,14.2,10,-99.99,,,0.00,682.2,rob ver 1B,2013-03-26 21:17:00,
2013-03-26 14:18:00,84.1,22.1,29.35,WSW,241,6.8,9.8,10,-99.99,,,0.00,686.6,rob ver 1B,2013-03-26 21:18:00,
2013-03-26 14:19:00,86.3,19.1,29.32,SSW,199,9.7,14.8,8,-99.99,,,0.00,795,rob ver 1A,2013-03-26 21:19:00,
2013-03-26 14:20:00,83.9,22.8,29.35,South,179,7.9,11.9,10,-99.99,,,0.00,723,rob ver 1B,2013-03-26 21:20:00,
2013-03-26 14:21:00,83.7,22.8,29.35,South,171,10.2,13.6,10,-99.99,,,0.00,706,rob ver 1B,2013-03-26 21:21:00,
2013-03-26 14:22:00,83.9,23.9,29.35,SSE,167,11.9,14.2,11,-99.99,,,0.00,700,rob ver 1B,2013-03-26 21:22:00,
2013-03-26 14:23:00,83.9,24.2,29.35,South,171,11.8,14.0,11,-99.99,,,0.00,728,rob ver 1B,2013-03-26 21:23:00,
2013-03-26 14:24:00,85.8,19.0,29.32,South,181,10.8,15.6,8,-99.99,,,0.00,764,rob ver 1A,2013-03-26 21:24:00,
2013-03-26 14:25:00,84.4,24.1,29.35,SSW,192,14.6,19.0,11,-99.99,,,0.00,767,rob ver 1B,2013-03-26 21:25:00,
2013-03-26 14:26:00,84.5,24.2,29.35,SSW,210,11.0,14.9,10,-99.99,,,0.00,694,rob ver 1B,2013-03-26 21:26:00,
2013-03-26 14:27:00,84.8,24.2,29.35,SSW,199,14.4,19.5,10,-99.99,,,0.00,630.1,rob ver 1B,2013-03-26 21:27:00,
2013-03-26 14:28:00,84.6,23.7,29.35,SSW,209,13.5,17.2,10,-99.99,,,0.00,660.3,rob ver 1B,2013-03-26 21:28:00,
2013-03-26 14:29:00,86.6,19.3,29.32,SSE,147,11.0,14.2,8,-99.99,,,0.00,727,rob ver 1A,2013-03-26 21:29:00,
2013-03-26 14:30:00,84.1,23.9,29.35,SSW,207,6.6,14.8,11,-99.99,,,0.00,433.5,rob ver 1B,2013-03-26 21:30:00,
2013-03-26 14:31:00,84.0,23.9,29.35,SW,216,6.8,10.4,10,-99.99,,,0.00,579,rob ver 1B,2013-03-26 21:31:00,
2013-03-26 14:32:00,83.9,23.9,29.35,SW,224,6.1,8.9,11,-99.99,,,0.00,404.7,rob ver 1B,2013-03-26 21:32:00,
2013-03-26 14:33:00,83.8,24.1,29.35,South,190,10.1,17.9,11,-99.99,,,0.00,465.1,rob ver 1B,2013-03-26 21:33:00,
2013-03-26 14:34:00,85.7,19.3,29.29,SSW,201,7.7,10.4,8,-99.99,,,0.00,775,rob ver 1A,2013-03-26 21:34:00,
2013-03-26 14:35:00,83.8,25.0,29.35,SSW,195,11.7,14.6,11,-99.99,,,0.00,573.7,rob ver 1B,2013-03-26 21:35:00,
2013-03-26 14:36:00,84.1,25.5,29.35,SSW,197,12.7,16.0,11,-99.99,,,0.00,577.7,rob ver 1B,2013-03-26 21:36:00,
2013-03-26 14:37:00,84.3,25.6,29.35,SSW,211,14.5,17.7,11,-99.99,,,0.00,739,rob ver 1B,2013-03-26 21:37:00,
2013-03-26 14:38:00,84.3,25.7,29.35,SW,218,14.4,17.9,11,-99.99,,,0.00,674.7,rob ver 1B,2013-03-26 21:38:00,
2013-03-26 14:39:00,86.5,20.2,29.29,SSE,166,15.9,20.8,8,-99.99,,,0.00,780,rob ver 1A,2013-03-26 21:39:00,
2013-03-26 14:40:00,84.7,26.4,29.35,SSW,204,11.5,17.8,11,-99.99,,,0.00,921,rob ver 1B,2013-03-26 21:40:00,
2013-03-26 14:41:00,84.7,26.3,29.35,South,189,11.8,14.8,11,-99.99,,,0.00,842,rob ver 1B,2013-03-26 21:41:00,
2013-03-26 14:42:00,84.5,26.1,29.35,South,185,11.0,13.6,11,-99.99,,,0.00,743,rob ver 1B,2013-03-26 21:42:00,
2013-03-26 14:43:00,84.0,26.0,29.35,South,175,8.7,11.4,12,-99.99,,,0.00,867,rob ver 1B,2013-03-26 21:43:00,
2013-03-26 14:44:00,86.2,20.0,29.29,SE,142,9.6,12.5,8,-99.99,,,0.00,735,rob ver 1A,2013-03-26 21:44:00,
2013-03-26 14:45:00,84.0,26.4,29.35,SSE,158,5.2,7.4,12,-99.99,,,0.00,840,rob ver 1B,2013-03-26 21:45:00,
2013-03-26 14:46:00,84.2,26.1,29.35,SSW,193,7.5,11.5,11,-99.99,,,0.00,825,rob ver 1B,2013-03-26 21:46:00,
2013-03-26 14:47:00,84.5,25.9,29.35,South,178,12.2,16.3,11,-99.99,,,0.00,842,rob ver 1B,2013-03-26 21:47:00,
2013-03-26 14:48:00,84.7,25.7,29.35,SSW,197,12.7,15.5,11,-99.99,,,0.00,840,rob ver 1B,2013-03-26 21:48:00,
2013-03-26 14:49:00,85.0,25.9,29.35,South,191,11.3,15.1,11,-99.99,,,0.00,819,rob ver 1B,2013-03-26 21:49:00,
2013-03-26 14:50:00,88.0,20.8,29.29,SSE,168,15.6,19.6,8,-99.99,,,0.00,739,rob ver 1A,2013-03-26 21:50:00,
2013-03-26 14:51:00,85.0,25.8,29.35,South,176,11.4,14.9,11,-99.99,,,0.00,697.9,rob ver 1B,2013-03-26 21:51:00,
2013-03-26 14:52:00,85.1,26.0,29.35,South,189,12.7,16.1,11,-99.99,,,0.00,783,rob ver 1B,2013-03-26 21:52:00,
2013-03-26 14:53:00,85.5,25.9,29.35,SSW,194,11.6,13.4,11,-99.99,,,0.00,788,rob ver 1B,2013-03-26 21:53:00,
2013-03-26 14:54:00,85.2,25.7,29.35,South,189,9.8,12.8,11,-99.99,,,0.00,793,rob ver 1B,2013-03-26 21:54:00,
2013-03-26 14:55:00,86.8,20.2,29.29,SSE,147,15.2,18.9,8,-99.99,,,0.00,712,rob ver 1A,2013-03-26 21:55:00,
2013-03-26 14:56:00,84.7,25.7,29.35,South,174,6.8,9.1,11,-99.99,,,0.00,790,rob ver 1B,2013-03-26 21:56:00,
2013-03-26 14:57:00,84.4,25.6,29.35,SSE,160,8.5,14.2,11,-99.99,,,0.00,787,rob ver 1B,2013-03-26 21:57:00,
2013-03-26 14:58:00,83.9,25.5,29.35,South,175,5.8,7.6,11,-99.99,,,0.00,783,rob ver 1B,2013-03-26 21:58:00,
2013-03-26 14:59:00,84.3,25.6,29.35,SSW,199,10.4,16.1,11,-99.99,,,0.00,780,rob ver 1B,2013-03-26 21:59:00,
2013-03-26 15:00:00,86.3,20.2,29.29,SSE,152,10.7,13.7,8,-99.99,,,0.00,674.9,rob ver 1A,2013-03-26 22:00:00,
2013-03-26 15:01:00,84.3,25.4,29.35,South,185,6.6,11.6,11,-99.99,,,0.00,777,rob ver 1B,2013-03-26 22:01:00,
2013-03-26 15:02:00,84.2,25.5,29.35,WSW,256,4.7,11.5,11,-99.99,,,0.00,774,rob ver 1B,2013-03-26 22:02:00,
2013-03-26 15:03:00,84.9,25.3,29.35,West,260,12.5,16.9,11,-99.99,,,0.00,770,rob ver 1B,2013-03-26 22:03:00,
2013-03-26 15:04:00,85.0,25.1,29.35,SW,228,12.1,14.1,11,-99.99,,,0.00,767,rob ver 1B,2013-03-26 22:04:00,
2013-03-26 15:05:00,87.3,21.0,29.29,SSE,168,14.4,18.8,8,-99.99,,,0.00,740,rob ver 1A,2013-03-26 22:05:00,
2013-03-26 15:06:00,84.8,25.4,29.32,SW,234,11.8,16.9,11,-99.99,,,0.00,766,rob ver 1B,2013-03-26 22:06:00,
2013-03-26 15:07:00,85.4,25.4,29.32,SW,228,11.9,17.9,11,-99.99,,,0.00,764,rob ver 1B,2013-03-26 22:07:00,
2013-03-26 15:08:00,85.2,25.3,29.35,SSW,204,9.9,12.6,11,-99.99,,,0.00,765,rob ver 1B,2013-03-26 22:08:00,
2013-03-26 15:09:00,84.9,25.2,29.35,SW,216,9.0,11.7,11,-99.99,,,0.00,761,rob ver 1B,2013-03-26 22:09:00,
2013-03-26 15:10:00,86.5,20.5,29.29,SSE,161,11.7,16.5,8,-99.99,,,0.00,701,rob ver 1A,2013-03-26 22:10:00,
2013-03-26 15:11:00,85.1,25.0,29.35,SW,235,9.4,12.8,10,-99.99,,,0.00,769,rob ver 1B,2013-03-26 22:11:00,
2013-03-26 15:12:00,85.2,23.0,29.35,SW,215,12.4,16.5,10,-99.99,,,0.00,771,rob ver 1B,2013-03-26 22:12:00,
2013-03-26 15:13:00,84.9,22.9,29.35,SSW,198,12.0,16.4,10,-99.99,,,0.00,785,rob ver 1B,2013-03-26 22:13:00,
2013-03-26 15:14:00,84.6,23.8,29.35,SSW,205,9.0,14.5,10,-99.99,,,0.00,770,rob ver 1B,2013-03-26 22:14:00,
2013-03-26 15:15:00,87.0,21.1,29.29,SSW,203,9.4,11.5,8,-99.99,,,0.00,704,rob ver 1A,2013-03-26 22:15:00,
2013-03-26 15:16:00,84.7,23.6,29.32,SSW,197,11.1,15.1,10,-99.99,,,0.00,742,rob ver 1B,2013-03-26 22:16:00,
2013-03-26 15:17:00,84.6,23.8,29.35,SSW,200,7.2,9.4,10,-99.99,,,0.00,742,rob ver 1B,2013-03-26 22:17:00,
2013-03-26 15:18:00,84.7,23.9,29.35,SSW,197,5.3,10.6,10,-99.99,,,0.00,731,rob ver 1B,2013-03-26 22:18:00,
2013-03-26 15:19:00,84.9,23.9,29.32,SSW,211,13.3,15.8,10,-99.99,,,0.00,724,rob ver 1B,2013-03-26 22:19:00,
2013-03-26 15:20:00,87.2,21.2,29.29,SSW,194,11.9,14.5,8,-99.99,,,0.00,706,rob ver 1A,2013-03-26 22:20:00,
2013-03-26 15:21:00,84.7,23.9,29.35,SSW,198,11.3,18.6,10,-99.99,,,0.00,721,rob ver 1B,2013-03-26 22:21:00,
2013-03-26 15:22:00,84.7,23.7,29.35,SSW,196,11.7,17.5,10,-99.99,,,0.00,719,rob ver 1B,2013-03-26 22:22:00,
2013-03-26 15:23:00,85.2,22.7,29.32,SSW,196,14.8,17.3,10,-99.99,,,0.00,710,rob ver 1B,2013-03-26 22:23:00,
2013-03-26 15:24:00,85.4,23.1,29.32,South,189,14.0,18.5,9,-99.99,,,0.00,612.5,rob ver 1B,2013-03-26 22:24:00,
2013-03-26 15:25:00,85.5,22.2,29.32,South,188,14.5,18.5,9,-99.99,,,0.00,588.4,rob ver 1B,2013-03-26 22:25:00,
2013-03-26 15:26:00,86.8,21.1,29.29,SSE,167,11.8,14.0,8,-99.99,,,0.00,692.4,rob ver 1A,2013-03-26 22:26:00,
2013-03-26 15:27:00,85.1,20.5,29.32,SSW,196,11.1,15.6,8,-99.99,,,0.00,609.9,rob ver 1B,2013-03-26 22:27:00,
2013-03-26 15:28:00,84.7,19.9,29.35,SSW,204,8.0,9.7,9,-99.99,,,0.00,645.3,rob ver 1B,2013-03-26 22:28:00,
2013-03-26 15:29:00,84.7,22.2,29.35,SSW,200,11.9,18.3,10,-99.99,,,0.00,610.2,rob ver 1B,2013-03-26 22:29:00,
2013-03-26 15:30:00,85.3,22.2,29.35,SSW,212,13.1,15.0,9,-99.99,,,0.00,644.4,rob ver 1B,2013-03-26 22:30:00,
2013-03-26 15:31:00,87.3,21.1,29.29,SSE,150,11.7,15.6,8,-99.99,,,0.00,631.8,rob ver 1A,2013-03-26 22:31:00,
2013-03-26 15:32:00,84.7,23.3,29.35,SW,222,10.3,13.8,10,-99.99,,,0.00,678.5,rob ver 1B,2013-03-26 22:32:00,
2013-03-26 15:33:00,84.8,23.2,29.32,SW,216,8.8,11.1,9,-99.99,,,0.00,697.2,rob ver 1B,2013-03-26 22:33:00,
2013-03-26 15:34:00,84.9,20.6,29.32,SW,231,10.0,12.6,9,-99.99,,,0.00,690,rob ver 1B,2013-03-26 22:34:00,
2013-03-26 15:35:00,84.9,22.4,29.32,SW,228,10.4,14.1,10,-99.99,,,0.00,695.2,rob ver 1B,2013-03-26 22:35:00,
2013-03-26 15:36:00,87.4,21.6,29.29,SSE,162,13.1,15.0,8,-99.99,,,0.00,635.8,rob ver 1A,2013-03-26 22:36:00,
2013-03-26 15:37:00,84.7,22.0,29.35,SW,230,8.8,12.5,9,-99.99,,,0.00,681.9,rob ver 1B,2013-03-26 22:37:00,
2013-03-26 15:38:00,84.7,22.5,29.35,SSW,203,9.1,16.3,10,-99.99,,,0.00,676.5,rob ver 1B,2013-03-26 22:38:00,
2013-03-26 15:39:00,85.0,23.2,29.35,SSW,206,9.1,17.5,10,-99.99,,,0.00,670.3,rob ver 1B,2013-03-26 22:39:00,
2013-03-26 15:40:00,85.4,23.5,29.32,SSW,212,13.1,16.4,10,-99.99,,,0.00,665.9,rob ver 1B,2013-03-26 22:40:00,
2013-03-26 15:41:00,88.3,22.0,29.29,SSE,154,12.3,16.7,8,-99.99,,,0.00,633.5,rob ver 1A,2013-03-26 22:41:00,
2013-03-26 15:42:00,85.3,24.4,29.32,SSW,212,13.9,17.7,10,-99.99,,,0.00,654.1,rob ver 1B,2013-03-26 22:42:00,
2013-03-26 15:43:00,85.5,25.2,29.32,SSW,198,12.6,14.7,11,-99.99,,,0.00,648.8,rob ver 1B,2013-03-26 22:43:00,
2013-03-26 15:44:00,85.3,25.3,29.32,South,191,12.4,15.4,11,-99.99,,,0.00,644.4,rob ver 1B,2013-03-26 22:44:00,
2013-03-26 15:45:00,84.9,24.1,29.32,South,186,14.0,18.7,10,-99.99,,,0.00,639.8,rob ver 1B,2013-03-26 22:45:00,
2013-03-26 15:46:00,87.3,21.7,29.26,South,175,11.2,13.8,8,-99.99,,,0.00,645.5,rob ver 1A,2013-03-26 22:46:00,
2013-03-26 15:47:00,84.2,24.5,29.35,South,181,8.3,10.7,11,-99.99,,,0.00,629.5,rob ver 1B,2013-03-26 22:47:00,
2013-03-26 15:48:00,84.4,25.1,29.32,SSW,197,11.1,14.1,11,-99.99,,,0.00,628.7,rob ver 1B,2013-03-26 22:48:00,
2013-03-26 15:49:00,84.8,25.1,29.32,SSW,211,11.9,14.3,11,-99.99,,,0.00,623,rob ver 1B,2013-03-26 22:49:00,
2013-03-26 15:50:00,84.6,25.1,29.32,SSW,208,8.3,11.8,11,-99.99,,,0.00,622,rob ver 1B,2013-03-26 22:50:00,
2013-03-26 15:51:00,87.0,22.0,29.26,SSE,157,5.7,7.9,9,-99.99,,,0.00,624.5,rob ver 1A,2013-03-26 22:51:00,
2013-03-26 15:52:00,84.7,25.3,29.32,SW,223,6.9,10.0,11,-99.99,,,0.00,611.8,rob ver 1B,2013-03-26 22:52:00,
2013-03-26 15:53:00,84.8,25.3,29.32,SW,228,8.5,10.6,11,-99.99,,,0.00,611.8,rob ver 1B,2013-03-26 22:53:00,
2013-03-26 15:54:00,85.0,25.4,29.32,SW,215,8.1,12.0,11,-99.99,,,0.00,608.2,rob ver 1B,2013-03-26 22:54:00,
2013-03-26 15:55:00,85.1,25.5,29.32,SSW,198,9.7,12.1,11,-99.99,,,0.00,603.6,rob ver 1B,2013-03-26 22:55:00,
2013-03-26 15:56:00,89.0,22.2,29.26,South,175,14.9,20.8,8,-99.99,,,0.00,580.6,rob ver 1A,2013-03-26 22:56:00,
2013-03-26 15:57:00,85.6,25.5,29.32,SW,230,15.9,20.3,11,-99.99,,,0.00,597.9,rob ver 1B,2013-03-26 22:57:00,
2013-03-26 15:58:00,85.7,25.3,29.32,SW,232,13.8,17.4,11,-99.99,,,0.00,592.6,rob ver 1B,2013-03-26 22:58:00,
2013-03-26 15:59:00,85.2,25.2,29.32,SW,223,11.9,14.5,10,-99.99,,,0.00,591.2,rob ver 1B,2013-03-26 22:59:00,
2013-03-26 16:00:00,85.1,24.7,29.32,WSW,237,12.5,16.6,11,-99.99,,,0.00,589.2,rob ver 1B,2013-03-26 23:00:00,
2013-03-26 16:01:00,84.8,24.7,29.32,WSW,239,11.7,15.9,11,-99.99,,,0.00,580.2,rob ver 1B,2013-03-26 23:01:00,
2013-03-26 16:02:00,87.3,21.9,29.26,SSE,153,12.8,18.4,9,-99.99,,,0.00,584.2,rob ver 1A,2013-03-26 23:02:00,
2013-03-26 16:03:00,85.0,24.5,29.32,WSW,254,8.4,11.0,11,-99.99,,,0.00,572,rob ver 1B,2013-03-26 23:03:00,
2013-03-26 16:04:00,84.9,24.8,29.32,West,278,7.1,9.8,11,-99.99,,,0.00,567.1,rob ver 1B,2013-03-26 23:04:00,
2013-03-26 16:05:00,84.9,25.0,29.32,WNW,284,6.7,9.5,11,-99.99,,,0.00,574,rob ver 1B,2013-03-26 23:05:00,
2013-03-26 16:06:00,84.8,25.0,29.32,West,273,5.7,7.3,11,-99.99,,,0.00,388.9,rob ver 1B,2013-03-26 23:06:00,
2013-03-26 16:07:00,87.1,22.3,29.26,SSE,159,11.4,13.8,9,-99.99,,,0.00,562.3,rob ver 1A,2013-03-26 23:07:00,
2013-03-26 16:08:00,84.6,24.9,29.32,WSW,248,7.3,13.4,11,-99.99,,,0.00,570.9,rob ver 1B,2013-03-26 23:08:00,
2013-03-26 16:09:00,85.0,24.8,29.32,WSW,245,9.4,13.0,11,-99.99,,,0.00,569.7,rob ver 1B,2013-03-26 23:09:00,
2013-03-26 16:10:00,85.2,25.2,29.32,WSW,246,12.2,16.1,11,-99.99,,,0.00,555.6,rob ver 1B,2013-03-26 23:10:00,
2013-03-26 16:11:00,85.4,25.2,29.32,WSW,240,12.0,14.4,11,-99.99,,,0.00,558.1,rob ver 1B,2013-03-26 23:11:00,
2013-03-26 16:12:00,88.5,22.9,29.26,South,182,13.7,17.2,9,-99.99,,,0.00,555.6,rob ver 1A,2013-03-26 23:12:00,
2013-03-26 16:13:00,84.9,25.0,29.32,SSW,209,10.8,12.9,11,-99.99,,,0.00,544.3,rob ver 1B,2013-03-26 23:13:00,
2013-03-26 16:14:00,84.9,24.9,29.32,SSW,210,9.6,11.8,11,-99.99,,,0.00,314.8,rob ver 1B,2013-03-26 23:14:00,
2013-03-26 16:15:00,84.8,25.0,29.32,SW,225,8.0,10.8,11,-99.99,,,0.00,275.9,rob ver 1B,2013-03-26 23:15:00,
2013-03-26 16:16:00,84.6,24.9,29.32,WSW,244,9.2,13.9,11,-99.99,,,0.00,434.7,rob ver 1B,2013-03-26 23:16:00,
2013-03-26 16:17:00,87.7,22.9,29.26,South,170,12.8,15.4,9,-99.99,,,0.00,536.4,rob ver 1A,2013-03-26 23:17:00,
2013-03-26 16:18:00,84.6,25.4,29.32,WSW,237,16.2,19.4,11,-99.99,,,0.00,509.4,rob ver 1B,2013-03-26 23:18:00,
2013-03-26 16:19:00,84.4,25.3,29.32,SW,231,14.5,17.5,11,-99.99,,,0.00,415.4,rob ver 1B,2013-03-26 23:19:00,
2013-03-26 16:20:00,84.4,25.5,29.32,SW,224,12.6,15.1,11,-99.99,,,0.00,437.8,rob ver 1B,2013-03-26 23:20:00,
2013-03-26 16:21:00,84.4,25.5,29.32,SW,233,13.8,16.7,11,-99.99,,,0.00,445.1,rob ver 1B,2013-03-26 23:21:00,
2013-03-26 16:22:00,87.5,24.1,29.26,South,191,12.2,17.0,9,-99.99,,,0.00,522.6,rob ver 1A,2013-03-26 23:22:00,
2013-03-26 16:23:00,84.5,25.5,29.32,SW,228,11.1,14.6,11,-99.99,,,0.00,511.2,rob ver 1B,2013-03-26 23:23:00,
2013-03-26 16:24:00,84.4,25.4,29.32,WSW,242,8.8,10.3,11,-99.99,,,0.00,507.5,rob ver 1B,2013-03-26 23:24:00,
2013-03-26 16:25:00,84.3,25.3,29.32,SW,223,8.7,13.0,11,-99.99,,,0.00,500.1,rob ver 1B,2013-03-26 23:25:00,
2013-03-26 16:26:00,84.3,25.4,29.32,SSW,198,9.3,11.3,11,-99.99,,,0.00,488.3,rob ver 1B,2013-03-26 23:26:00,
2013-03-26 16:27:00,88.1,24.9,29.26,South,172,9.8,14.9,9,-99.99,,,0.00,493,rob ver 1A,2013-03-26 23:27:00,
2013-03-26 16:28:00,84.7,26.0,29.32,SW,215,12.2,14.5,11,-99.99,,,0.00,493.7,rob ver 1B,2013-03-26 23:28:00,
2013-03-26 16:29:00,84.9,25.8,29.32,SW,222,11.5,15.2,11,-99.99,,,0.00,541.2,rob ver 1B,2013-03-26 23:29:00,
2013-03-26 16:30:00,84.8,25.9,29.32,SW,217,9.2,11.3,11,-99.99,,,0.00,532.4,rob ver 1B,2013-03-26 23:30:00,
2013-03-26 16:31:00,85.0,25.8,29.32,SSW,211,11.9,15.6,11,-99.99,,,0.00,519.4,rob ver 1B,2013-03-26 23:31:00,
2013-03-26 16:32:00,85.0,25.7,29.32,SSW,213,11.9,14.2,11,-99.99,,,0.00,509.1,rob ver 1B,2013-03-26 23:32:00,
2013-03-26 16:33:00,87.2,24.8,29.26,SSE,157,10.9,14.7,10,-99.99,,,0.00,277.4,rob ver 1A,2013-03-26 23:33:00,
2013-03-26 16:34:00,84.6,25.7,29.32,SW,219,7.4,10.1,11,-99.99,,,0.00,497,rob ver 1B,2013-03-26 23:34:00,
2013-03-26 16:35:00,84.5,26.1,29.32,SW,229,7.8,10.3,11,-99.99,,,0.00,493,rob ver 1B,2013-03-26 23:35:00,
2013-03-26 16:36:00,84.3,26.0,29.32,WSW,243,5.7,8.2,11,-99.99,,,0.00,491.9,rob ver 1B,2013-03-26 23:36:00,
2013-03-26 16:37:00,84.4,26.1,29.32,SW,226,3.3,5.6,11,-99.99,,,0.00,487.3,rob ver 1B,2013-03-26 23:37:00,
2013-03-26 16:38:00,86.9,25.7,29.26,South,175,12.8,16.2,10,-99.99,,,0.00,430.7,rob ver 1A,2013-03-26 23:38:00,
2013-03-26 16:39:00,84.6,25.8,29.32,South,187,6.9,8.8,11,-99.99,,,0.00,479.9,rob ver 1B,2013-03-26 23:39:00,
2013-03-26 16:40:00,84.7,26.0,29.32,SSW,193,3.5,6.5,11,-99.99,,,0.00,470.8,rob ver 1B,2013-03-26 23:40:00,
2013-03-26 16:41:00,84.9,27.4,29.32,SSW,197,8.8,11.8,13,-99.99,,,0.00,468.8,rob ver 1B,2013-03-26 23:41:00,
2013-03-26 16:42:00,85.0,28.8,29.32,SSW,200,12.2,16.8,13,-99.99,,,0.00,465.4,rob ver 1B,2013-03-26 23:42:00,
2013-03-26 16:43:00,86.8,25.8,29.26,South,169,9.6,11.1,10,-99.99,,,0.00,485.8,rob ver 1A,2013-03-26 23:43:00,
2013-03-26 16:44:00,84.6,28.6,29.32,South,172,11.4,14.2,13,-99.99,,,0.00,463.1,rob ver 1B,2013-03-26 23:44:00,
2013-03-26 16:45:00,84.4,28.7,29.32,SSE,157,10.4,12.2,13,-99.99,,,0.00,464.2,rob ver 1B,2013-03-26 23:45:00,
2013-03-26 16:46:00,84.3,28.8,29.32,SSE,154,9.8,13.1,13,-99.99,,,0.00,432.8,rob ver 1B,2013-03-26 23:46:00,
2013-03-26 16:47:00,84.3,28.9,29.32,SSE,154,6.2,8.7,13,-99.99,,,0.00,421.7,rob ver 1B,2013-03-26 23:47:00,
2013-03-26 16:48:00,87.5,26.6,29.26,South,189,12.0,16.0,10,-99.99,,,0.00,440.9,rob ver 1A,2013-03-26 23:48:00,
2013-03-26 16:49:00,84.6,29.0,29.32,South,189,8.3,13.6,13,-99.99,,,0.00,422.2,rob ver 1B,2013-03-26 23:49:00,
2013-03-26 16:50:00,85.0,28.9,29.32,South,182,12.7,15.6,12,-99.99,,,0.00,437.4,rob ver 1B,2013-03-26 23:50:00,
2013-03-26 16:51:00,84.9,28.5,29.32,South,177,11.7,14.2,13,-99.99,,,0.00,425.6,rob ver 1B,2013-03-26 23:51:00,
2013-03-26 16:52:00,84.4,28.4,29.32,South,176,9.4,13.4,13,-99.99,,,0.00,422.5,rob ver 1B,2013-03-26 23:52:00,
2013-03-26 16:53:00,88.0,26.7,29.26,SSW,198,10.2,13.6,10,-99.99,,,0.00,437,rob ver 1A,2013-03-26 23:53:00,
2013-03-26 16:54:00,84.5,28.5,29.32,South,169,10.2,12.7,13,-99.99,,,0.00,408.1,rob ver 1B,2013-03-26 23:54:00,
2013-03-26 16:55:00,84.4,28.5,29.32,South,178,9.9,13.1,13,-99.99,,,0.00,406.3,rob ver 1B,2013-03-26 23:55:00,
2013-03-26 16:56:00,84.5,28.9,29.32,South,179,11.7,13.6,13,-99.99,,,0.00,405.9,rob ver 1B,2013-03-26 23:56:00,
2013-03-26 16:57:00,84.5,29.0,29.32,South,171,12.0,14.6,13,-99.99,,,0.00,411.2,rob ver 1B,2013-03-26 23:57:00,
2013-03-26 16:58:00,88.1,27.0,29.26,South,189,9.5,14.7,10,-99.99,,,0.00,407.5,rob ver 1A,2013-03-26 23:58:00,
2013-03-26 16:59:00,85.0,29.3,29.32,South,181,13.6,18.1,13,-99.99,,,0.00,405.1,rob ver 1B,2013-03-26 23:59:00,
2013-03-26 17:00:00,84.9,29.2,29.32,South,180,12.6,15.9,13,-99.99,,,0.00,396.5,rob ver 1B,2013-03-27 00:00:00,
2013-03-26 17:01:00,84.6,29.3,29.32,South,175,11.8,14.8,13,-99.99,,,0.00,371.4,rob ver 1B,2013-03-27 00:01:00,
2013-03-26 17:02:00,84.5,29.3,29.32,South,173,13.6,17.0,13,-99.99,,,0.00,379.9,rob ver 1B,2013-03-27 00:02:00,
2013-03-26 17:03:00,87.3,27.3,29.26,South,184,9.8,11.6,11,-99.99,,,0.00,318.9,rob ver 1A,2013-03-27 00:03:00,
2013-03-26 17:04:00,84.4,29.3,29.32,South,182,9.4,14.4,13,-99.99,,,0.00,381.4,rob ver 1B,2013-03-27 00:04:00,
2013-03-26 17:05:00,84.1,29.2,29.32,South,171,6.6,8.6,13,-99.99,,,0.00,362.5,rob ver 1B,2013-03-27 00:05:00,
2013-03-26 17:06:00,84.4,29.4,29.32,South,172,11.0,14.6,13,-99.99,,,0.00,329.5,rob ver 1B,2013-03-27 00:06:00,
2013-03-26 17:07:00,84.6,29.4,29.32,South,170,11.0,14.0,13,-99.99,,,0.00,304.2,rob ver 1B,2013-03-27 00:07:00,
2013-03-26 17:08:00,87.3,26.7,29.26,SSW,198,12.1,15.4,10,-99.99,,,0.00,359.3,rob ver 1A,2013-03-27 00:08:00,
2013-03-26 17:09:00,84.1,28.9,29.32,SSE,166,11.9,14.4,13,-99.99,,,0.00,276.9,rob ver 1B,2013-03-27 00:09:00,
2013-03-26 17:10:00,83.9,28.8,29.32,SSE,160,9.2,11.7,13,-99.99,,,0.00,292.6,rob ver 1B,2013-03-27 00:10:00,
2013-03-26 17:11:00,83.8,28.9,29.32,SSE,168,9.4,11.4,13,-99.99,,,0.00,309.3,rob ver 1B,2013-03-27 00:11:00,
2013-03-26 17:12:00,84.1,28.6,29.32,South,176,9.8,12.1,13,-99.99,,,0.00,291.9,rob ver 1B,2013-03-27 00:12:00,
2013-03-26 17:13:00,84.1,28.7,29.32,South,169,8.2,10.6,13,-99.99,,,0.00,287.4,rob ver 1B,2013-03-27 00:13:00,
2013-03-26 17:14:00,87.4,24.3,29.26,South,178,11.4,14.4,9,-99.99,,,0.00,286.5,rob ver 1A,2013-03-27 00:14:00,
2013-03-26 17:15:00,84.0,28.4,29.32,South,174,9.9,12.7,13,-99.99,,,0.00,291.3,rob ver 1B,2013-03-27 00:15:00,
2013-03-26 17:16:00,83.8,28.5,29.32,SSW,192,7.8,10.6,13,-99.99,,,0.00,293.9,rob ver 1B,2013-03-27 00:16:00,
2013-03-26 17:17:00,83.8,29.0,29.32,SSW,208,7.0,9.6,13,-99.99,,,0.00,310.3,rob ver 1B,2013-03-27 00:17:00,
2013-03-26 17:18:00,83.9,28.8,29.32,South,174,9.2,11.8,13,-99.99,,,0.00,304.4,rob ver 1B,2013-03-27 00:18:00,
2013-03-26 17:19:00,86.5,26.2,29.26,SSW,198,12.9,16.7,11,-99.99,,,0.00,210,rob ver 1A,2013-03-27 00:19:00,
2013-03-26 17:20:00,84.0,28.8,29.32,SSE,161,4.3,9.4,13,-99.99,,,0.00,262,rob ver 1B,2013-03-27 00:20:00,
2013-03-26 17:21:00,83.9,28.5,29.35,SSE,150,5.5,7.4,13,-99.99,,,0.00,250,rob ver 1B,2013-03-27 00:21:00,
2013-03-26 17:22:00,83.6,28.5,29.32,SSE,157,6.7,9.1,13,-99.99,,,0.00,243.1,rob ver 1B,2013-03-27 00:22:00,
2013-03-26 17:23:00,83.6,28.7,29.32,SSE,162,8.2,10.0,13,-99.99,,,0.00,243,rob ver 1B,2013-03-27 00:23:00,
2013-03-26 17:24:00,86.3,25.7,29.26,South,187,6.8,8.5,11,-99.99,,,0.00,108.8,rob ver 1A,2013-03-27 00:24:00,
2013-03-26 17:25:00,83.6,28.9,29.32,SSW,193,5.4,7.9,13,-99.99,,,0.00,304.6,rob ver 1B,2013-03-27 00:25:00,
2013-03-26 17:26:00,83.7,28.9,29.32,SW,221,6.9,9.1,13,-99.99,,,0.00,301.4,rob ver 1B,2013-03-27 00:26:00,
2013-03-26 17:27:00,83.7,28.7,29.32,South,188,3.0,5.8,13,-99.99,,,0.00,296.5,rob ver 1B,2013-03-27 00:27:00,
2013-03-26 17:28:00,83.8,28.8,29.32,SSW,192,3.8,5.4,13,-99.99,,,0.00,271.8,rob ver 1B,2013-03-27 00:28:00,
2013-03-26 17:29:00,86.5,24.9,29.26,SSW,205,11.8,14.7,10,-99.99,,,0.00,262.6,rob ver 1A,2013-03-27 00:29:00,
2013-03-26 17:30:00,84.3,27.7,29.32,SW,227,11.6,14.2,12,-99.99,,,0.00,195,rob ver 1B,2013-03-27 00:30:00,
2013-03-26 17:31:00,84.1,27.6,29.32,SW,223,9.7,12.6,12,-99.99,,,0.00,244.3,rob ver 1B,2013-03-27 00:31:00,
2013-03-26 17:32:00,83.8,27.7,29.32,SW,227,6.8,10.2,13,-99.99,,,0.00,80.9,rob ver 1B,2013-03-27 00:32:00,
2013-03-26 17:33:00,83.8,28.2,29.32,SSW,192,8.1,11.0,13,-99.99,,,0.00,67.83,rob ver 1B,2013-03-27 00:33:00,
2013-03-26 17:34:00,86.6,24.2,29.26,SSW,202,12.7,17.0,10,-99.99,,,0.00,254.5,rob ver 1A,2013-03-27 00:34:00,
2013-03-26 17:35:00,83.5,28.2,29.32,South,174,9.2,12.3,13,-99.99,,,0.00,76,rob ver 1B,2013-03-27 00:35:00,
2013-03-26 17:36:00,83.4,28.2,29.32,South,173,8.1,10.1,13,-99.99,,,0.00,153,rob ver 1B,2013-03-27 00:36:00,
2013-03-26 17:37:00,83.6,28.3,29.32,SSW,196,9.7,13.9,13,-99.99,,,0.00,235.6,rob ver 1B,2013-03-27 00:37:00,
2013-03-26 17:38:00,83.6,28.0,29.32,SSW,207,8.4,11.3,13,-99.99,,,0.00,243.6,rob ver 1B,2013-03-27 00:38:00,
2013-03-26 17:39:00,86.4,23.8,29.26,SW,214,12.4,15.7,10,-99.99,,,0.00,131.7,rob ver 1A,2013-03-27 00:39:00,
2013-03-26 17:40:00,83.8,28.0,29.32,South,169,7.8,10.3,13,-99.99,,,0.00,234,rob ver 1B,2013-03-27 00:40:00,
2013-03-26 17:41:00,83.9,28.1,29.32,South,178,8.7,11.1,13,-99.99,,,0.00,225.8,rob ver 1B,2013-03-27 00:41:00,
2013-03-26 17:42:00,84.1,28.3,29.32,South,181,9.0,11.5,13,-99.99,,,0.00,212,rob ver 1B,2013-03-27 00:42:00,
2013-03-26 17:43:00,84.1,28.3,29.32,SSW,192,7.2,10.0,13,-99.99,,,0.00,190,rob ver 1B,2013-03-27 00:43:00,
2013-03-26 17:44:00,85.8,23.4,29.26,SSW,213,13.4,14.7,10,-99.99,,,0.00,149.2,rob ver 1A,2013-03-27 00:44:00,
2013-03-26 17:45:00,83.8,27.7,29.32,South,175,9.9,11.1,12,-99.99,,,0.00,130.7,rob ver 1B,2013-03-27 00:45:00,
2013-03-26 17:46:00,83.6,28.2,29.32,South,182,7.6,9.7,13,-99.99,,,0.00,95.4,rob ver 1B,2013-03-27 00:46:00,
2013-03-26 17:47:00,83.6,28.3,29.32,South,187,8.4,10.7,13,-99.99,,,0.00,67.17,rob ver 1B,2013-03-27 00:47:00,
2013-03-26 17:48:00,83.4,27.9,29.32,South,180,9.0,12.4,13,-99.99,,,0.00,61.6,rob ver 1B,2013-03-27 00:48:00,
2013-03-26 17:49:00,85.7,22.8,29.26,SSW,213,12.5,15.2,9,-99.99,,,0.00,188.4,rob ver 1A,2013-03-27 00:49:00,
2013-03-26 17:50:00,83.2,27.8,29.32,South,186,6.8,9.2,13,-99.99,,,0.00,58.98,rob ver 1B,2013-03-27 00:50:00,
2013-03-26 17:51:00,83.0,27.8,29.32,SSW,199,7.2,9.2,13,-99.99,,,0.00,58.65,rob ver 1B,2013-03-27 00:51:00,
2013-03-26 17:52:00,83.0,27.8,29.32,South,191,5.9,8.5,13,-99.99,,,0.00,58,rob ver 1B,2013-03-27 00:52:00,
2013-03-26 17:53:00,83.0,27.8,29.32,SSW,198,6.6,8.9,13,-99.99,,,0.00,57.34,rob ver 1B,2013-03-27 00:53:00,
2013-03-26 17:54:00,85.9,24.5,29.26,SW,215,12.9,14.9,10,-99.99,,,0.00,162.2,rob ver 1A,2013-03-27 00:54:00,
2013-03-26 17:55:00,83.0,27.5,29.32,SSW,210,7.3,10.6,13,-99.99,,,0.00,55.7,rob ver 1B,2013-03-27 00:55:00,
2013-03-26 17:56:00,83.0,27.6,29.32,SW,221,8.9,10.6,13,-99.99,,,0.00,55.05,rob ver 1B,2013-03-27 00:56:00,
2013-03-26 17:57:00,82.9,28.2,29.32,SSW,210,7.9,9.6,13,-99.99,,,0.00,54.56,rob ver 1B,2013-03-27 00:57:00,
2013-03-26 17:58:00,82.9,28.6,29.32,SSW,202,8.6,13.1,13,-99.99,,,0.00,54.07,rob ver 1B,2013-03-27 00:58:00,
2013-03-26 17:59:00,85.3,24.7,29.26,SSW,212,10.3,13.4,10,-99.99,,,0.00,128.1,rob ver 1A,2013-03-27 00:59:00,
2013-03-26 18:00:00,82.8,28.2,29.32,SSW,196,8.8,11.6,13,-99.99,,,0.00,52.1,rob ver 1B,2013-03-27 01:00:00,
2013-03-26 18:01:00,82.8,27.9,29.32,South,189,9.6,11.6,13,-99.99,,,0.00,50.79,rob ver 1B,2013-03-27 01:01:00,
2013-03-26 18:02:00,82.8,27.8,29.32,South,190,9.4,11.7,13,-99.99,,,0.00,50.13,rob ver 1B,2013-03-27 01:02:00,
2013-03-26 18:03:00,82.7,27.7,29.32,South,187,9.5,12.1,13,-99.99,,,0.00,50.13,rob ver 1B,2013-03-27 01:03:00,
2013-03-26 18:04:00,82.6,27.9,29.32,South,181,9.6,12.4,13,-99.99,,,0.00,50.13,rob ver 1B,2013-03-27 01:04:00,
2013-03-26 18:05:00,85.2,24.8,29.26,SW,215,10.5,13.2,10,-99.99,,,0.00,134.2,rob ver 1A,2013-03-27 01:05:00,
2013-03-26 18:06:00,82.5,28.2,29.32,South,183,9.8,11.8,13,-99.99,,,0.00,65.21,rob ver 1B,2013-03-27 01:06:00,
2013-03-26 18:07:00,82.5,28.2,29.32,South,182,9.4,10.8,13,-99.99,,,0.00,63.24,rob ver 1B,2013-03-27 01:07:00,
2013-03-26 18:08:00,82.5,28.4,29.32,South,183,7.7,10.5,13,-99.99,,,0.00,64.55,rob ver 1B,2013-03-27 01:08:00,
2013-03-26 18:09:00,82.6,28.6,29.32,South,189,9.5,11.6,14,-99.99,,,0.00,52.76,rob ver 1B,2013-03-27 01:09:00,
2013-03-26 18:10:00,85.2,25.1,29.26,SSW,208,9.2,12.5,11,-99.99,,,0.00,83.6,rob ver 1A,2013-03-27 01:10:00,
2013-03-26 18:11:00,82.5,28.4,29.32,SSW,192,8.2,9.5,13,-99.99,,,0.00,67.17,rob ver 1B,2013-03-27 01:11:00,
2013-03-26 18:12:00,82.4,28.2,29.32,SSW,192,7.0,8.4,13,-99.99,,,0.00,85.7,rob ver 1B,2013-03-27 01:12:00,
2013-03-26 18:13:00,82.5,28.2,29.32,South,178,8.9,12.0,13,-99.99,,,0.00,96.7,rob ver 1B,2013-03-27 01:13:00,
2013-03-26 18:14:00,82.6,28.0,29.32,South,176,9.4,12.8,13,-99.99,,,0.00,104.5,rob ver 1B,2013-03-27 01:14:00,
2013-03-26 18:15:00,84.8,25.0,29.26,SSW,208,11.4,14.3,11,-99.99,,,0.00,75,rob ver 1A,2013-03-27 01:15:00,
2013-03-26 18:16:00,82.7,28.5,29.32,South,175,7.1,10.3,13,-99.99,,,0.00,106.5,rob ver 1B,2013-03-27 01:16:00,
2013-03-26 18:17:00,82.8,28.5,29.35,South,173,7.5,10.2,13,-99.99,,,0.00,103.4,rob ver 1B,2013-03-27 01:17:00,
2013-03-26 18:18:00,82.8,28.4,29.32,SSE,165,7.9,9.6,13,-99.99,,,0.00,104.2,rob ver 1B,2013-03-27 01:18:00,
2013-03-26 18:19:00,82.8,28.1,29.32,South,170,8.3,10.1,13,-99.99,,,0.00,102.2,rob ver 1B,2013-03-27 01:19:00,
2013-03-26 18:20:00,84.6,24.2,29.26,SSW,203,12.6,15.0,11,-99.99,,,0.00,71.1,rob ver 1A,2013-03-27 01:20:00,
2013-03-26 18:21:00,82.8,28.8,29.32,South,172,8.4,10.6,14,-99.99,,,0.00,101.9,rob ver 1B,2013-03-27 01:21:00,
2013-03-26 18:22:00,82.7,28.9,29.32,SSE,165,7.8,9.4,14,-99.99,,,0.00,98.6,rob ver 1B,2013-03-27 01:22:00,
2013-03-26 18:23:00,82.6,28.9,29.35,SSE,167,7.3,8.6,14,-99.99,,,0.00,95.4,rob ver 1B,2013-03-27 01:23:00,
2013-03-26 18:24:00,82.6,28.8,29.35,SSE,168,8.2,11.1,13,-99.99,,,0.00,92.4,rob ver 1B,2013-03-27 01:24:00,
2013-03-26 18:25:00,84.5,23.1,29.26,SSW,206,12.5,15.2,10,-99.99,,,0.00,56.69,rob ver 1A,2013-03-27 01:25:00,
2013-03-26 18:26:00,82.7,28.3,29.32,South,174,6.5,7.8,13,-99.99,,,0.00,86.5,rob ver 1B,2013-03-27 01:26:00,
2013-03-26 18:27:00,82.8,28.1,29.32,South,171,7.1,8.6,13,-99.99,,,0.00,82.9,rob ver 1B,2013-03-27 01:27:00,
2013-03-26 18:28:00,82.8,27.0,29.32,South,172,7.8,10.4,12,-99.99,,,0.00,79.6,rob ver 1B,2013-03-27 01:28:00,
2013-03-26 18:29:00,82.8,26.1,29.32,South,175,8.6,10.3,12,-99.99,,,0.00,76.7,rob ver 1B,2013-03-27 01:29:00,
2013-03-26 18:30:00,84.2,21.6,29.26,South,183,9.6,11.9,9,-99.99,,,0.00,38.67,rob ver 1A,2013-03-27 01:30:00,
2013-03-26 18:31:00,82.8,25.7,29.35,South,187,7.9,9.2,12,-99.99,,,0.00,70.5,rob ver 1B,2013-03-27 01:31:00,
2013-03-26 18:32:00,82.8,26.1,29.32,South,190,8.8,10.6,12,-99.99,,,0.00,67.51,rob ver 1B,2013-03-27 01:32:00,
2013-03-26 18:33:00,82.8,26.3,29.32,South,183,8.5,11.2,12,-99.99,,,0.00,64.89,rob ver 1B,2013-03-27 01:33:00,
2013-03-26 18:34:00,82.8,26.6,29.32,South,191,8.5,11.0,12,-99.99,,,0.00,61.61,rob ver 1B,2013-03-27 01:34:00,
2013-03-26 18:35:00,83.8,19.1,29.26,SSE,164,11.7,13.5,9,-99.99,,,0.00,47.19,rob ver 1A,2013-03-27 01:35:00,
2013-03-26 18:36:00,82.7,26.5,29.35,South,188,7.9,9.4,12,-99.99,,,0.00,47.84,rob ver 1B,2013-03-27 01:36:00,
2013-03-26 18:37:00,82.6,26.5,29.35,South,187,6.4,8.2,13,-99.99,,,0.00,40.15,rob ver 1B,2013-03-27 01:37:00,
2013-03-26 18:38:00,82.5,27.3,29.35,South,186,9.4,12.2,13,-99.99,,,0.00,39,rob ver 1B,2013-03-27 01:38:00,
2013-03-26 18:39:00,82.4,28.2,29.35,South,188,9.5,11.5,13,-99.99,,,0.00,37.69,rob ver 1B,2013-03-27 01:39:00,
2013-03-26 18:40:00,83.6,19.1,29.26,South,169,8.8,10.7,9,-99.99,,,0.00,23.1,rob ver 1A,2013-03-27 01:40:00,
2013-03-26 18:41:00,82.2,27.8,29.35,South,177,8.0,10.9,13,-99.99,,,0.00,28.18,rob ver 1B,2013-03-27 01:41:00,
2013-03-26 18:42:00,82.1,28.2,29.35,South,171,9.7,12.6,14,-99.99,,,0.00,25.24,rob ver 1B,2013-03-27 01:42:00,
2013-03-26 18:43:00,82.0,28.4,29.35,South,176,10.8,12.9,14,-99.99,,,0.00,23.6,rob ver 1B,2013-03-27 01:43:00,
2013-03-26 18:44:00,81.9,28.6,29.35,South,173,9.6,11.2,14,-99.99,,,0.00,21.96,rob ver 1B,2013-03-27 01:44:00,
2013-03-26 18:45:00,83.4,19.0,29.26,South,170,8.4,9.7,9,-99.99,,,0.00,16.38,rob ver 1A,2013-03-27 01:45:00,
2013-03-26 18:46:00,81.7,29.0,29.35,South,176,9.6,11.5,14,-99.99,,,0.00,19.99,rob ver 1B,2013-03-27 01:46:00,
2013-03-26 18:47:00,81.7,28.8,29.35,South,187,8.2,10.9,14,-99.99,,,0.00,21.3,rob ver 1B,2013-03-27 01:47:00,
2013-03-26 18:48:00,81.7,28.8,29.35,South,186,7.8,10.3,14,-99.99,,,0.00,21.96,rob ver 1B,2013-03-27 01:48:00,
2013-03-26 18:49:00,81.7,28.9,29.35,South,185,9.9,12.5,14,-99.99,,,0.00,20.98,rob ver 1B,2013-03-27 01:49:00,
2013-03-26 18:50:00,83.0,19.0,29.26,SSE,168,8.1,10.9,9,-99.99,,,0.00,7.54,rob ver 1A,2013-03-27 01:50:00,
2013-03-26 18:51:00,81.6,28.8,29.35,South,182,8.4,10.2,14,-99.99,,,0.00,15.4,rob ver 1B,2013-03-27 01:51:00,
2013-03-26 18:52:00,81.6,28.9,29.35,South,180,8.7,10.8,14,-99.99,,,0.00,11.8,rob ver 1B,2013-03-27 01:52:00,
2013-03-26 18:53:00,81.6,29.1,29.35,South,179,9.3,11.5,14,-99.99,,,0.00,9.18,rob ver 1B,2013-03-27 01:53:00,
2013-03-26 18:54:00,81.5,29.0,29.35,South,179,9.7,11.0,14,-99.99,,,0.00,7.37,rob ver 1B,2013-03-27 01:54:00,
2013-03-26 18:55:00,81.5,28.8,29.35,South,184,8.7,11.2,14,-99.99,,,0.00,6.228,rob ver 1B,2013-03-27 01:55:00,
2013-03-26 18:56:00,82.8,19.0,29.26,South,169,10.0,12.7,9,-99.99,,,0.00,3.277,rob ver 1A,2013-03-27 01:56:00,
2013-03-26 18:57:00,81.4,28.1,29.35,South,179,10.4,12.4,14,-99.99,,,0.00,5.9,rob ver 1B,2013-03-27 01:57:00,
2013-03-26 18:58:00,81.4,28.0,29.35,South,174,9.8,11.8,14,-99.99,,,0.00,5.245,rob ver 1B,2013-03-27 01:58:00,
2013-03-26 18:59:00,81.3,27.8,29.35,South,171,11.5,13.7,14,-99.99,,,0.00,4.917,rob ver 1B,2013-03-27 01:59:00,
2013-03-26 19:00:00,81.2,27.8,29.35,South,169,10.8,12.5,14,-99.99,,,0.00,4.917,rob ver 1B,2013-03-27 02:00:00,
2013-03-26 19:01:00,82.5,19.0,29.26,South,172,9.6,12.5,9,-99.99,,,0.00,2.294,rob ver 1A,2013-03-27 02:01:00,
2013-03-26 19:02:00,81.2,27.8,29.35,SSE,166,9.8,12.7,14,-99.99,,,0.00,3.278,rob ver 1B,2013-03-27 02:02:00,
2013-03-26 19:03:00,81.1,27.7,29.35,South,169,9.9,11.4,14,-99.99,,,0.00,2.95,rob ver 1B,2013-03-27 02:03:00,
2013-03-26 19:04:00,81.1,27.7,29.35,SSE,166,9.0,10.8,14,-99.99,,,0.00,2.622,rob ver 1B,2013-03-27 02:04:00,
2013-03-26 19:05:00,81.0,27.7,29.35,SSE,166,8.4,9.9,14,-99.99,,,0.00,1.639,rob ver 1B,2013-03-27 02:05:00,
2013-03-26 19:06:00,82.3,19.0,29.26,South,171,9.1,10.9,9,-99.99,,,0.00,.983,rob ver 1A,2013-03-27 02:06:00,
2013-03-26 19:07:00,80.9,27.6,29.35,South,169,8.5,10.5,14,-99.99,,,0.00,.656,rob ver 1B,2013-03-27 02:07:00,
2013-03-26 19:08:00,80.9,27.5,29.35,South,171,8.4,9.9,14,-99.99,,,0.00,.328,rob ver 1B,2013-03-27 02:08:00,
2013-03-26 19:09:00,80.9,27.4,29.35,SSE,166,8.6,9.8,14,-99.99,,,0.00,.328,rob ver 1B,2013-03-27 02:09:00,
2013-03-26 19:10:00,80.8,27.4,29.35,SSE,165,8.7,10.1,14,-99.99,,,0.00,.328,rob ver 1B,2013-03-27 02:10:00,
2013-03-26 19:11:00,81.9,19.0,29.26,South,171,9.5,11.7,9,-99.99,,,0.00,0,rob ver 1A,2013-03-27 02:11:00,
2013-03-26 19:12:00,80.8,27.3,29.35,SSE,163,7.8,9.9,14,-99.99,,,0.00,0,rob ver 1B,2013-03-27 02:12:00,
2013-03-26 19:13:00,80.7,27.3,29.35,SSE,165,8.1,9.9,14,-99.99,,,0.00,0,rob ver 1B,2013-03-27 02:13:00,
2013-03-26 19:14:00,80.7,27.3,29.35,SSE,163,7.3,9.4,14,-99.99,,,0.00,0,rob ver 1B,2013-03-27 02:14:00,
2013-03-26 19:15:00,80.6,27.2,29.35,SSE,156,6.8,8.1,14,-99.99,,,0.00,0,rob ver 1B,2013-03-27 02:15:00,
2013-03-26 19:16:00,81.6,19.0,29.26,South,169,7.1,8.9,9,-99.99,,,0.00,0,rob ver 1A,2013-03-27 02:16:00,
2013-03-26 19:17:00,80.5,27.0,29.35,SSE,162,8.2,10.3,14,-99.99,,,0.00,0,rob ver 1B,2013-03-27 02:17:00,
2013-03-26 19:18:00,80.5,26.9,29.35,SSE,167,9.1,11.3,13,-99.99,,,0.00,0,rob ver 1B,2013-03-27 02:18:00,
2013-03-26 19:19:00,80.4,26.8,29.35,SSE,166,8.5,9.6,13,-99.99,,,0.00,0,rob ver 1B,2013-03-27 02:19:00,
2013-03-26 19:20:00,80.3,26.7,29.35,SSE,163,7.7,9.5,13,-99.99,,,0.00,0,rob ver 1B,2013-03-27 02:20:00,
2013-03-26 19:21:00,81.1,19.0,29.26,South,180,6.5,8.3,9,-99.99,,,0.00,0,rob ver 1A,2013-03-27 02:21:00,
2013-03-26 19:22:00,80.2,26.6,29.35,SSE,160,8.1,9.9,13,-99.99,,,0.00,0,rob ver 1B,2013-03-27 02:22:00,
2013-03-26 19:23:00,80.2,26.6,29.35,SSE,160,7.6,9.4,14,-99.99,,,0.00,0,rob ver 1B,2013-03-27 02:23:00,
2013-03-26 19:24:00,80.1,26.6,29.35,SSE,158,6.9,8.3,13,-99.99,,,0.00,0,rob ver 1B,2013-03-27 02:24:00,
2013-03-26 19:25:00,80.0,26.5,29.35,SSE,162,6.6,7.9,13,-99.99,,,0.00,0,rob ver 1B,2013-03-27 02:25:00,
2013-03-26 19:26:00,80.6,19.0,29.26,South,175,7.2,8.9,10,-99.99,,,0.00,0,rob ver 1A,2013-03-27 02:26:00,
2013-03-26 19:27:00,79.9,26.5,29.35,SSE,168,7.7,9.2,14,-99.99,,,0.00,0,rob ver 1B,2013-03-27 02:27:00,
2013-03-26 19:28:00,79.9,26.5,29.35,South,169,8.6,9.6,14,-99.99,,,0.00,0,rob ver 1B,2013-03-27 02:28:00,
2013-03-26 19:29:00,79.8,26.5,29.35,South,171,8.2,9.8,14,-99.99,,,0.00,0,rob ver 1B,2013-03-27 02:29:00,
2013-03-26 19:30:00,79.7,26.4,29.35,SSE,168,7.4,9.0,14,-99.99,,,0.00,0,rob ver 1B,2013-03-27 02:30:00,
2013-03-26 19:31:00,80.6,19.2,29.26,South,172,7.8,9.2,10,-99.99,,,0.00,0,rob ver 1A,2013-03-27 02:31:00,
2013-03-26 19:32:00,79.6,26.4,29.35,SSE,167,8.1,9.3,14,-99.99,,,0.00,0,rob ver 1B,2013-03-27 02:32:00,
2013-03-26 19:33:00,79.5,26.4,29.35,South,171,8.4,9.7,14,-99.99,,,0.00,0,rob ver 1B,2013-03-27 02:33:00,
2013-03-26 19:34:00,79.5,26.4,29.35,South,173,7.9,9.7,14,-99.99,,,0.00,0,rob ver 1B,2013-03-27 02:34:00,
2013-03-26 19:35:00,79.5,26.4,29.35,South,174,7.6,9.1,14,-99.99,,,0.00,0,rob ver 1B,2013-03-27 02:35:00,
2013-03-26 19:36:00,79.5,26.4,29.35,South,176,8.2,10.0,14,-99.99,,,0.00,0,rob ver 1B,2013-03-27 02:36:00,
2013-03-26 19:37:00,80.2,19.2,29.26,South,170,7.6,9.6,10,-99.99,,,0.00,0,rob ver 1A,2013-03-27 02:37:00,
2013-03-26 19:38:00,79.4,26.4,29.35,South,177,7.2,8.6,14,-99.99,,,0.00,0,rob ver 1B,2013-03-27 02:38:00,
2013-03-26 19:39:00,79.2,26.4,29.35,South,177,6.9,8.0,14,-99.99,,,0.00,0,rob ver 1B,2013-03-27 02:39:00,
2013-03-26 19:40:00,79.2,26.5,29.35,South,176,6.6,7.5,14,-99.99,,,0.00,0,rob ver 1B,2013-03-27 02:40:00,
2013-03-26 19:41:00,79.1,26.7,29.35,South,177,6.7,8.6,14,-99.99,,,0.00,0,rob ver 1B,2013-03-27 02:41:00,
2013-03-26 19:42:00,79.7,19.4,29.26,South,176,8.2,9.7,10,-99.99,,,0.00,0,rob ver 1A,2013-03-27 02:42:00,
2013-03-26 19:43:00,79.1,27.0,29.35,South,176,6.1,7.5,14,-99.99,,,0.00,0,rob ver 1B,2013-03-27 02:43:00,
2013-03-26 19:44:00,79.0,27.0,29.35,South,179,6.2,7.1,14,-99.99,,,0.00,0,rob ver 1B,2013-03-27 02:44:00,
2013-03-26 19:45:00,78.9,27.1,29.35,South,180,6.3,8.1,14,-99.99,,,0.00,0,rob ver 1B,2013-03-27 02:45:00,
2013-03-26 19:46:00,78.8,27.1,29.35,South,179,6.3,7.4,14,-99.99,,,0.00,0,rob ver 1B,2013-03-27 02:46:00,
2013-03-26 19:47:00,80.0,20.5,29.26,South,180,11.2,14.5,10,-99.99,,,0.00,0,rob ver 1A,2013-03-27 02:47:00,
2013-03-26 19:48:00,78.7,27.3,29.35,South,181,8.0,9.3,15,-99.99,,,0.00,0,rob ver 1B,2013-03-27 02:48:00,
2013-03-26 19:49:00,78.6,27.4,29.35,South,182,7.7,9.3,15,-99.99,,,0.00,0,rob ver 1B,2013-03-27 02:49:00,
2013-03-26 19:50:00,78.6,27.4,29.35,South,183,7.5,9.5,15,-99.99,,,0.00,0,rob ver 1B,2013-03-27 02:50:00,
2013-03-26 19:51:00,78.6,27.5,29.35,South,181,7.7,9.4,15,-99.99,,,0.00,0,rob ver 1B,2013-03-27 02:51:00,
2013-03-26 19:52:00,79.6,22.7,29.26,South,174,11.8,14.1,12,-99.99,,,0.00,0,rob ver 1A,2013-03-27 02:52:00,
2013-03-26 19:53:00,78.5,27.6,29.35,South,181,7.9,9.4,15,-99.99,,,0.00,0,rob ver 1B,2013-03-27 02:53:00,
2013-03-26 19:54:00,78.5,27.6,29.35,South,182,8.4,10.4,15,-99.99,,,0.00,0,rob ver 1B,2013-03-27 02:54:00,
2013-03-26 19:55:00,78.5,27.7,29.35,South,181,9.0,11.0,15,-99.99,,,0.00,0,rob ver 1B,2013-03-27 02:55:00,
2013-03-26 19:56:00,78.5,27.7,29.35,South,179,9.0,10.4,15,-99.99,,,0.00,0,rob ver 1B,2013-03-27 02:56:00,
2013-03-26 19:57:00,79.4,23.6,29.26,South,177,11.4,13.1,12,-99.99,,,0.00,0,rob ver 1A,2013-03-27 02:57:00,
2013-03-26 19:58:00,78.5,27.7,29.35,South,191,9.6,11.7,15,-99.99,,,0.00,0,rob ver 1B,2013-03-27 02:58:00,
2013-03-26 19:59:00,78.4,27.6,29.35,SSW,195,9.1,11.0,15,-99.99,,,0.00,0,rob ver 1B,2013-03-27 02:59:00,
2013-03-26 20:00:00,78.3,27.6,29.35,SSW,194,9.3,11.2,15,-99.99,,,0.00,0,rob ver 1B,2013-03-27 03:00:00,
2013-03-26 20:01:00,78.2,27.8,29.35,South,189,9.6,11.3,15,-99.99,,,0.00,0,rob ver 1B,2013-03-27 03:01:00,
2013-03-26 20:02:00,78.9,23.8,29.26,South,179,10.8,14.6,12,-99.99,,,0.00,0,rob ver 1A,2013-03-27 03:02:00,
2013-03-26 20:03:00,78.2,27.9,29.35,South,188,8.7,10.3,15,-99.99,,,0.00,0,rob ver 1B,2013-03-27 03:03:00,
2013-03-26 20:04:00,78.1,27.9,29.35,South,186,9.0,10.9,15,-99.99,,,0.00,0,rob ver 1B,2013-03-27 03:04:00,
2013-03-26 20:05:00,78.0,28.0,29.35,South,185,8.3,10.2,15,-99.99,,,0.00,0,rob ver 1B,2013-03-27 03:05:00,
2013-03-26 20:06:00,78.0,28.0,29.35,South,186,8.4,10.5,15,-99.99,,,0.00,0,rob ver 1B,2013-03-27 03:06:00,
2013-03-26 20:07:00,78.4,23.5,29.26,South,185,10.0,12.8,12,-99.99,,,0.00,0,rob ver 1A,2013-03-27 03:07:00,
2013-03-26 20:08:00,77.9,28.1,29.35,South,183,8.9,10.6,15,-99.99,,,0.00,0,rob ver 1B,2013-03-27 03:08:00,
2013-03-26 20:09:00,77.9,28.1,29.35,South,185,9.5,12.7,15,-99.99,,,0.00,0,rob ver 1B,2013-03-27 03:09:00,
2013-03-26 20:10:00,77.9,28.1,29.35,South,186,8.0,9.6,15,-99.99,,,0.00,0,rob ver 1B,2013-03-27 03:10:00,
2013-03-26 20:11:00,77.7,28.1,29.35,South,185,7.8,9.5,16,-99.99,,,0.00,0,rob ver 1B,2013-03-27 03:11:00,
2013-03-26 20:12:00,78.2,23.1,29.26,South,182,10.6,13.9,12,-99.99,,,0.00,0,rob ver 1A,2013-03-27 03:12:00,
2013-03-26 20:13:00,77.6,28.0,29.35,South,186,8.3,11.4,16,-99.99,,,0.00,0,rob ver 1B,2013-03-27 03:13:00,
2013-03-26 20:14:00,77.6,28.0,29.35,South,187,8.3,9.6,15,-99.99,,,0.00,0,rob ver 1B,2013-03-27 03:14:00,
2013-03-26 20:15:00,77.6,27.9,29.35,South,187,7.7,10.2,15,-99.99,,,0.00,0,rob ver 1B,2013-03-27 03:15:00,
2013-03-26 20:16:00,77.5,27.9,29.35,South,188,7.9,9.5,16,-99.99,,,0.00,0,rob ver 1B,2013-03-27 03:16:00,
2013-03-26 20:17:00,77.9,23.0,29.26,South,184,8.2,9.8,13,-99.99,,,0.00,0,rob ver 1A,2013-03-27 03:17:00,
2013-03-26 20:18:00,77.4,27.9,29.35,South,189,7.7,9.4,16,-99.99,,,0.00,0,rob ver 1B,2013-03-27 03:18:00,
2013-03-26 20:19:00,77.3,27.9,29.35,South,188,7.8,9.8,16,-99.99,,,0.00,0,rob ver 1B,2013-03-27 03:19:00,
2013-03-26 20:20:00,77.3,28.0,29.35,South,187,8.1,10.6,16,-99.99,,,0.00,0,rob ver 1B,2013-03-27 03:20:00,
2013-03-26 20:21:00,77.3,28.0,29.38,South,188,7.5,9.7,16,-99.99,,,0.00,0,rob ver 1B,2013-03-27 03:21:00,
2013-03-26 20:22:00,77.2,28.1,29.38,South,190,7.4,9.2,16,-99.99,,,0.00,0,rob ver 1B,2013-03-27 03:22:00,
2013-03-26 20:23:00,77.4,23.7,29.26,SSW,194,8.8,11.6,13,-99.99,,,0.00,0,rob ver 1A,2013-03-27 03:23:00,
2013-03-26 20:24:00,77.1,28.3,29.35,South,189,7.5,10.2,16,-99.99,,,0.00,0,rob ver 1B,2013-03-27 03:24:00,
2013-03-26 20:25:00,77.1,28.3,29.35,South,187,7.1,8.8,16,-99.99,,,0.00,0,rob ver 1B,2013-03-27 03:25:00,
2013-03-26 20:26:00,77.0,28.6,29.35,South,188,8.1,10.7,16,-99.99,,,0.00,0,rob ver 1B,2013-03-27 03:26:00,
2013-03-26 20:27:00,77.1,28.8,29.38,South,187,7.9,9.7,16,-99.99,,,0.00,0,rob ver 1B,2013-03-27 03:27:00,
2013-03-26 20:28:00,77.2,23.7,29.29,SSW,197,9.5,11.9,13,-99.99,,,0.00,0,rob ver 1A,2013-03-27 03:28:00,
2013-03-26 20:29:00,77.0,29.2,29.38,South,187,8.2,11.8,17,-99.99,,,0.00,0,rob ver 1B,2013-03-27 03:29:00,
2013-03-26 20:30:00,77.0,29.7,29.35,South,188,9.2,11.1,17,-99.99,,,0.00,0,rob ver 1B,2013-03-27 03:30:00,
2013-03-26 20:31:00,77.0,29.8,29.35,South,185,8.7,10.6,17,-99.99,,,0.00,0,rob ver 1B,2013-03-27 03:31:00,
2013-03-26 20:32:00,76.9,30.0,29.38,South,186,7.9,9.8,17,-99.99,,,0.00,0,rob ver 1B,2013-03-27 03:32:00,
2013-03-26 20:33:00,77.0,24.1,29.29,South,191,9.1,11.3,13,-99.99,,,0.00,0,rob ver 1A,2013-03-27 03:33:00,
2013-03-26 20:34:00,76.8,30.9,29.38,South,186,9.8,12.4,18,-99.99,,,0.00,0,rob ver 1B,2013-03-27 03:34:00,
2013-03-26 20:35:00,76.9,31.1,29.38,South,186,9.0,12.2,18,-99.99,,,0.00,0,rob ver 1B,2013-03-27 03:35:00,
2013-03-26 20:36:00,76.8,31.5,29.38,South,190,9.4,12.5,19,-99.99,,,0.00,0,rob ver 1B,2013-03-27 03:36:00,
2013-03-26 20:37:00,76.7,31.7,29.38,SSW,192,10.0,11.9,19,-99.99,,,0.00,0,rob ver 1B,2013-03-27 03:37:00,
2013-03-26 20:38:00,76.8,24.4,29.29,South,187,9.6,11.8,14,-99.99,,,0.00,0,rob ver 1A,2013-03-27 03:38:00,
2013-03-26 20:39:00,76.7,32.0,29.38,South,191,9.6,12.0,19,-99.99,,,0.00,0,rob ver 1B,2013-03-27 03:39:00,
2013-03-26 20:40:00,76.6,32.2,29.38,SSW,201,11.6,13.7,19,-99.99,,,0.00,0,rob ver 1B,2013-03-27 03:40:00,
2013-03-26 20:41:00,76.6,32.2,29.38,SSW,207,10.9,13.2,19,-99.99,,,0.00,0,rob ver 1B,2013-03-27 03:41:00,
2013-03-26 20:42:00,76.6,32.5,29.38,SSW,211,10.9,12.2,19,-99.99,,,0.00,0,rob ver 1B,2013-03-27 03:42:00,
2013-03-26 20:43:00,76.3,24.9,29.29,South,185,8.5,9.8,14,-99.99,,,0.00,0,rob ver 1A,2013-03-27 03:43:00,
2013-03-26 20:44:00,76.4,32.4,29.38,SSW,210,9.3,10.6,20,-99.99,,,0.00,0,rob ver 1B,2013-03-27 03:44:00,
2013-03-26 20:45:00,76.2,32.4,29.38,SSW,208,8.3,9.7,20,-99.99,,,0.00,0,rob ver 1B,2013-03-27 03:45:00,
2013-03-26 20:46:00,76.1,32.6,29.38,SSW,206,9.7,11.1,20,-99.99,,,0.00,0,rob ver 1B,2013-03-27 03:46:00,
2013-03-26 20:47:00,76.0,32.6,29.38,SSW,204,9.8,12.6,20,-99.99,,,0.00,0,rob ver 1B,2013-03-27 03:47:00,
2013-03-26 20:48:00,75.9,25.1,29.29,South,184,8.0,10.0,15,-99.99,,,0.00,0,rob ver 1A,2013-03-27 03:48:00,
2013-03-26 20:49:00,75.9,32.6,29.38,SSW,202,10.0,11.7,20,-99.99,,,0.00,0,rob ver 1B,2013-03-27 03:49:00,
2013-03-26 20:50:00,75.8,32.6,29.38,SSW,204,9.6,11.7,20,-99.99,,,0.00,0,rob ver 1B,2013-03-27 03:50:00,
2013-03-26 20:51:00,75.7,32.6,29.38,SSW,210,9.3,10.9,20,-99.99,,,0.00,0,rob ver 1B,2013-03-27 03:51:00,
2013-03-26 20:52:00,75.6,32.6,29.38,SSW,209,9.7,11.1,20,-99.99,,,0.00,0,rob ver 1B,2013-03-27 03:52:00,
2013-03-26 20:53:00,75.4,25.3,29.29,South,180,7.6,9.1,15,-99.99,,,0.00,0,rob ver 1A,2013-03-27 03:53:00,
2013-03-26 20:54:00,75.6,32.6,29.38,SSW,213,9.6,12.1,20,-99.99,,,0.00,0,rob ver 1B,2013-03-27 03:54:00,
2013-03-26 20:55:00,75.7,32.4,29.38,SW,218,9.4,11.0,20,-99.99,,,0.00,0,rob ver 1B,2013-03-27 03:55:00,
2013-03-26 20:56:00,75.7,32.4,29.38,SW,220,9.9,11.9,20,-99.99,,,0.00,0,rob ver 1B,2013-03-27 03:56:00,
2013-03-26 20:57:00,75.8,32.3,29.38,SW,226,11.1,14.0,20,-99.99,,,0.00,0,rob ver 1B,2013-03-27 03:57:00,
2013-03-26 20:58:00,74.9,25.4,29.29,South,184,6.3,7.4,15,-99.99,,,0.00,0,rob ver 1A,2013-03-27 03:58:00,
2013-03-26 20:59:00,76.2,32.3,29.38,SW,229,11.7,14.6,19,-99.99,,,0.00,0,rob ver 1B,2013-03-27 03:59:00,
2013-03-26 21:00:00,74.8,25.5,29.29,South,182,5.6,6.8,15,-99.99,,,0.00,0,rob ver 1A,2013-03-27 04:00:00,
2013-03-26 21:01:00,76.4,32.2,29.38,SW,229,12.7,15.9,19,-99.99,,,0.00,0,rob ver 1B,2013-03-27 04:01:00,
2013-03-26 21:02:00,76.5,32.2,29.38,SW,229,11.5,14.0,19,-99.99,,,0.00,0,rob ver 1B,2013-03-27 04:02:00,
2013-03-26 21:03:00,74.4,25.6,29.29,South,180,5.7,7.3,16,-99.99,,,0.00,0,rob ver 1A,2013-03-27 04:03:00,
2013-03-26 21:04:00,76.5,32.2,29.38,SW,228,11.8,14.0,19,-99.99,,,0.00,0,rob ver 1B,2013-03-27 04:04:00,
2013-03-26 21:05:00,76.4,32.1,29.38,SW,228,11.4,13.8,19,-99.99,,,0.00,0,rob ver 1B,2013-03-27 04:05:00,
2013-03-26 21:06:00,76.3,32.1,29.38,SW,228,11.2,13.6,19,-99.99,,,0.00,0,rob ver 1B,2013-03-27 04:06:00,
2013-03-26 21:07:00,76.2,32.2,29.38,SW,227,9.8,11.2,19,-99.99,,,0.00,0,rob ver 1B,2013-03-27 04:07:00,
2013-03-26 21:08:00,74.0,25.7,29.29,South,182,5.3,6.2,16,-99.99,,,0.00,0,rob ver 1A,2013-03-27 04:08:00,
2013-03-26 21:09:00,76.1,32.2,29.38,SW,229,10.3,12.7,20,-99.99,,,0.00,0,rob ver 1B,2013-03-27 04:09:00,
2013-03-26 21:10:00,76.0,32.2,29.38,SW,228,10.1,11.7,20,-99.99,,,0.00,0,rob ver 1B,2013-03-27 04:10:00,
2013-03-26 21:11:00,76.0,32.2,29.38,SW,227,10.5,12.4,20,-99.99,,,0.00,0,rob ver 1B,2013-03-27 04:11:00,
2013-03-26 21:12:00,76.0,32.2,29.38,SW,227,10.1,11.6,20,-99.99,,,0.00,0,rob ver 1B,2013-03-27 04:12:00,
2013-03-26 21:13:00,73.7,26.0,29.29,South,179,6.1,8.0,17,-99.99,,,0.00,0,rob ver 1A,2013-03-27 04:13:00,
2013-03-26 21:14:00,75.8,32.2,29.38,SW,227,8.8,11.0,20,-99.99,,,0.00,0,rob ver 1B,2013-03-27 04:14:00,
2013-03-26 21:15:00,75.7,32.2,29.38,SW,228,8.9,10.3,20,-99.99,,,0.00,0,rob ver 1B,2013-03-27 04:15:00,
2013-03-26 21:16:00,75.7,32.2,29.38,SW,225,7.8,9.8,20,-99.99,,,0.00,0,rob ver 1B,2013-03-27 04:16:00,
2013-03-26 21:17:00,75.5,32.3,29.38,SW,224,8.0,9.5,20,-99.99,,,0.00,0,rob ver 1B,2013-03-27 04:17:00,
2013-03-26 21:18:00,73.4,26.5,29.29,South,179,5.9,7.3,17,-99.99,,,0.00,0,rob ver 1A,2013-03-27 04:18:00,
2013-03-26 21:19:00,75.4,32.4,29.38,SW,221,7.6,9.2,20,-99.99,,,0.00,0,rob ver 1B,2013-03-27 04:19:00,
2013-03-26 21:20:00,75.3,32.4,29.38,SW,221,7.4,8.8,20,-99.99,,,0.00,0,rob ver 1B,2013-03-27 04:20:00,
2013-03-26 21:21:00,75.3,32.5,29.38,SW,221,8.0,8.9,20,-99.99,,,0.00,0,rob ver 1B,2013-03-27 04:21:00,
2013-03-26 21:22:00,75.2,32.6,29.38,SW,219,8.2,9.7,20,-99.99,,,0.00,0,rob ver 1B,2013-03-27 04:22:00,
2013-03-26 21:23:00,73.1,27.0,29.29,South,176,6.2,7.3,18,-99.99,,,0.00,0,rob ver 1A,2013-03-27 04:23:00,
2013-03-26 21:24:00,75.2,32.7,29.38,SW,218,7.7,9.1,21,-99.99,,,0.00,0,rob ver 1B,2013-03-27 04:24:00,
2013-03-26 21:25:00,75.1,32.7,29.38,SW,219,7.0,8.0,21,-99.99,,,0.00,0,rob ver 1B,2013-03-27 04:25:00,
2013-03-26 21:26:00,75.1,32.7,29.38,SW,220,7.1,8.7,21,-99.99,,,0.00,0,rob ver 1B,2013-03-27 04:26:00,
2013-03-26 21:27:00,75.1,32.7,29.38,SW,219,7.5,8.6,21,-99.99,,,0.00,0,rob ver 1B,2013-03-27 04:27:00,
2013-03-26 21:28:00,75.1,32.7,29.38,SW,221,7.2,8.9,21,-99.99,,,0.00,0,rob ver 1B,2013-03-27 04:28:00,
2013-03-26 21:29:00,72.8,27.2,29.29,South,183,6.1,7.2,18,-99.99,,,0.00,0,rob ver 1A,2013-03-27 04:29:00,
2013-03-26 21:30:00,75.0,32.6,29.38,SW,222,6.5,8.0,21,-99.99,,,0.00,0,rob ver 1B,2013-03-27 04:30:00,
2013-03-26 21:31:00,74.9,32.5,29.38,SW,219,6.4,7.8,21,-99.99,,,0.00,0,rob ver 1B,2013-03-27 04:31:00,
2013-03-26 21:32:00,74.9,32.5,29.38,SW,219,6.9,8.8,21,-99.99,,,0.00,0,rob ver 1B,2013-03-27 04:32:00,
2013-03-26 21:33:00,74.8,32.5,29.38,SW,221,7.3,8.7,21,-99.99,,,0.00,0,rob ver 1B,2013-03-27 04:33:00,
2013-03-26 21:34:00,72.7,27.7,29.29,South,185,7.1,8.7,18,-99.99,,,0.00,0,rob ver 1A,2013-03-27 04:34:00,
2013-03-26 21:35:00,74.9,32.4,29.38,SW,220,7.8,9.4,21,-99.99,,,0.00,0,rob ver 1B,2013-03-27 04:35:00,
2013-03-26 21:36:00,74.9,32.4,29.38,SW,219,7.5,8.9,21,-99.99,,,0.00,0,rob ver 1B,2013-03-27 04:36:00,
2013-03-26 21:37:00,74.9,32.4,29.38,SW,217,7.6,9.1,21,-99.99,,,0.00,0,rob ver 1B,2013-03-27 04:37:00,
2013-03-26 21:38:00,74.9,32.5,29.38,SW,219,9.5,12.2,21,-99.99,,,0.00,0,rob ver 1B,2013-03-27 04:38:00,
2013-03-26 21:39:00,72.9,28.4,29.29,South,189,7.0,8.6,19,-99.99,,,0.00,0,rob ver 1A,2013-03-27 04:39:00,
2013-03-26 21:40:00,75.1,32.3,29.38,SW,220,9.5,11.8,20,-99.99,,,0.00,0,rob ver 1B,2013-03-27 04:40:00,
2013-03-26 21:41:00,75.2,32.2,29.41,SW,222,8.7,10.4,20,-99.99,,,0.00,0,rob ver 1B,2013-03-27 04:41:00,
2013-03-26 21:42:00,75.1,32.2,29.41,SW,221,8.6,11.0,20,-99.99,,,0.00,0,rob ver 1B,2013-03-27 04:42:00,
2013-03-26 21:43:00,75.0,32.2,29.41,SW,222,8.7,11.1,20,-99.99,,,0.00,0,rob ver 1B,2013-03-27 04:43:00,
2013-03-26 21:44:00,72.9,28.6,29.29,South,185,7.2,8.9,19,-99.99,,,0.00,0,rob ver 1A,2013-03-27 04:44:00,
2013-03-26 21:45:00,75.2,32.1,29.38,SW,223,8.8,11.5,20,-99.99,,,0.00,0,rob ver 1B,2013-03-27 04:45:00,
2013-03-26 21:46:00,75.1,31.9,29.41,SW,225,8.8,10.4,20,-99.99,,,0.00,0,rob ver 1B,2013-03-27 04:46:00,
2013-03-26 21:47:00,75.1,32.0,29.41,SW,228,8.3,9.6,20,-99.99,,,0.00,0,rob ver 1B,2013-03-27 04:47:00,
2013-03-26 21:48:00,75.0,32.0,29.41,SW,229,8.9,12.1,20,-99.99,,,0.00,0,rob ver 1B,2013-03-27 04:48:00,
2013-03-26 21:49:00,72.9,28.3,29.29,SSW,194,7.5,10.0,19,-99.99,,,0.00,0,rob ver 1A,2013-03-27 04:49:00,
2013-03-26 21:50:00,75.2,31.8,29.41,SW,229,9.6,12.4,20,-99.99,,,0.00,0,rob ver 1B,2013-03-27 04:50:00,
2013-03-26 21:51:00,75.2,31.9,29.41,SW,232,9.3,11.7,20,-99.99,,,0.00,0,rob ver 1B,2013-03-27 04:51:00,
2013-03-26 21:52:00,75.1,31.9,29.41,SW,232,9.7,11.4,20,-99.99,,,0.00,0,rob ver 1B,2013-03-27 04:52:00,
2013-03-26 21:53:00,75.1,31.9,29.41,SW,233,9.3,10.6,20,-99.99,,,0.00,0,rob ver 1B,2013-03-27 04:53:00,
2013-03-26 21:54:00,72.6,28.2,29.29,SSW,196,7.7,8.9,19,-99.99,,,0.00,0,rob ver 1A,2013-03-27 04:54:00,
2013-03-26 21:55:00,75.0,31.7,29.41,SW,233,10.5,14.0,20,-99.99,,,0.00,0,rob ver 1B,2013-03-27 04:55:00,
2013-03-26 21:56:00,75.2,31.5,29.41,SW,231,10.8,13.9,20,-99.99,,,0.00,0,rob ver 1B,2013-03-27 04:56:00,
2013-03-26 21:57:00,75.1,31.5,29.41,SW,234,8.6,11.0,20,-99.99,,,0.00,0,rob ver 1B,2013-03-27 04:57:00,
2013-03-26 21:58:00,74.9,31.5,29.41,SW,235,8.4,10.9,20,-99.99,,,0.00,0,rob ver 1B,2013-03-27 04:58:00,
2013-03-26 21:59:00,72.8,28.9,29.29,SSW,198,8.5,10.9,19,-99.99,,,0.00,0,rob ver 1A,2013-03-27 04:59:00,
2013-03-26 22:00:00,74.9,31.3,29.41,SW,231,11.0,13.9,20,-99.99,,,0.00,0,rob ver 1B,2013-03-27 05:00:00,
2013-03-26 22:01:00,74.9,31.1,29.41,SW,230,10.9,13.1,19,-99.99,,,0.00,0,rob ver 1B,2013-03-27 05:01:00,
2013-03-26 22:02:00,74.9,31.1,29.41,SW,232,11.1,13.3,19,-99.99,,,0.00,0,rob ver 1B,2013-03-27 05:02:00,
2013-03-26 22:03:00,74.9,31.1,29.41,SW,232,11.0,14.4,19,-99.99,,,0.00,0,rob ver 1B,2013-03-27 05:03:00,
2013-03-26 22:04:00,72.8,28.6,29.29,SSW,209,9.2,11.6,19,-99.99,,,0.00,0,rob ver 1A,2013-03-27 05:04:00,
2013-03-26 22:05:00,74.8,31.1,29.41,SW,233,10.2,12.7,20,-99.99,,,0.00,0,rob ver 1B,2013-03-27 05:05:00,
2013-03-26 22:06:00,74.8,31.1,29.41,SW,232,11.1,12.7,20,-99.99,,,0.00,0,rob ver 1B,2013-03-27 05:06:00,
2013-03-26 22:07:00,74.7,31.0,29.41,SW,232,10.8,13.3,20,-99.99,,,0.00,0,rob ver 1B,2013-03-27 05:07:00,
2013-03-26 22:08:00,74.7,31.0,29.41,SW,231,10.6,13.7,20,-99.99,,,0.00,0,rob ver 1B,2013-03-27 05:08:00,
2013-03-26 22:09:00,73.1,28.2,29.32,SSW,213,7.6,9.0,18,-99.99,,,0.00,0,rob ver 1A,2013-03-27 05:09:00,
2013-03-26 22:10:00,74.7,30.9,29.41,SW,230,11.3,12.9,19,-99.99,,,0.00,0,rob ver 1B,2013-03-27 05:10:00,
2013-03-26 22:11:00,74.6,30.9,29.41,SW,230,10.1,13.5,20,-99.99,,,0.00,0,rob ver 1B,2013-03-27 05:11:00,
2013-03-26 22:12:00,74.5,30.9,29.41,SW,228,10.4,12.5,20,-99.99,,,0.00,0,rob ver 1B,2013-03-27 05:12:00,
2013-03-26 22:13:00,74.5,30.9,29.41,SW,227,9.7,12.4,20,-99.99,,,0.00,0,rob ver 1B,2013-03-27 05:13:00,
2013-03-26 22:14:00,72.9,28.3,29.32,SW,219,8.3,9.8,19,-99.99,,,0.00,0,rob ver 1A,2013-03-27 05:14:00,
2013-03-26 22:15:00,74.4,30.9,29.41,SW,226,11.1,13.3,20,-99.99,,,0.00,0,rob ver 1B,2013-03-27 05:15:00,
2013-03-26 22:16:00,74.4,30.9,29.41,SW,226,9.6,11.7,20,-99.99,,,0.00,0,rob ver 1B,2013-03-27 05:16:00,
2013-03-26 22:17:00,74.4,30.9,29.41,SW,227,9.1,11.0,20,-99.99,,,0.00,0,rob ver 1B,2013-03-27 05:17:00,
2013-03-26 22:18:00,74.3,31.0,29.41,SW,229,9.9,12.1,20,-99.99,,,0.00,0,rob ver 1B,2013-03-27 05:18:00,
2013-03-26 22:19:00,74.2,31.0,29.41,SW,230,9.3,11.4,20,-99.99,,,0.00,0,rob ver 1B,2013-03-27 05:19:00,
2013-03-26 22:20:00,73.0,28.4,29.32,SW,221,8.4,10.3,19,-99.99,,,0.00,0,rob ver 1A,2013-03-27 05:20:00,
2013-03-26 22:21:00,74.1,31.1,29.41,SW,231,9.3,11.0,20,-99.99,,,0.00,0,rob ver 1B,2013-03-27 05:21:00,
2013-03-26 22:22:00,74.1,31.2,29.41,SW,230,8.6,10.6,20,-99.99,,,0.00,0,rob ver 1B,2013-03-27 05:22:00,
2013-03-26 22:23:00,74.1,31.2,29.41,SW,228,9.2,11.0,20,-99.99,,,0.00,0,rob ver 1B,2013-03-27 05:23:00,
2013-03-26 22:24:00,74.0,31.2,29.41,SW,231,8.7,10.7,20,-99.99,,,0.00,0,rob ver 1B,2013-03-27 05:24:00,
2013-03-26 22:25:00,72.7,28.5,29.32,SW,221,7.3,8.7,19,-99.99,,,0.00,0,rob ver 1A,2013-03-27 05:25:00,
2013-03-26 22:26:00,73.8,31.3,29.41,SW,228,6.9,8.5,20,-99.99,,,0.00,0,rob ver 1B,2013-03-27 05:26:00,
2013-03-26 22:27:00,73.8,31.3,29.41,SW,225,8.2,10.9,20,-99.99,,,0.00,0,rob ver 1B,2013-03-27 05:27:00,
2013-03-26 22:28:00,73.8,31.4,29.41,SW,224,8.2,9.7,20,-99.99,,,0.00,0,rob ver 1B,2013-03-27 05:28:00,
2013-03-26 22:29:00,73.9,31.4,29.41,SW,223,7.6,9.8,20,-99.99,,,0.00,0,rob ver 1B,2013-03-27 05:29:00,
2013-03-26 22:30:00,72.4,28.5,29.32,SW,214,6.1,7.3,19,-99.99,,,0.00,0,rob ver 1A,2013-03-27 05:30:00,
2013-03-26 22:31:00,73.6,31.4,29.41,SW,225,6.2,7.9,21,-99.99,,,0.00,0,rob ver 1B,2013-03-27 05:31:00,
2013-03-26 22:32:00,73.5,31.3,29.41,SW,226,6.4,9.0,21,-99.99,,,0.00,0,rob ver 1B,2013-03-27 05:32:00,
2013-03-26 22:33:00,73.4,31.4,29.41,SW,226,6.7,7.8,21,-99.99,,,0.00,0,rob ver 1B,2013-03-27 05:33:00,
2013-03-26 22:34:00,73.4,31.5,29.41,SW,226,7.1,8.6,21,-99.99,,,0.00,0,rob ver 1B,2013-03-27 05:34:00,
2013-03-26 22:35:00,72.2,28.5,29.32,SSW,205,6.5,7.8,19,-99.99,,,0.00,0,rob ver 1A,2013-03-27 05:35:00,
2013-03-26 22:36:00,73.4,31.6,29.41,SW,232,7.7,10.3,21,-99.99,,,0.00,0,rob ver 1B,2013-03-27 05:36:00,
2013-03-26 22:37:00,73.5,31.6,29.41,SW,230,8.6,9.9,21,-99.99,,,0.00,0,rob ver 1B,2013-03-27 05:37:00,
2013-03-26 22:38:00,73.6,31.7,29.41,SW,229,9.0,10.7,21,-99.99,,,0.00,0,rob ver 1B,2013-03-27 05:38:00,
2013-03-26 22:39:00,73.6,31.7,29.41,SW,227,8.1,9.1,21,-99.99,,,0.00,0,rob ver 1B,2013-03-27 05:39:00,
2013-03-26 22:40:00,72.1,28.5,29.32,SSW,204,7.4,9.1,19,-99.99,,,0.00,0,rob ver 1A,2013-03-27 05:40:00,
2013-03-26 22:41:00,73.4,31.7,29.41,SW,225,6.9,8.6,21,-99.99,,,0.00,0,rob ver 1B,2013-03-27 05:41:00,
2013-03-26 22:42:00,73.3,31.7,29.41,SW,226,6.7,9.1,21,-99.99,,,0.00,0,rob ver 1B,2013-03-27 05:42:00,
2013-03-26 22:43:00,73.2,31.8,29.41,SW,223,7.9,9.5,21,-99.99,,,0.00,0,rob ver 1B,2013-03-27 05:43:00,
2013-03-26 22:44:00,73.2,31.9,29.41,SW,222,7.4,8.8,21,-99.99,,,0.00,0,rob ver 1B,2013-03-27 05:44:00,
2013-03-26 22:45:00,72.6,28.6,29.32,SSW,206,8.6,11.4,19,-99.99,,,0.00,0,rob ver 1A,2013-03-27 05:45:00,
2013-03-26 22:46:00,73.1,32.1,29.41,SW,223,8.5,10.5,22,-99.99,,,0.00,0,rob ver 1B,2013-03-27 05:46:00,
2013-03-26 22:47:00,73.1,32.2,29.41,SW,221,8.9,11.0,22,-99.99,,,0.00,0,rob ver 1B,2013-03-27 05:47:00,
2013-03-26 22:48:00,73.1,32.4,29.41,SW,220,9.4,11.5,22,-99.99,,,0.00,0,rob ver 1B,2013-03-27 05:48:00,
2013-03-26 22:49:00,73.1,32.5,29.41,SW,220,9.7,11.8,22,-99.99,,,0.00,0,rob ver 1B,2013-03-27 05:49:00,
2013-03-26 22:50:00,72.2,29.1,29.32,SSW,206,8.1,9.9,20,-99.99,,,0.00,0,rob ver 1A,2013-03-27 05:50:00,
2013-03-26 22:51:00,73.0,32.6,29.41,SW,222,10.6,13.5,22,-99.99,,,0.00,0,rob ver 1B,2013-03-27 05:51:00,
2013-03-26 22:52:00,73.1,32.7,29.41,SW,222,10.8,12.0,22,-99.99,,,0.00,0,rob ver 1B,2013-03-27 05:52:00,
2013-03-26 22:53:00,73.1,32.7,29.41,SW,220,11.2,12.7,22,-99.99,,,0.00,0,rob ver 1B,2013-03-27 05:53:00,
2013-03-26 22:54:00,73.1,32.7,29.41,SW,223,10.2,12.5,22,-99.99,,,0.00,0,rob ver 1B,2013-03-27 05:54:00,
2013-03-26 22:55:00,72.0,29.6,29.32,SSW,206,8.5,9.6,20,-99.99,,,0.00,0,rob ver 1A,2013-03-27 05:55:00,
2013-03-26 22:56:00,73.0,32.7,29.41,SW,220,10.2,12.4,22,-99.99,,,0.00,0,rob ver 1B,2013-03-27 05:56:00,
2013-03-26 22:57:00,73.0,32.7,29.41,SW,220,9.7,11.2,22,-99.99,,,0.00,0,rob ver 1B,2013-03-27 05:57:00,
2013-03-26 22:58:00,72.9,32.7,29.41,SW,221,8.7,10.1,22,-99.99,,,0.00,0,rob ver 1B,2013-03-27 05:58:00,
2013-03-26 22:59:00,72.9,32.7,29.41,SW,220,9.0,11.1,22,-99.99,,,0.00,0,rob ver 1B,2013-03-27 05:59:00,
2013-03-26 23:00:00,71.7,29.8,29.32,SSW,207,8.9,10.2,21,-99.99,,,0.00,0,rob ver 1A,2013-03-27 06:00:00,
2013-03-26 23:01:00,72.9,32.9,29.41,SW,222,8.7,11.0,22,-99.99,,,0.00,0,rob ver 1B,2013-03-27 06:01:00,
2013-03-26 23:02:00,72.9,32.9,29.41,SW,221,7.7,9.7,22,-99.99,,,0.00,0,rob ver 1B,2013-03-27 06:02:00,
2013-03-26 23:03:00,72.8,32.9,29.41,SW,222,8.1,10.0,23,-99.99,,,0.00,0,rob ver 1B,2013-03-27 06:03:00,
2013-03-26 23:04:00,72.8,33.0,29.41,SW,222,8.5,9.6,22,-99.99,,,0.00,0,rob ver 1B,2013-03-27 06:04:00,
2013-03-26 23:05:00,72.8,33.0,29.41,SW,220,8.1,10.2,23,-99.99,,,0.00,0,rob ver 1B,2013-03-27 06:05:00,
2013-03-26 23:06:00,71.4,30.1,29.32,SSW,209,8.9,10.7,21,-99.99,,,0.00,0,rob ver 1A,2013-03-27 06:06:00,
2013-03-26 23:07:00,72.8,33.0,29.41,SW,223,6.6,8.8,23,-99.99,,,0.00,0,rob ver 1B,2013-03-27 06:07:00,
2013-03-26 23:08:00,72.6,33.0,29.41,SW,229,4.9,6.2,23,-99.99,,,0.00,0,rob ver 1B,2013-03-27 06:08:00,
2013-03-26 23:09:00,72.5,33.0,29.41,SW,232,4.3,5.7,23,-99.99,,,0.00,0,rob ver 1B,2013-03-27 06:09:00,
2013-03-26 23:10:00,72.4,33.0,29.41,WSW,244,3.8,5.0,23,-99.99,,,0.00,0,rob ver 1B,2013-03-27 06:10:00,
2013-03-26 23:11:00,71.5,30.2,29.32,SSW,211,8.9,11.0,21,-99.99,,,0.00,0,rob ver 1A,2013-03-27 06:11:00,
2013-03-26 23:12:00,72.3,32.8,29.41,North,349,2.4,3.4,23,-99.99,,,0.00,0,rob ver 1B,2013-03-27 06:12:00,
2013-03-26 23:13:00,72.2,32.5,29.41,NNE,18,3.0,3.7,23,-99.99,,,0.00,0,rob ver 1B,2013-03-27 06:13:00,
2013-03-26 23:14:00,72.1,32.2,29.41,NNE,32,3.1,3.9,22,-99.99,,,0.00,0,rob ver 1B,2013-03-27 06:14:00,
2013-03-26 23:15:00,72.0,32.1,29.41,NE,39,3.2,3.8,22,-99.99,,,0.00,0,rob ver 1B,2013-03-27 06:15:00,
2013-03-26 23:16:00,71.5,30.5,29.32,SSW,210,9.4,11.0,21,-99.99,,,0.00,0,rob ver 1A,2013-03-27 06:16:00,
2013-03-26 23:17:00,71.8,32.1,29.41,ENE,61,3.1,3.9,23,-99.99,,,0.00,0,rob ver 1B,2013-03-27 06:17:00,
2013-03-26 23:18:00,71.7,32.1,29.41,ENE,58,3.2,3.6,23,-99.99,,,0.00,0,rob ver 1B,2013-03-27 06:18:00,
2013-03-26 23:19:00,71.6,32.2,29.41,ENE,57,3.5,4.1,23,-99.99,,,0.00,0,rob ver 1B,2013-03-27 06:19:00,
2013-03-26 23:20:00,71.6,32.2,29.41,ENE,57,4.1,4.5,23,-99.99,,,0.00,0,rob ver 1B,2013-03-27 06:20:00,
2013-03-26 23:21:00,71.3,30.5,29.32,SSW,207,8.1,9.8,21,-99.99,,,0.00,0,rob ver 1A,2013-03-27 06:21:00,
2013-03-26 23:22:00,71.7,32.4,29.41,ENE,65,2.3,3.3,23,-99.99,,,0.00,0,rob ver 1B,2013-03-27 06:22:00,
2013-03-26 23:23:00,71.7,32.7,29.41,ENE,66,2.6,3.6,23,-99.99,,,0.00,0,rob ver 1B,2013-03-27 06:23:00,
2013-03-26 23:24:00,71.8,32.4,29.41,East,86,2.4,3.0,23,-99.99,,,0.00,0,rob ver 1B,2013-03-27 06:24:00,
2013-03-26 23:25:00,71.7,32.4,29.41,ENE,69,2.0,2.9,23,-99.99,,,0.00,0,rob ver 1B,2013-03-27 06:25:00,
2013-03-26 23:26:00,70.9,30.6,29.32,SSW,194,5.8,7.4,22,-99.99,,,0.00,0,rob ver 1A,2013-03-27 06:26:00,
2013-03-26 23:27:00,71.4,31.9,29.41,ESE,122,2.4,3.2,23,-99.99,,,0.00,0,rob ver 1B,2013-03-27 06:27:00,
2013-03-26 23:28:00,71.3,32.2,29.41,ESE,111,1.6,2.1,23,-99.99,,,0.00,0,rob ver 1B,2013-03-27 06:28:00,
2013-03-26 23:29:00,71.3,32.3,29.41,ESE,110,2.2,3.6,24,-99.99,,,0.00,0,rob ver 1B,2013-03-27 06:29:00,
2013-03-26 23:30:00,71.4,32.9,29.41,SE,124,2.5,3.4,24,-99.99,,,0.00,0,rob ver 1B,2013-03-27 06:30:00,
2013-03-26 23:31:00,70.9,31.1,29.32,SSW,194,7.6,9.2,22,-99.99,,,0.00,0,rob ver 1A,2013-03-27 06:31:00,
2013-03-26 23:32:00,71.9,33.2,29.41,SSE,158,2.9,4.5,23,-99.99,,,0.00,0,rob ver 1B,2013-03-27 06:32:00,
2013-03-26 23:33:00,71.9,33.1,29.41,SSW,192,3.8,5.3,24,-99.99,,,0.00,0,rob ver 1B,2013-03-27 06:33:00,
2013-03-26 23:34:00,71.9,33.2,29.41,SSW,199,4.6,6.2,24,-99.99,,,0.00,0,rob ver 1B,2013-03-27 06:34:00,
2013-03-26 23:35:00,72.0,33.3,29.41,South,189,4.7,6.0,24,-99.99,,,0.00,0,rob ver 1B,2013-03-27 06:35:00,
2013-03-26 23:36:00,70.6,31.1,29.32,SSW,197,6.2,8.4,23,-99.99,,,0.00,0,rob ver 1A,2013-03-27 06:36:00,
2013-03-26 23:37:00,72.0,33.3,29.41,South,181,4.2,5.4,23,-99.99,,,0.00,0,rob ver 1B,2013-03-27 06:37:00,
2013-03-26 23:38:00,72.0,33.2,29.41,South,169,2.9,3.8,23,-99.99,,,0.00,0,rob ver 1B,2013-03-27 06:38:00,
2013-03-26 23:39:00,71.9,33.1,29.41,South,182,3.1,4.3,23,-99.99,,,0.00,0,rob ver 1B,2013-03-27 06:39:00,
2013-03-26 23:40:00,71.9,33.2,29.41,South,177,3.5,5.0,23,-99.99,,,0.00,0,rob ver 1B,2013-03-27 06:40:00,
2013-03-26 23:41:00,70.0,31.8,29.32,SSW,196,4.5,6.1,24,-99.99,,,0.00,0,rob ver 1A,2013-03-27 06:41:00,
2013-03-26 23:42:00,71.8,33.1,29.41,South,173,4.2,4.7,23,-99.99,,,0.00,0,rob ver 1B,2013-03-27 06:42:00,
2013-03-26 23:43:00,71.7,33.1,29.41,South,175,5.0,5.9,24,-99.99,,,0.00,0,rob ver 1B,2013-03-27 06:43:00,
2013-03-26 23:44:00,71.7,33.1,29.41,South,173,4.4,5.7,24,-99.99,,,0.00,0,rob ver 1B,2013-03-27 06:44:00,
2013-03-26 23:45:00,71.6,33.0,29.41,South,171,3.9,4.6,23,-99.99,,,0.00,0,rob ver 1B,2013-03-27 06:45:00,
2013-03-26 23:46:00,69.8,32.5,29.32,SSW,198,6.0,7.5,25,-99.99,,,0.00,0,rob ver 1A,2013-03-27 06:46:00,
2013-03-26 23:47:00,71.3,32.8,29.41,South,177,3.7,4.3,24,-99.99,,,0.00,0,rob ver 1B,2013-03-27 06:47:00,
2013-03-26 23:48:00,71.2,32.7,29.41,South,179,4.1,6.4,24,-99.99,,,0.00,0,rob ver 1B,2013-03-27 06:48:00,
2013-03-26 23:49:00,71.1,32.7,29.41,South,179,4.7,5.5,24,-99.99,,,0.00,0,rob ver 1B,2013-03-27 06:49:00,
2013-03-26 23:50:00,71.0,32.8,29.41,South,178,5.8,6.8,24,-99.99,,,0.00,0,rob ver 1B,2013-03-27 06:50:00,
2013-03-26 23:51:00,69.4,32.7,29.32,SSE,162,5.1,6.3,25,-99.99,,,0.00,0,rob ver 1A,2013-03-27 06:51:00,
2013-03-26 23:52:00,71.0,32.8,29.41,South,181,7.1,8.5,24,-99.99,,,0.00,0,rob ver 1B,2013-03-27 06:52:00,
2013-03-26 23:53:00,71.1,32.9,29.41,South,182,7.2,8.3,24,-99.99,,,0.00,0,rob ver 1B,2013-03-27 06:53:00,
2013-03-26 23:54:00,71.1,32.9,29.41,South,178,7.2,7.9,24,-99.99,,,0.00,0,rob ver 1B,2013-03-27 06:54:00,
2013-03-26 23:55:00,71.2,33.1,29.41,South,180,7.0,8.5,24,-99.99,,,0.00,0,rob ver 1B,2013-03-27 06:55:00,
2013-03-26 23:56:00,69.0,33.1,29.32,SSE,158,5.6,6.8,26,-99.99,,,0.00,0,rob ver 1A,2013-03-27 06:56:00,
2013-03-26 23:57:00,71.3,33.2,29.41,South,183,6.9,7.8,24,-99.99,,,0.00,0,rob ver 1B,2013-03-27 06:57:00,
2013-03-26 23:58:00,71.3,33.2,29.41,South,186,6.3,8.1,24,-99.99,,,0.00,0,rob ver 1B,2013-03-27 06:58:00,
2013-03-26 23:59:00,71.3,33.2,29.41,South,184,6.6,8.2,24,-99.99,,,0.00,0,rob ver 1B,2013-03-27 06:59:00,